PWSweather.com
Personal Weather Stations
Station Observations
WEERALK
AlkmaarNL 1827 PE

AlkmaarNL 1827 PE

Lat: 52.6712679, Lon: 4.7682444

Elevation: 7

Station Type: Davis Vantage Pro2

Latest ConditionsUpdated 5:08:01 PM GMT+01:01 Saturday, Aug 30, 2014
Currently Today's Max Today's Min Today's Average
Temperature 65.7°F18.7°C 68.7°F20.4°C 61.7°F16.5°C 64.7°F18.2°C
Dew Point 57.6°F14.2°C 62.2°F16.8°C 56.8°F13.8°C 59.9°F15.5°C
Winds 8.0 mph W12.9 kmh W 11.0 mph SW17.7 kmh SW - 7.0 mph 11.3 kmh
Wind Gusts 17.0 mph27.4 kmh 24.0 mph38.6 kmh - -
Humidity 75% 94% 70% 85%
Pressure 29.91 in1012.9 mb 29.91 in1012.9 mb 29.86 in1011.2 mb -
Precipitation - 0.06 in1.5 mm - -
Hour Temp Dew Point Humidity Winds Wind Gusts Pressure Precip Precip Rate Daily Precip Total
05:08 PM 65.7°F18.7°C 57.6°F14.2°C 75% 8.0 mph W12.9 kmh W 17.0 mph27.4 kmh 29.91 in1012.9 mb 0.00 in0.0 mm 0.00 in/hr0.0 mm/hr 0.06 in1.5 mm
05:07 PM 65.7°F18.7°C 57.4°F14.1°C 75% 7.0 mph W11.3 kmh W 16.0 mph25.7 kmh 29.91 in1012.9 mb 0.00 in0.0 mm 0.00 in/hr0.0 mm/hr 0.06 in1.5 mm
05:06 PM 65.5°F18.6°C 57.2°F14.0°C 75% 7.0 mph W11.3 kmh W 16.0 mph25.7 kmh 29.91 in1012.9 mb 0.00 in0.0 mm 0.00 in/hr0.0 mm/hr 0.06 in1.5 mm
05:05 PM 65.3°F18.5°C 57.6°F14.2°C 76% 7.0 mph W11.3 kmh W 16.0 mph25.7 kmh 29.91 in1012.9 mb 0.00 in0.0 mm 0.00 in/hr0.0 mm/hr 0.06 in1.5 mm
05:04 PM 65.1°F18.4°C 57.4°F14.1°C 76% 7.0 mph W11.3 kmh W 15.0 mph24.1 kmh 29.91 in1012.9 mb 0.00 in0.0 mm 0.00 in/hr0.0 mm/hr 0.06 in1.5 mm
05:03 PM 64.9°F18.3°C 57.6°F14.2°C 77% 8.0 mph W12.9 kmh W 15.0 mph24.1 kmh 29.91 in1012.9 mb 0.00 in0.0 mm 0.00 in/hr0.0 mm/hr 0.06 in1.5 mm
05:02 PM 64.6°F18.1°C 57.2°F14.0°C 77% 8.0 mph W12.9 kmh W 15.0 mph24.1 kmh 29.91 in1012.9 mb 0.00 in0.0 mm 0.00 in/hr0.0 mm/hr 0.06 in1.5 mm
05:01 PM 64.6°F18.1°C 57.6°F14.2°C 78% 8.0 mph W12.9 kmh W 15.0 mph24.1 kmh 29.91 in1012.9 mb 0.00 in0.0 mm 0.00 in/hr0.0 mm/hr 0.06 in1.5 mm
05:00 PM 64.2°F17.9°C 57.4°F14.1°C 78% 8.0 mph W12.9 kmh W 15.0 mph24.1 kmh 29.91 in1012.9 mb 0.00 in0.0 mm 0.00 in/hr0.0 mm/hr 0.06 in1.5 mm
04:59 PM 64.2°F17.9°C 57.2°F14.0°C 78% 8.0 mph W12.9 kmh W 15.0 mph24.1 kmh 29.91 in1012.9 mb 0.00 in0.0 mm 0.00 in/hr0.0 mm/hr 0.06 in1.5 mm
04:58 PM 64.2°F17.9°C 57.2°F14.0°C 78% 8.0 mph W12.9 kmh W 15.0 mph24.1 kmh 29.91 in1012.9 mb 0.00 in0.0 mm 0.00 in/hr0.0 mm/hr 0.06 in1.5 mm
04:57 PM 64.2°F17.9°C 56.8°F13.8°C 77% 8.0 mph W12.9 kmh W 15.0 mph24.1 kmh 29.91 in1012.9 mb 0.00 in0.0 mm 0.00 in/hr0.0 mm/hr 0.06 in1.5 mm
04:56 PM 64.2°F17.9°C 57.0°F13.9°C 77% 9.0 mph W14.5 kmh W 15.0 mph24.1 kmh 29.91 in1012.9 mb 0.00 in0.0 mm 0.00 in/hr0.0 mm/hr 0.06 in1.5 mm
04:55 PM 64.2°F17.9°C 57.0°F13.9°C 77% 9.0 mph W14.5 kmh W 15.0 mph24.1 kmh 29.91 in1012.9 mb 0.00 in0.0 mm 0.00 in/hr0.0 mm/hr 0.06 in1.5 mm
04:54 PM 64.2°F17.9°C 57.0°F13.9°C 77% 9.0 mph W14.5 kmh W 15.0 mph24.1 kmh 29.91 in1012.9 mb 0.00 in0.0 mm 0.00 in/hr0.0 mm/hr 0.06 in1.5 mm
04:53 PM 64.4°F18.0°C 57.0°F13.9°C 77% 9.0 mph W14.5 kmh W 15.0 mph24.1 kmh 29.91 in1012.9 mb 0.00 in0.0 mm 0.00 in/hr0.0 mm/hr 0.06 in1.5 mm
04:52 PM 64.4°F18.0°C 57.0°F13.9°C 77% 9.0 mph W14.5 kmh W 19.0 mph30.6 kmh 29.91 in1012.9 mb 0.00 in0.0 mm 0.00 in/hr0.0 mm/hr 0.06 in1.5 mm
04:51 PM 64.6°F18.1°C 56.8°F13.8°C 76% 9.0 mph W14.5 kmh W 19.0 mph30.6 kmh 29.91 in1012.9 mb 0.00 in0.0 mm 0.00 in/hr0.0 mm/hr 0.06 in1.5 mm
04:50 PM 64.6°F18.1°C 57.2°F14.0°C 77% 9.0 mph W14.5 kmh W 19.0 mph30.6 kmh 29.91 in1012.9 mb 0.00 in0.0 mm 0.00 in/hr0.0 mm/hr 0.06 in1.5 mm
04:49 PM 64.6°F18.1°C 57.2°F14.0°C 77% 8.0 mph W12.9 kmh W 19.0 mph30.6 kmh 29.91 in1012.9 mb 0.00 in0.0 mm 0.00 in/hr0.0 mm/hr 0.06 in1.5 mm
04:48 PM 64.6°F18.1°C 57.2°F14.0°C 77% 8.0 mph W12.9 kmh W 19.0 mph30.6 kmh 29.91 in1012.9 mb 0.00 in0.0 mm 0.00 in/hr0.0 mm/hr 0.06 in1.5 mm
04:47 PM 64.8°F18.2°C 57.4°F14.1°C 77% 9.0 mph W14.5 kmh W 19.0 mph30.6 kmh 29.91 in1012.9 mb 0.00 in0.0 mm 0.00 in/hr0.0 mm/hr 0.06 in1.5 mm
04:46 PM 64.8°F18.2°C 57.4°F14.1°C 77% 8.0 mph W12.9 kmh W 19.0 mph30.6 kmh 29.91 in1012.9 mb 0.00 in0.0 mm 0.00 in/hr0.0 mm/hr 0.06 in1.5 mm
04:45 PM 64.8°F18.2°C 57.0°F13.9°C 76% 8.0 mph W12.9 kmh W 19.0 mph30.6 kmh 29.91 in1012.9 mb 0.00 in0.0 mm 0.00 in/hr0.0 mm/hr 0.06 in1.5 mm
04:44 PM 64.9°F18.3°C 57.2°F14.0°C 76% 8.0 mph W12.9 kmh W 19.0 mph30.6 kmh 29.91 in1012.9 mb 0.00 in0.0 mm 0.00 in/hr0.0 mm/hr 0.06 in1.5 mm
04:43 PM 64.9°F18.3°C 57.2°F14.0°C 76% 8.0 mph W12.9 kmh W 19.0 mph30.6 kmh 29.91 in1012.9 mb 0.00 in0.0 mm 0.00 in/hr0.0 mm/hr 0.06 in1.5 mm
04:42 PM 65.1°F18.4°C 57.7°F14.3°C 77% 8.0 mph W12.9 kmh W 18.0 mph29.0 kmh 29.91 in1012.9 mb 0.00 in0.0 mm 0.00 in/hr0.0 mm/hr 0.06 in1.5 mm
04:41 PM 65.3°F18.5°C 57.9°F14.4°C 77% 8.0 mph W12.9 kmh W 16.0 mph25.7 kmh 29.91 in1012.9 mb 0.00 in0.0 mm 0.00 in/hr0.0 mm/hr 0.06 in1.5 mm
04:40 PM 65.5°F18.6°C 57.9°F14.4°C 77% 8.0 mph W12.9 kmh W 14.0 mph22.5 kmh 29.91 in1012.9 mb 0.00 in0.0 mm 0.00 in/hr0.0 mm/hr 0.06 in1.5 mm
04:39 PM 65.5°F18.6°C 58.1°F14.5°C 77% 8.0 mph W12.9 kmh W 14.0 mph22.5 kmh 29.91 in1012.9 mb 0.00 in0.0 mm 0.00 in/hr0.0 mm/hr 0.06 in1.5 mm
04:38 PM 65.7°F18.7°C 57.7°F14.3°C 76% 8.0 mph W12.9 kmh W 14.0 mph22.5 kmh 29.91 in1012.9 mb 0.00 in0.0 mm 0.00 in/hr0.0 mm/hr 0.06 in1.5 mm
04:37 PM 65.7°F18.7°C 57.7°F14.3°C 76% 7.0 mph W11.3 kmh W 14.0 mph22.5 kmh 29.91 in1012.9 mb 0.00 in0.0 mm 0.00 in/hr0.0 mm/hr 0.06 in1.5 mm
04:36 PM 65.7°F18.7°C 57.7°F14.3°C 76% 8.0 mph W12.9 kmh W 14.0 mph22.5 kmh 29.91 in1012.9 mb 0.00 in0.0 mm 0.00 in/hr0.0 mm/hr 0.06 in1.5 mm
04:35 PM 65.7°F18.7°C 57.6°F14.2°C 75% 8.0 mph W12.9 kmh W 16.0 mph25.7 kmh 29.91 in1012.9 mb 0.00 in0.0 mm 0.00 in/hr0.0 mm/hr 0.06 in1.5 mm
04:34 PM 65.8°F18.8°C 57.7°F14.3°C 75% 8.0 mph W12.9 kmh W 16.0 mph25.7 kmh 29.91 in1012.9 mb 0.00 in0.0 mm 0.00 in/hr0.0 mm/hr 0.06 in1.5 mm
04:33 PM 66.0°F18.9°C 57.9°F14.4°C 75% 8.0 mph W12.9 kmh W 16.0 mph25.7 kmh 29.91 in1012.9 mb 0.00 in0.0 mm 0.00 in/hr0.0 mm/hr 0.06 in1.5 mm
04:32 PM 66.0°F18.9°C 57.9°F14.4°C 75% 8.0 mph W12.9 kmh W 16.0 mph25.7 kmh 29.91 in1012.9 mb 0.00 in0.0 mm 0.00 in/hr0.0 mm/hr 0.06 in1.5 mm
04:31 PM 66.4°F19.1°C 58.1°F14.5°C 75% 8.0 mph W12.9 kmh W 16.0 mph25.7 kmh 29.91 in1012.9 mb 0.00 in0.0 mm 0.00 in/hr0.0 mm/hr 0.06 in1.5 mm
04:30 PM 66.4°F19.1°C 58.5°F14.7°C 76% 7.0 mph W11.3 kmh W 16.0 mph25.7 kmh 29.91 in1012.9 mb 0.00 in0.0 mm 0.00 in/hr0.0 mm/hr 0.06 in1.5 mm
04:29 PM 66.4°F19.1°C 58.1°F14.5°C 75% 7.0 mph W11.3 kmh W 16.0 mph25.7 kmh 29.91 in1012.9 mb 0.00 in0.0 mm 0.00 in/hr0.0 mm/hr 0.06 in1.5 mm
04:28 PM 66.4°F19.1°C 57.9°F14.4°C 74% 7.0 mph W11.3 kmh W 16.0 mph25.7 kmh 29.90 in1012.5 mb 0.00 in0.0 mm 0.00 in/hr0.0 mm/hr 0.06 in1.5 mm
04:27 PM 66.6°F19.2°C 57.9°F14.4°C 74% 8.0 mph W12.9 kmh W 16.0 mph25.7 kmh 29.91 in1012.9 mb 0.00 in0.0 mm 0.00 in/hr0.0 mm/hr 0.06 in1.5 mm
04:26 PM 66.6°F19.2°C 58.1°F14.5°C 74% 7.0 mph W11.3 kmh W 16.0 mph25.7 kmh 29.91 in1012.9 mb 0.00 in0.0 mm 0.00 in/hr0.0 mm/hr 0.06 in1.5 mm
04:25 PM 66.7°F19.3°C 58.1°F14.5°C 74% 7.0 mph W11.3 kmh W 14.0 mph22.5 kmh 29.91 in1012.9 mb 0.00 in0.0 mm 0.00 in/hr0.0 mm/hr 0.06 in1.5 mm
04:24 PM 66.7°F19.3°C 58.5°F14.7°C 75% 7.0 mph W11.3 kmh W 16.0 mph25.7 kmh 29.91 in1012.9 mb 0.00 in0.0 mm 0.00 in/hr0.0 mm/hr 0.06 in1.5 mm
04:23 PM 66.6°F19.2°C 58.5°F14.7°C 75% 7.0 mph W11.3 kmh W 16.0 mph25.7 kmh 29.90 in1012.5 mb 0.00 in0.0 mm 0.00 in/hr0.0 mm/hr 0.06 in1.5 mm
04:22 PM 66.6°F19.2°C 59.0°F15.0°C 77% 7.0 mph W11.3 kmh W 16.0 mph25.7 kmh 29.90 in1012.5 mb 0.00 in0.0 mm 0.00 in/hr0.0 mm/hr 0.06 in1.5 mm
04:21 PM 66.2°F19.0°C 58.5°F14.7°C 76% 7.0 mph WNW11.3 kmh WNW 16.0 mph25.7 kmh 29.90 in1012.5 mb 0.00 in0.0 mm 0.00 in/hr0.0 mm/hr 0.06 in1.5 mm
04:20 PM 66.0°F18.9°C 58.3°F14.6°C 76% 7.0 mph WNW11.3 kmh WNW 16.0 mph25.7 kmh 29.90 in1012.5 mb 0.00 in0.0 mm 0.00 in/hr0.0 mm/hr 0.06 in1.5 mm
04:19 PM 66.0°F18.9°C 58.3°F14.6°C 76% 7.0 mph WNW11.3 kmh WNW 16.0 mph25.7 kmh 29.90 in1012.5 mb 0.00 in0.0 mm 0.00 in/hr0.0 mm/hr 0.06 in1.5 mm
04:18 PM 65.8°F18.8°C 58.1°F14.5°C 76% 8.0 mph WNW12.9 kmh WNW 16.0 mph25.7 kmh 29.90 in1012.5 mb 0.00 in0.0 mm 0.00 in/hr0.0 mm/hr 0.06 in1.5 mm
04:17 PM 65.8°F18.8°C 58.1°F14.5°C 76% 8.0 mph WNW12.9 kmh WNW 16.0 mph25.7 kmh 29.90 in1012.5 mb 0.00 in0.0 mm 0.00 in/hr0.0 mm/hr 0.06 in1.5 mm
04:16 PM 65.8°F18.8°C 58.5°F14.7°C 77% 8.0 mph WNW12.9 kmh WNW 16.0 mph25.7 kmh 29.90 in1012.5 mb 0.00 in0.0 mm 0.00 in/hr0.0 mm/hr 0.06 in1.5 mm
04:15 PM 65.7°F18.7°C 57.9°F14.4°C 76% 8.0 mph W12.9 kmh W 16.0 mph25.7 kmh 29.90 in1012.5 mb 0.00 in0.0 mm 0.00 in/hr0.0 mm/hr 0.06 in1.5 mm
04:14 PM 65.7°F18.7°C 58.3°F14.6°C 77% 8.0 mph W12.9 kmh W 13.0 mph20.9 kmh 29.90 in1012.5 mb 0.00 in0.0 mm 0.00 in/hr0.0 mm/hr 0.06 in1.5 mm
04:13 PM 65.7°F18.7°C 58.3°F14.6°C 77% 8.0 mph W12.9 kmh W 13.0 mph20.9 kmh 29.90 in1012.5 mb 0.00 in0.0 mm 0.00 in/hr0.0 mm/hr 0.06 in1.5 mm
04:12 PM 65.5°F18.6°C 58.3°F14.6°C 78% 8.0 mph W12.9 kmh W 14.0 mph22.5 kmh 29.90 in1012.5 mb 0.00 in0.0 mm 0.00 in/hr0.0 mm/hr 0.06 in1.5 mm
04:11 PM 65.1°F18.4°C 58.1°F14.5°C 78% 8.0 mph W12.9 kmh W 14.0 mph22.5 kmh 29.90 in1012.5 mb 0.00 in0.0 mm 0.00 in/hr0.0 mm/hr 0.06 in1.5 mm
04:10 PM 64.9°F18.3°C 58.3°F14.6°C 79% 8.0 mph W12.9 kmh W 14.0 mph22.5 kmh 29.90 in1012.5 mb 0.00 in0.0 mm 0.00 in/hr0.0 mm/hr 0.06 in1.5 mm
04:09 PM 64.8°F18.2°C 58.1°F14.5°C 79% 8.0 mph W12.9 kmh W 14.0 mph22.5 kmh 29.91 in1012.9 mb 0.00 in0.0 mm 0.00 in/hr0.0 mm/hr 0.06 in1.5 mm
04:08 PM 64.6°F18.1°C 58.3°F14.6°C 80% 8.0 mph W12.9 kmh W 14.0 mph22.5 kmh 29.91 in1012.9 mb 0.00 in0.0 mm 0.00 in/hr0.0 mm/hr 0.06 in1.5 mm
04:07 PM 64.6°F18.1°C 58.3°F14.6°C 80% 7.0 mph WNW11.3 kmh WNW 14.0 mph22.5 kmh 29.90 in1012.5 mb 0.00 in0.0 mm 0.00 in/hr0.0 mm/hr 0.06 in1.5 mm
04:06 PM 64.4°F18.0°C 58.1°F14.5°C 80% 7.0 mph WNW11.3 kmh WNW 14.0 mph22.5 kmh 29.90 in1012.5 mb 0.00 in0.0 mm 0.00 in/hr0.0 mm/hr 0.06 in1.5 mm
04:05 PM 64.4°F18.0°C 58.1°F14.5°C 80% 7.0 mph WNW11.3 kmh WNW 14.0 mph22.5 kmh 29.90 in1012.5 mb 0.00 in0.0 mm 0.00 in/hr0.0 mm/hr 0.06 in1.5 mm
04:04 PM 64.4°F18.0°C 57.7°F14.3°C 79% 7.0 mph WNW11.3 kmh WNW 14.0 mph22.5 kmh 29.90 in1012.5 mb 0.00 in0.0 mm 0.00 in/hr0.0 mm/hr 0.06 in1.5 mm
04:03 PM 64.6°F18.1°C 57.9°F14.4°C 79% 7.0 mph WNW11.3 kmh WNW 14.0 mph22.5 kmh 29.90 in1012.5 mb 0.00 in0.0 mm 0.00 in/hr0.0 mm/hr 0.06 in1.5 mm
04:02 PM 64.6°F18.1°C 57.9°F14.4°C 79% 7.0 mph WNW11.3 kmh WNW 13.0 mph20.9 kmh 29.90 in1012.5 mb 0.00 in0.0 mm 0.00 in/hr0.0 mm/hr 0.06 in1.5 mm
04:01 PM 64.8°F18.2°C 57.7°F14.3°C 78% 7.0 mph WNW11.3 kmh WNW 13.0 mph20.9 kmh 29.90 in1012.5 mb 0.00 in0.0 mm 0.00 in/hr0.0 mm/hr 0.06 in1.5 mm
04:00 PM 64.8°F18.2°C 57.7°F14.3°C 78% 6.0 mph WNW9.7 kmh WNW 13.0 mph20.9 kmh 29.91 in1012.9 mb 0.00 in0.0 mm 0.00 in/hr0.0 mm/hr 0.06 in1.5 mm
03:59 PM 64.9°F18.3°C 57.9°F14.4°C 78% 6.0 mph W9.7 kmh W 13.0 mph20.9 kmh 29.90 in1012.5 mb 0.00 in0.0 mm 0.00 in/hr0.0 mm/hr 0.06 in1.5 mm
03:58 PM 64.9°F18.3°C 57.9°F14.4°C 78% 5.0 mph W8.0 kmh W 13.0 mph20.9 kmh 29.90 in1012.5 mb 0.00 in0.0 mm 0.00 in/hr0.0 mm/hr 0.06 in1.5 mm
03:57 PM 65.1°F18.4°C 57.7°F14.3°C 77% 5.0 mph W8.0 kmh W 13.0 mph20.9 kmh 29.90 in1012.5 mb 0.00 in0.0 mm 0.00 in/hr0.0 mm/hr 0.06 in1.5 mm
03:56 PM 65.1°F18.4°C 57.7°F14.3°C 77% 5.0 mph W8.0 kmh W 13.0 mph20.9 kmh 29.90 in1012.5 mb 0.00 in0.0 mm 0.00 in/hr0.0 mm/hr 0.06 in1.5 mm
03:55 PM 65.1°F18.4°C 57.7°F14.3°C 77% 5.0 mph W8.0 kmh W 13.0 mph20.9 kmh 29.90 in1012.5 mb 0.00 in0.0 mm 0.00 in/hr0.0 mm/hr 0.06 in1.5 mm
03:54 PM 65.3°F18.5°C 57.6°F14.2°C 76% 5.0 mph W8.0 kmh W 13.0 mph20.9 kmh 29.90 in1012.5 mb 0.00 in0.0 mm 0.00 in/hr0.0 mm/hr 0.06 in1.5 mm
03:53 PM 65.5°F18.6°C 57.2°F14.0°C 75% 5.0 mph W8.0 kmh W 13.0 mph20.9 kmh 29.90 in1012.5 mb 0.00 in0.0 mm 0.00 in/hr0.0 mm/hr 0.06 in1.5 mm
03:52 PM 65.5°F18.6°C 57.2°F14.0°C 75% 5.0 mph W8.0 kmh W 13.0 mph20.9 kmh 29.90 in1012.5 mb 0.00 in0.0 mm 0.00 in/hr0.0 mm/hr 0.06 in1.5 mm
03:51 PM 65.5°F18.6°C 57.4°F14.1°C 75% 5.0 mph W8.0 kmh W 13.0 mph20.9 kmh 29.90 in1012.5 mb 0.00 in0.0 mm 0.00 in/hr0.0 mm/hr 0.06 in1.5 mm
03:50 PM 65.7°F18.7°C 57.4°F14.1°C 75% 6.0 mph W9.7 kmh W 13.0 mph20.9 kmh 29.90 in1012.5 mb 0.00 in0.0 mm 0.00 in/hr0.0 mm/hr 0.06 in1.5 mm
03:49 PM 65.7°F18.7°C 57.6°F14.2°C 75% 6.0 mph W9.7 kmh W 13.0 mph20.9 kmh 29.90 in1012.5 mb 0.00 in0.0 mm 0.00 in/hr0.0 mm/hr 0.06 in1.5 mm
03:48 PM 65.8°F18.8°C 57.7°F14.3°C 75% 6.0 mph W9.7 kmh W 13.0 mph20.9 kmh 29.90 in1012.5 mb 0.00 in0.0 mm 0.00 in/hr0.0 mm/hr 0.06 in1.5 mm
03:47 PM 66.0°F18.9°C 57.6°F14.2°C 74% 6.0 mph W9.7 kmh W 13.0 mph20.9 kmh 29.90 in1012.5 mb 0.00 in0.0 mm 0.00 in/hr0.0 mm/hr 0.06 in1.5 mm
03:46 PM 66.0°F18.9°C 57.9°F14.4°C 75% 6.0 mph W9.7 kmh W 12.0 mph19.3 kmh 29.90 in1012.5 mb 0.00 in0.0 mm 0.00 in/hr0.0 mm/hr 0.06 in1.5 mm
03:45 PM 66.4°F19.1°C 57.7°F14.3°C 74% 7.0 mph W11.3 kmh W 12.0 mph19.3 kmh 29.90 in1012.5 mb 0.00 in0.0 mm 0.00 in/hr0.0 mm/hr 0.06 in1.5 mm
03:44 PM 66.4°F19.1°C 57.9°F14.4°C 74% 7.0 mph W11.3 kmh W 14.0 mph22.5 kmh 29.90 in1012.5 mb 0.00 in0.0 mm 0.00 in/hr0.0 mm/hr 0.06 in1.5 mm
03:43 PM 66.6°F19.2°C 57.9°F14.4°C 74% 7.0 mph W11.3 kmh W 14.0 mph22.5 kmh 29.90 in1012.5 mb 0.00 in0.0 mm 0.00 in/hr0.0 mm/hr 0.06 in1.5 mm
03:42 PM 66.7°F19.3°C 57.7°F14.3°C 73% 7.0 mph W11.3 kmh W 14.0 mph22.5 kmh 29.90 in1012.5 mb 0.00 in0.0 mm 0.00 in/hr0.0 mm/hr 0.06 in1.5 mm
03:41 PM 66.7°F19.3°C 57.6°F14.2°C 72% 7.0 mph W11.3 kmh W 14.0 mph22.5 kmh 29.90 in1012.5 mb 0.00 in0.0 mm 0.00 in/hr0.0 mm/hr 0.06 in1.5 mm
03:40 PM 66.9°F19.4°C 57.7°F14.3°C 72% 7.0 mph W11.3 kmh W 14.0 mph22.5 kmh 29.90 in1012.5 mb 0.00 in0.0 mm 0.00 in/hr0.0 mm/hr 0.06 in1.5 mm
03:39 PM 67.3°F19.6°C 57.9°F14.4°C 72% 7.0 mph W11.3 kmh W 14.0 mph22.5 kmh 29.90 in1012.5 mb 0.00 in0.0 mm 0.00 in/hr0.0 mm/hr 0.06 in1.5 mm
03:38 PM 67.5°F19.7°C 57.7°F14.3°C 71% 7.0 mph W11.3 kmh W 14.0 mph22.5 kmh 29.90 in1012.5 mb 0.00 in0.0 mm 0.00 in/hr0.0 mm/hr 0.06 in1.5 mm
03:37 PM 67.5°F19.7°C 57.7°F14.3°C 71% 7.0 mph W11.3 kmh W 14.0 mph22.5 kmh 29.90 in1012.5 mb 0.00 in0.0 mm 0.00 in/hr0.0 mm/hr 0.06 in1.5 mm
03:36 PM 67.6°F19.8°C 57.9°F14.4°C 71% 7.0 mph W11.3 kmh W 14.0 mph22.5 kmh 29.90 in1012.5 mb 0.00 in0.0 mm 0.00 in/hr0.0 mm/hr 0.06 in1.5 mm
03:35 PM 67.6°F19.8°C 57.9°F14.4°C 71% 7.0 mph W11.3 kmh W 15.0 mph24.1 kmh 29.90 in1012.5 mb 0.00 in0.0 mm 0.00 in/hr0.0 mm/hr 0.06 in1.5 mm
03:34 PM 67.8°F19.9°C 57.7°F14.3°C 70% 7.0 mph W11.3 kmh W 15.0 mph24.1 kmh 29.90 in1012.5 mb 0.00 in0.0 mm 0.00 in/hr0.0 mm/hr 0.06 in1.5 mm
03:33 PM 67.8°F19.9°C 57.7°F14.3°C 70% 7.0 mph W11.3 kmh W 15.0 mph24.1 kmh 29.90 in1012.5 mb 0.00 in0.0 mm 0.00 in/hr0.0 mm/hr 0.06 in1.5 mm
03:32 PM 68.2°F20.1°C 58.3°F14.6°C 71% 8.0 mph W12.9 kmh W 15.0 mph24.1 kmh 29.90 in1012.5 mb 0.00 in0.0 mm 0.00 in/hr0.0 mm/hr 0.06 in1.5 mm
03:31 PM 68.0°F20.0°C 58.3°F14.6°C 71% 8.0 mph W12.9 kmh W 17.0 mph27.4 kmh 29.89 in1012.2 mb 0.00 in0.0 mm 0.00 in/hr0.0 mm/hr 0.06 in1.5 mm
03:30 PM 67.8°F19.9°C 58.5°F14.7°C 72% 9.0 mph WSW14.5 kmh WSW 18.0 mph29.0 kmh 29.89 in1012.2 mb 0.00 in0.0 mm 0.00 in/hr0.0 mm/hr 0.06 in1.5 mm
03:29 PM 67.6°F19.8°C 58.8°F14.9°C 73% 8.0 mph WSW12.9 kmh WSW 18.0 mph29.0 kmh 29.89 in1012.2 mb 0.00 in0.0 mm 0.00 in/hr0.0 mm/hr 0.06 in1.5 mm
03:28 PM 67.5°F19.7°C 59.0°F15.0°C 74% 8.0 mph WSW12.9 kmh WSW 18.0 mph29.0 kmh 29.89 in1012.2 mb 0.00 in0.0 mm 0.00 in/hr0.0 mm/hr 0.06 in1.5 mm
03:27 PM 67.3°F19.6°C 58.6°F14.8°C 74% 9.0 mph WSW14.5 kmh WSW 18.0 mph29.0 kmh 29.89 in1012.2 mb 0.00 in0.0 mm 0.00 in/hr0.0 mm/hr 0.06 in1.5 mm
03:26 PM 67.1°F19.5°C 58.5°F14.7°C 74% 8.0 mph WSW12.9 kmh WSW 18.0 mph29.0 kmh 29.89 in1012.2 mb 0.00 in0.0 mm 0.00 in/hr0.0 mm/hr 0.06 in1.5 mm
03:25 PM 66.9°F19.4°C 58.8°F14.9°C 75% 8.0 mph WSW12.9 kmh WSW 18.0 mph29.0 kmh 29.89 in1012.2 mb 0.00 in0.0 mm 0.00 in/hr0.0 mm/hr 0.06 in1.5 mm
03:24 PM 66.7°F19.3°C 58.6°F14.8°C 75% 9.0 mph WSW14.5 kmh WSW 18.0 mph29.0 kmh 29.89 in1012.2 mb 0.00 in0.0 mm 0.00 in/hr0.0 mm/hr 0.06 in1.5 mm
03:23 PM 66.7°F19.3°C 58.5°F14.7°C 75% 9.0 mph WSW14.5 kmh WSW 18.0 mph29.0 kmh 29.89 in1012.2 mb 0.00 in0.0 mm 0.00 in/hr0.0 mm/hr 0.06 in1.5 mm
03:22 PM 66.7°F19.3°C 58.5°F14.7°C 75% 8.0 mph WSW12.9 kmh WSW 18.0 mph29.0 kmh 29.89 in1012.2 mb 0.00 in0.0 mm 0.00 in/hr0.0 mm/hr 0.06 in1.5 mm
03:21 PM 66.7°F19.3°C 58.5°F14.7°C 75% 8.0 mph WSW12.9 kmh WSW 18.0 mph29.0 kmh 29.89 in1012.2 mb 0.00 in0.0 mm 0.00 in/hr0.0 mm/hr 0.06 in1.5 mm
03:20 PM 66.7°F19.3°C 58.6°F14.8°C 75% 8.0 mph WSW12.9 kmh WSW 18.0 mph29.0 kmh 29.89 in1012.2 mb 0.00 in0.0 mm 0.00 in/hr0.0 mm/hr 0.06 in1.5 mm
03:19 PM 66.6°F19.2°C 58.8°F14.9°C 76% 8.0 mph WSW12.9 kmh WSW 17.0 mph27.4 kmh 29.89 in1012.2 mb 0.00 in0.0 mm 0.00 in/hr0.0 mm/hr 0.06 in1.5 mm
03:18 PM 66.4°F19.1°C 58.6°F14.8°C 76% 9.0 mph WSW14.5 kmh WSW 17.0 mph27.4 kmh 29.89 in1012.2 mb 0.00 in0.0 mm 0.00 in/hr0.0 mm/hr 0.06 in1.5 mm
03:17 PM 66.2°F19.0°C 58.5°F14.7°C 76% 9.0 mph WSW14.5 kmh WSW 17.0 mph27.4 kmh 29.89 in1012.2 mb 0.00 in0.0 mm 0.00 in/hr0.0 mm/hr 0.06 in1.5 mm
03:16 PM 66.0°F18.9°C 58.3°F14.6°C 76% 9.0 mph WSW14.5 kmh WSW 17.0 mph27.4 kmh 29.89 in1012.2 mb 0.00 in0.0 mm 0.00 in/hr0.0 mm/hr 0.06 in1.5 mm
03:15 PM 65.8°F18.8°C 58.5°F14.7°C 77% 9.0 mph WSW14.5 kmh WSW 17.0 mph27.4 kmh 29.89 in1012.2 mb 0.00 in0.0 mm 0.00 in/hr0.0 mm/hr 0.06 in1.5 mm
03:14 PM 65.8°F18.8°C 58.5°F14.7°C 77% 8.0 mph W12.9 kmh W 17.0 mph27.4 kmh 29.89 in1012.2 mb 0.00 in0.0 mm 0.00 in/hr0.0 mm/hr 0.06 in1.5 mm
03:13 PM 65.8°F18.8°C 58.5°F14.7°C 77% 8.0 mph W12.9 kmh W 14.0 mph22.5 kmh 29.89 in1012.2 mb 0.00 in0.0 mm 0.00 in/hr0.0 mm/hr 0.06 in1.5 mm
03:12 PM 65.8°F18.8°C 58.1°F14.5°C 76% 8.0 mph W12.9 kmh W 14.0 mph22.5 kmh 29.89 in1012.2 mb 0.00 in0.0 mm 0.00 in/hr0.0 mm/hr 0.06 in1.5 mm
03:11 PM 66.0°F18.9°C 58.3°F14.6°C 76% 8.0 mph W12.9 kmh W 14.0 mph22.5 kmh 29.89 in1012.2 mb 0.00 in0.0 mm 0.00 in/hr0.0 mm/hr 0.06 in1.5 mm
03:10 PM 66.0°F18.9°C 58.3°F14.6°C 76% 8.0 mph WSW12.9 kmh WSW 14.0 mph22.5 kmh 29.89 in1012.2 mb 0.00 in0.0 mm 0.00 in/hr0.0 mm/hr 0.06 in1.5 mm
03:09 PM 66.2°F19.0°C 58.5°F14.7°C 76% 8.0 mph WSW12.9 kmh WSW 14.0 mph22.5 kmh 29.89 in1012.2 mb 0.00 in0.0 mm 0.00 in/hr0.0 mm/hr 0.06 in1.5 mm
03:08 PM 66.4°F19.1°C 58.5°F14.7°C 76% 8.0 mph WSW12.9 kmh WSW 14.0 mph22.5 kmh 29.89 in1012.2 mb 0.00 in0.0 mm 0.00 in/hr0.0 mm/hr 0.06 in1.5 mm
03:07 PM 66.6°F19.2°C 58.6°F14.8°C 76% 8.0 mph WSW12.9 kmh WSW 14.0 mph22.5 kmh 29.89 in1012.2 mb 0.00 in0.0 mm 0.00 in/hr0.0 mm/hr 0.06 in1.5 mm
03:06 PM 66.6°F19.2°C 58.8°F14.9°C 76% 7.0 mph WSW11.3 kmh WSW 14.0 mph22.5 kmh 29.89 in1012.2 mb 0.00 in0.0 mm 0.00 in/hr0.0 mm/hr 0.06 in1.5 mm
03:05 PM 66.7°F19.3°C 58.5°F14.7°C 75% 7.0 mph WSW11.3 kmh WSW 14.0 mph22.5 kmh 29.89 in1012.2 mb 0.00 in0.0 mm 0.00 in/hr0.0 mm/hr 0.06 in1.5 mm
03:04 PM 66.7°F19.3°C 58.6°F14.8°C 75% 8.0 mph WSW12.9 kmh WSW 17.0 mph27.4 kmh 29.89 in1012.2 mb 0.00 in0.0 mm 0.00 in/hr0.0 mm/hr 0.06 in1.5 mm
03:03 PM 66.9°F19.4°C 58.6°F14.8°C 75% 8.0 mph WSW12.9 kmh WSW 17.0 mph27.4 kmh 29.89 in1012.2 mb 0.00 in0.0 mm 0.00 in/hr0.0 mm/hr 0.06 in1.5 mm
03:02 PM 66.9°F19.4°C 58.8°F14.9°C 75% 9.0 mph WSW14.5 kmh WSW 17.0 mph27.4 kmh 29.89 in1012.2 mb 0.00 in0.0 mm 0.00 in/hr0.0 mm/hr 0.06 in1.5 mm
03:01 PM 67.1°F19.5°C 58.8°F14.9°C 75% 9.0 mph WSW14.5 kmh WSW 17.0 mph27.4 kmh 29.89 in1012.2 mb 0.00 in0.0 mm 0.00 in/hr0.0 mm/hr 0.06 in1.5 mm
03:00 PM 67.3°F19.6°C 58.6°F14.8°C 74% 9.0 mph WSW14.5 kmh WSW 18.0 mph29.0 kmh 29.89 in1012.2 mb 0.00 in0.0 mm 0.00 in/hr0.0 mm/hr 0.06 in1.5 mm
02:59 PM 67.5°F19.7°C 58.8°F14.9°C 74% 10.0 mph WSW16.1 kmh WSW 18.0 mph29.0 kmh 29.89 in1012.2 mb 0.00 in0.0 mm 0.00 in/hr0.0 mm/hr 0.06 in1.5 mm
02:58 PM 67.5°F19.7°C 59.0°F15.0°C 74% 10.0 mph WSW16.1 kmh WSW 18.0 mph29.0 kmh 29.89 in1012.2 mb 0.00 in0.0 mm 0.00 in/hr0.0 mm/hr 0.06 in1.5 mm
02:57 PM 67.5°F19.7°C 59.0°F15.0°C 74% 10.0 mph WSW16.1 kmh WSW 18.0 mph29.0 kmh 29.89 in1012.2 mb 0.00 in0.0 mm 0.00 in/hr0.0 mm/hr 0.06 in1.5 mm
02:56 PM 67.5°F19.7°C 59.0°F15.0°C 74% 11.0 mph WSW17.7 kmh WSW 18.0 mph29.0 kmh 29.89 in1012.2 mb 0.00 in0.0 mm 0.00 in/hr0.0 mm/hr 0.06 in1.5 mm
02:55 PM 67.5°F19.7°C 58.5°F14.7°C 73% 11.0 mph WSW17.7 kmh WSW 18.0 mph29.0 kmh 29.89 in1012.2 mb 0.00 in0.0 mm 0.00 in/hr0.0 mm/hr 0.06 in1.5 mm
02:54 PM 67.5°F19.7°C 58.5°F14.7°C 73% 11.0 mph WSW17.7 kmh WSW 18.0 mph29.0 kmh 29.89 in1012.2 mb 0.00 in0.0 mm 0.00 in/hr0.0 mm/hr 0.06 in1.5 mm
02:53 PM 67.5°F19.7°C 58.5°F14.7°C 73% 10.0 mph WSW16.1 kmh WSW 18.0 mph29.0 kmh 29.89 in1012.2 mb 0.00 in0.0 mm 0.00 in/hr0.0 mm/hr 0.06 in1.5 mm
02:52 PM 67.5°F19.7°C 58.5°F14.7°C 73% 10.0 mph WSW16.1 kmh WSW 18.0 mph29.0 kmh 29.89 in1012.2 mb 0.00 in0.0 mm 0.00 in/hr0.0 mm/hr 0.06 in1.5 mm
02:51 PM 67.5°F19.7°C 58.1°F14.5°C 72% 9.0 mph WSW14.5 kmh WSW 18.0 mph29.0 kmh 29.89 in1012.2 mb 0.00 in0.0 mm 0.00 in/hr0.0 mm/hr 0.06 in1.5 mm
02:50 PM 67.6°F19.8°C 58.3°F14.6°C 72% 9.0 mph WSW14.5 kmh WSW 18.0 mph29.0 kmh 29.89 in1012.2 mb 0.00 in0.0 mm 0.00 in/hr0.0 mm/hr 0.06 in1.5 mm
02:49 PM 67.6°F19.8°C 58.3°F14.6°C 72% 8.0 mph WSW12.9 kmh WSW 18.0 mph29.0 kmh 29.89 in1012.2 mb 0.00 in0.0 mm 0.00 in/hr0.0 mm/hr 0.06 in1.5 mm
02:48 PM 67.8°F19.9°C 58.5°F14.7°C 72% 8.0 mph WSW12.9 kmh WSW 18.0 mph29.0 kmh 29.89 in1012.2 mb 0.00 in0.0 mm 0.00 in/hr0.0 mm/hr 0.06 in1.5 mm
02:47 PM 67.8°F19.9°C 58.1°F14.5°C 71% 8.0 mph WSW12.9 kmh WSW 18.0 mph29.0 kmh 29.89 in1012.2 mb 0.00 in0.0 mm 0.00 in/hr0.0 mm/hr 0.06 in1.5 mm
02:46 PM 68.2°F20.1°C 58.3°F14.6°C 71% 8.0 mph WSW12.9 kmh WSW 18.0 mph29.0 kmh 29.89 in1012.2 mb 0.00 in0.0 mm 0.00 in/hr0.0 mm/hr 0.06 in1.5 mm
02:45 PM 68.4°F20.2°C 58.5°F14.7°C 71% 7.0 mph WSW11.3 kmh WSW 15.0 mph24.1 kmh 29.89 in1012.2 mb 0.00 in0.0 mm 0.00 in/hr0.0 mm/hr 0.06 in1.5 mm
02:44 PM 68.4°F20.2°C 59.0°F15.0°C 72% 7.0 mph WSW11.3 kmh WSW 15.0 mph24.1 kmh 29.89 in1012.2 mb 0.00 in0.0 mm 0.00 in/hr0.0 mm/hr 0.06 in1.5 mm
02:43 PM 68.0°F20.0°C 58.6°F14.8°C 72% 7.0 mph SW11.3 kmh SW 15.0 mph24.1 kmh 29.89 in1012.2 mb 0.00 in0.0 mm 0.00 in/hr0.0 mm/hr 0.06 in1.5 mm
02:42 PM 67.8°F19.9°C 58.5°F14.7°C 72% 7.0 mph SW11.3 kmh SW 15.0 mph24.1 kmh 29.89 in1012.2 mb 0.00 in0.0 mm 0.00 in/hr0.0 mm/hr 0.06 in1.5 mm
02:41 PM 67.6°F19.8°C 58.3°F14.6°C 72% 7.0 mph SW11.3 kmh SW 15.0 mph24.1 kmh 29.89 in1012.2 mb 0.00 in0.0 mm 0.00 in/hr0.0 mm/hr 0.06 in1.5 mm
02:40 PM 67.5°F19.7°C 58.5°F14.7°C 73% 8.0 mph SW12.9 kmh SW 15.0 mph24.1 kmh 29.89 in1012.2 mb 0.00 in0.0 mm 0.00 in/hr0.0 mm/hr 0.06 in1.5 mm
02:39 PM 67.3°F19.6°C 58.3°F14.6°C 73% 8.0 mph SW12.9 kmh SW 16.0 mph25.7 kmh 29.89 in1012.2 mb 0.00 in0.0 mm 0.00 in/hr0.0 mm/hr 0.06 in1.5 mm
02:38 PM 67.3°F19.6°C 58.3°F14.6°C 73% 8.0 mph SW12.9 kmh SW 18.0 mph29.0 kmh 29.89 in1012.2 mb 0.00 in0.0 mm 0.00 in/hr0.0 mm/hr 0.06 in1.5 mm
02:37 PM 67.3°F19.6°C 57.9°F14.4°C 72% 9.0 mph SW14.5 kmh SW 18.0 mph29.0 kmh 29.89 in1012.2 mb 0.00 in0.0 mm 0.00 in/hr0.0 mm/hr 0.06 in1.5 mm
02:36 PM 67.3°F19.6°C 58.3°F14.6°C 73% 9.0 mph SW14.5 kmh SW 20.0 mph32.2 kmh 29.89 in1012.2 mb 0.00 in0.0 mm 0.00 in/hr0.0 mm/hr 0.06 in1.5 mm
02:35 PM 67.1°F19.5°C 58.1°F14.5°C 73% 10.0 mph SW16.1 kmh SW 20.0 mph32.2 kmh 29.89 in1012.2 mb 0.00 in0.0 mm 0.00 in/hr0.0 mm/hr 0.06 in1.5 mm
02:34 PM 66.9°F19.4°C 58.1°F14.5°C 73% 10.0 mph SW16.1 kmh SW 20.0 mph32.2 kmh 29.88 in1011.9 mb 0.00 in0.0 mm 0.00 in/hr0.0 mm/hr 0.06 in1.5 mm
02:33 PM 66.9°F19.4°C 58.5°F14.7°C 74% 10.0 mph SW16.1 kmh SW 20.0 mph32.2 kmh 29.89 in1012.2 mb 0.00 in0.0 mm 0.00 in/hr0.0 mm/hr 0.06 in1.5 mm
02:32 PM 66.9°F19.4°C 58.3°F14.6°C 74% 10.0 mph SW16.1 kmh SW 20.0 mph32.2 kmh 29.88 in1011.9 mb 0.00 in0.0 mm 0.00 in/hr0.0 mm/hr 0.06 in1.5 mm
02:31 PM 66.9°F19.4°C 58.5°F14.7°C 74% 11.0 mph SW17.7 kmh SW 20.0 mph32.2 kmh 29.88 in1011.9 mb 0.00 in0.0 mm 0.00 in/hr0.0 mm/hr 0.06 in1.5 mm
02:30 PM 66.9°F19.4°C 58.3°F14.6°C 74% 11.0 mph SW17.7 kmh SW 20.0 mph32.2 kmh 29.89 in1012.2 mb 0.00 in0.0 mm 0.00 in/hr0.0 mm/hr 0.06 in1.5 mm
02:29 PM 66.7°F19.3°C 58.3°F14.6°C 74% 11.0 mph SW17.7 kmh SW 20.0 mph32.2 kmh 29.89 in1012.2 mb 0.00 in0.0 mm 0.00 in/hr0.0 mm/hr 0.06 in1.5 mm
02:28 PM 66.9°F19.4°C 58.3°F14.6°C 74% 11.0 mph SW17.7 kmh SW 20.0 mph32.2 kmh 29.89 in1012.2 mb 0.00 in0.0 mm 0.00 in/hr0.0 mm/hr 0.06 in1.5 mm
02:27 PM 66.9°F19.4°C 58.1°F14.5°C 73% 10.0 mph SW16.1 kmh SW 20.0 mph32.2 kmh 29.89 in1012.2 mb 0.00 in0.0 mm 0.00 in/hr0.0 mm/hr 0.06 in1.5 mm
02:26 PM 67.3°F19.6°C 57.9°F14.4°C 72% 10.0 mph SW16.1 kmh SW 19.0 mph30.6 kmh 29.88 in1011.9 mb 0.00 in0.0 mm 0.00 in/hr0.0 mm/hr 0.06 in1.5 mm
02:25 PM 67.5°F19.7°C 58.1°F14.5°C 72% 10.0 mph SW16.1 kmh SW 19.0 mph30.6 kmh 29.89 in1012.2 mb 0.00 in0.0 mm 0.00 in/hr0.0 mm/hr 0.06 in1.5 mm
02:24 PM 67.6°F19.8°C 57.9°F14.4°C 71% 10.0 mph SW16.1 kmh SW 19.0 mph30.6 kmh 29.88 in1011.9 mb 0.00 in0.0 mm 0.00 in/hr0.0 mm/hr 0.06 in1.5 mm
02:23 PM 67.6°F19.8°C 57.9°F14.4°C 71% 10.0 mph SW16.1 kmh SW 19.0 mph30.6 kmh 29.88 in1011.9 mb 0.00 in0.0 mm 0.00 in/hr0.0 mm/hr 0.06 in1.5 mm
02:22 PM 67.8°F19.9°C 58.1°F14.5°C 71% 10.0 mph SW16.1 kmh SW 22.0 mph35.4 kmh 29.88 in1011.9 mb 0.00 in0.0 mm 0.00 in/hr0.0 mm/hr 0.06 in1.5 mm
02:21 PM 67.8°F19.9°C 58.1°F14.5°C 71% 10.0 mph SW16.1 kmh SW 22.0 mph35.4 kmh 29.88 in1011.9 mb 0.00 in0.0 mm 0.00 in/hr0.0 mm/hr 0.06 in1.5 mm
02:20 PM 67.8°F19.9°C 58.1°F14.5°C 71% 10.0 mph SW16.1 kmh SW 22.0 mph35.4 kmh 29.88 in1011.9 mb 0.00 in0.0 mm 0.00 in/hr0.0 mm/hr 0.06 in1.5 mm
02:19 PM 67.8°F19.9°C 58.1°F14.5°C 71% 10.0 mph SW16.1 kmh SW 22.0 mph35.4 kmh 29.88 in1011.9 mb 0.00 in0.0 mm 0.00 in/hr0.0 mm/hr 0.06 in1.5 mm
02:18 PM 67.8°F19.9°C 58.1°F14.5°C 71% 10.0 mph SW16.1 kmh SW 22.0 mph35.4 kmh 29.88 in1011.9 mb 0.00 in0.0 mm 0.00 in/hr0.0 mm/hr 0.06 in1.5 mm
02:17 PM 67.6°F19.8°C 57.9°F14.4°C 71% 10.0 mph SW16.1 kmh SW 22.0 mph35.4 kmh 29.88 in1011.9 mb 0.00 in0.0 mm 0.00 in/hr0.0 mm/hr 0.06 in1.5 mm
02:16 PM 67.6°F19.8°C 58.3°F14.6°C 72% 10.0 mph SW16.1 kmh SW 24.0 mph38.6 kmh 29.88 in1011.9 mb 0.00 in0.0 mm 0.00 in/hr0.0 mm/hr 0.06 in1.5 mm
02:15 PM 67.6°F19.8°C 58.3°F14.6°C 72% 9.0 mph SW14.5 kmh SW 24.0 mph38.6 kmh 29.89 in1012.2 mb 0.00 in0.0 mm 0.00 in/hr0.0 mm/hr 0.06 in1.5 mm
02:14 PM 67.6°F19.8°C 58.8°F14.9°C 73% 9.0 mph SW14.5 kmh SW 24.0 mph38.6 kmh 29.89 in1012.2 mb 0.00 in0.0 mm 0.00 in/hr0.0 mm/hr 0.06 in1.5 mm
02:13 PM 67.8°F19.9°C 59.2°F15.1°C 74% 9.0 mph SW14.5 kmh SW 24.0 mph38.6 kmh 29.89 in1012.2 mb 0.00 in0.0 mm 0.00 in/hr0.0 mm/hr 0.06 in1.5 mm
02:12 PM 67.8°F19.9°C 59.0°F15.0°C 73% 9.0 mph SW14.5 kmh SW 24.0 mph38.6 kmh 29.88 in1011.9 mb 0.00 in0.0 mm 0.00 in/hr0.0 mm/hr 0.06 in1.5 mm
02:11 PM 68.0°F20.0°C 58.6°F14.8°C 72% 9.0 mph SW14.5 kmh SW 24.0 mph38.6 kmh 29.88 in1011.9 mb 0.00 in0.0 mm 0.00 in/hr0.0 mm/hr 0.06 in1.5 mm
02:10 PM 68.2°F20.1°C 59.2°F15.1°C 73% 9.0 mph SW14.5 kmh SW 24.0 mph38.6 kmh 29.89 in1012.2 mb 0.00 in0.0 mm 0.00 in/hr0.0 mm/hr 0.06 in1.5 mm
02:09 PM 68.2°F20.1°C 59.2°F15.1°C 73% 9.0 mph SW14.5 kmh SW 24.0 mph38.6 kmh 29.89 in1012.2 mb 0.00 in0.0 mm 0.00 in/hr0.0 mm/hr 0.06 in1.5 mm
02:08 PM 68.2°F20.1°C 59.2°F15.1°C 73% 10.0 mph SW16.1 kmh SW 24.0 mph38.6 kmh 29.88 in1011.9 mb 0.00 in0.0 mm 0.00 in/hr0.0 mm/hr 0.06 in1.5 mm
02:07 PM 67.8°F19.9°C 59.0°F15.0°C 73% 10.0 mph SW16.1 kmh SW 24.0 mph38.6 kmh 29.89 in1012.2 mb 0.00 in0.0 mm 0.00 in/hr0.0 mm/hr 0.06 in1.5 mm
02:06 PM 67.8°F19.9°C 58.8°F14.9°C 73% 10.0 mph SW16.1 kmh SW 19.0 mph30.6 kmh 29.89 in1012.2 mb 0.00 in0.0 mm 0.00 in/hr0.0 mm/hr 0.06 in1.5 mm
02:05 PM 67.5°F19.7°C 58.1°F14.5°C 72% 10.0 mph SW16.1 kmh SW 19.0 mph30.6 kmh 29.88 in1011.9 mb 0.00 in0.0 mm 0.00 in/hr0.0 mm/hr 0.06 in1.5 mm
02:04 PM 67.5°F19.7°C 58.5°F14.7°C 73% 10.0 mph SW16.1 kmh SW 19.0 mph30.6 kmh 29.89 in1012.2 mb 0.00 in0.0 mm 0.00 in/hr0.0 mm/hr 0.06 in1.5 mm
02:03 PM 67.1°F19.5°C 58.1°F14.5°C 73% 10.0 mph SW16.1 kmh SW 19.0 mph30.6 kmh 29.88 in1011.9 mb 0.00 in0.0 mm 0.00 in/hr0.0 mm/hr 0.06 in1.5 mm
02:02 PM 66.9°F19.4°C 57.9°F14.4°C 73% 10.0 mph SW16.1 kmh SW 19.0 mph30.6 kmh 29.89 in1012.2 mb 0.00 in0.0 mm 0.00 in/hr0.0 mm/hr 0.06 in1.5 mm
02:01 PM 66.9°F19.4°C 57.9°F14.4°C 73% 10.0 mph SW16.1 kmh SW 19.0 mph30.6 kmh 29.89 in1012.2 mb 0.00 in0.0 mm 0.00 in/hr0.0 mm/hr 0.06 in1.5 mm
02:00 PM 66.9°F19.4°C 58.5°F14.7°C 74% 9.0 mph SW14.5 kmh SW 19.0 mph30.6 kmh 29.89 in1012.2 mb 0.00 in0.0 mm 0.00 in/hr0.0 mm/hr 0.06 in1.5 mm
01:59 PM 66.9°F19.4°C 58.6°F14.8°C 75% 9.0 mph SW14.5 kmh SW 19.0 mph30.6 kmh 29.89 in1012.2 mb 0.00 in0.0 mm 0.00 in/hr0.0 mm/hr 0.06 in1.5 mm
01:58 PM 66.7°F19.3°C 58.6°F14.8°C 75% 9.0 mph SW14.5 kmh SW 19.0 mph30.6 kmh 29.89 in1012.2 mb 0.00 in0.0 mm 0.00 in/hr0.0 mm/hr 0.06 in1.5 mm
01:57 PM 66.7°F19.3°C 59.0°F15.0°C 76% 9.0 mph SW14.5 kmh SW 19.0 mph30.6 kmh 29.89 in1012.2 mb 0.00 in0.0 mm 0.00 in/hr0.0 mm/hr 0.06 in1.5 mm
01:56 PM 66.7°F19.3°C 59.2°F15.1°C 77% 9.0 mph SW14.5 kmh SW 18.0 mph29.0 kmh 29.89 in1012.2 mb 0.00 in0.0 mm 0.00 in/hr0.0 mm/hr 0.06 in1.5 mm
01:55 PM 66.7°F19.3°C 59.2°F15.1°C 77% 9.0 mph SW14.5 kmh SW 18.0 mph29.0 kmh 29.89 in1012.2 mb 0.00 in0.0 mm 0.00 in/hr0.0 mm/hr 0.06 in1.5 mm
01:54 PM 66.7°F19.3°C 59.5°F15.3°C 78% 9.0 mph SW14.5 kmh SW 18.0 mph29.0 kmh 29.89 in1012.2 mb 0.00 in0.0 mm 0.00 in/hr0.0 mm/hr 0.06 in1.5 mm
01:53 PM 66.7°F19.3°C 59.7°F15.4°C 78% 9.0 mph SW14.5 kmh SW 18.0 mph29.0 kmh 29.89 in1012.2 mb 0.00 in0.0 mm 0.00 in/hr0.0 mm/hr 0.06 in1.5 mm
01:52 PM 66.7°F19.3°C 60.1°F15.6°C 79% 9.0 mph SW14.5 kmh SW 18.0 mph29.0 kmh 29.89 in1012.2 mb 0.00 in0.0 mm 0.00 in/hr0.0 mm/hr 0.06 in1.5 mm
01:51 PM 66.7°F19.3°C 59.5°F15.3°C 78% 8.0 mph SW12.9 kmh SW 18.0 mph29.0 kmh 29.89 in1012.2 mb 0.00 in0.0 mm 0.00 in/hr0.0 mm/hr 0.06 in1.5 mm
01:50 PM 66.7°F19.3°C 59.5°F15.3°C 78% 8.0 mph SW12.9 kmh SW 18.0 mph29.0 kmh 29.89 in1012.2 mb 0.00 in0.0 mm 0.00 in/hr0.0 mm/hr 0.06 in1.5 mm
01:49 PM 66.7°F19.3°C 59.9°F15.5°C 79% 9.0 mph SW14.5 kmh SW 18.0 mph29.0 kmh 29.89 in1012.2 mb 0.00 in0.0 mm 0.00 in/hr0.0 mm/hr 0.06 in1.5 mm
01:48 PM 66.7°F19.3°C 60.1°F15.6°C 79% 8.0 mph SW12.9 kmh SW 19.0 mph30.6 kmh 29.89 in1012.2 mb 0.00 in0.0 mm 0.00 in/hr0.0 mm/hr 0.06 in1.5 mm
01:47 PM 66.7°F19.3°C 60.1°F15.6°C 79% 8.0 mph SW12.9 kmh SW 19.0 mph30.6 kmh 29.89 in1012.2 mb 0.00 in0.0 mm 0.00 in/hr0.0 mm/hr 0.06 in1.5 mm
01:46 PM 66.9°F19.4°C 59.9°F15.5°C 78% 9.0 mph SW14.5 kmh SW 19.0 mph30.6 kmh 29.89 in1012.2 mb 0.00 in0.0 mm 0.00 in/hr0.0 mm/hr 0.06 in1.5 mm
01:45 PM 66.9°F19.4°C 59.9°F15.5°C 78% 9.0 mph SW14.5 kmh SW 19.0 mph30.6 kmh 29.89 in1012.2 mb 0.00 in0.0 mm 0.00 in/hr0.0 mm/hr 0.06 in1.5 mm
01:44 PM 67.1°F19.5°C 60.4°F15.8°C 79% 9.0 mph SW14.5 kmh SW 19.0 mph30.6 kmh 29.89 in1012.2 mb 0.00 in0.0 mm 0.00 in/hr0.0 mm/hr 0.06 in1.5 mm
01:43 PM 67.3°F19.6°C 60.1°F15.6°C 78% 9.0 mph SW14.5 kmh SW 19.0 mph30.6 kmh 29.89 in1012.2 mb 0.00 in0.0 mm 0.00 in/hr0.0 mm/hr 0.06 in1.5 mm
01:42 PM 67.3°F19.6°C 60.1°F15.6°C 78% 10.0 mph SW16.1 kmh SW 19.0 mph30.6 kmh 29.89 in1012.2 mb 0.00 in0.0 mm 0.00 in/hr0.0 mm/hr 0.06 in1.5 mm
01:41 PM 67.3°F19.6°C 60.3°F15.7°C 78% 10.0 mph SW16.1 kmh SW 19.0 mph30.6 kmh 29.89 in1012.2 mb 0.00 in0.0 mm 0.00 in/hr0.0 mm/hr 0.06 in1.5 mm
01:40 PM 67.3°F19.6°C 59.9°F15.5°C 77% 10.0 mph SW16.1 kmh SW 19.0 mph30.6 kmh 29.89 in1012.2 mb 0.00 in0.0 mm 0.00 in/hr0.0 mm/hr 0.06 in1.5 mm
01:39 PM 67.5°F19.7°C 60.1°F15.6°C 77% 9.0 mph SW14.5 kmh SW 19.0 mph30.6 kmh 29.89 in1012.2 mb 0.00 in0.0 mm 0.00 in/hr0.0 mm/hr 0.06 in1.5 mm
01:38 PM 67.6°F19.8°C 60.3°F15.7°C 77% 9.0 mph SW14.5 kmh SW 19.0 mph30.6 kmh 29.89 in1012.2 mb 0.00 in0.0 mm 0.00 in/hr0.0 mm/hr 0.06 in1.5 mm
01:37 PM 67.8°F19.9°C 60.1°F15.6°C 76% 9.0 mph SW14.5 kmh SW 19.0 mph30.6 kmh 29.89 in1012.2 mb 0.00 in0.0 mm 0.00 in/hr0.0 mm/hr 0.06 in1.5 mm
01:36 PM 68.2°F20.1°C 60.6°F15.9°C 77% 9.0 mph SW14.5 kmh SW 19.0 mph30.6 kmh 29.89 in1012.2 mb 0.00 in0.0 mm 0.00 in/hr0.0 mm/hr 0.06 in1.5 mm
01:35 PM 68.4°F20.2°C 60.8°F16.0°C 77% 9.0 mph SW14.5 kmh SW 19.0 mph30.6 kmh 29.89 in1012.2 mb 0.00 in0.0 mm 0.00 in/hr0.0 mm/hr 0.06 in1.5 mm
01:34 PM 68.4°F20.2°C 61.0°F16.1°C 77% 9.0 mph SW14.5 kmh SW 19.0 mph30.6 kmh 29.89 in1012.2 mb 0.00 in0.0 mm 0.00 in/hr0.0 mm/hr 0.06 in1.5 mm
01:33 PM 68.5°F20.3°C 60.8°F16.0°C 76% 8.0 mph SW12.9 kmh SW 19.0 mph30.6 kmh 29.89 in1012.2 mb 0.00 in0.0 mm 0.00 in/hr0.0 mm/hr 0.06 in1.5 mm
01:32 PM 68.7°F20.4°C 61.2°F16.2°C 77% 8.0 mph SW12.9 kmh SW 19.0 mph30.6 kmh 29.89 in1012.2 mb 0.00 in0.0 mm 0.00 in/hr0.0 mm/hr 0.06 in1.5 mm
01:31 PM 68.7°F20.4°C 61.2°F16.2°C 77% 8.0 mph SW12.9 kmh SW 16.0 mph25.7 kmh 29.89 in1012.2 mb 0.00 in0.0 mm 0.00 in/hr0.0 mm/hr 0.06 in1.5 mm
01:30 PM 68.7°F20.4°C 61.2°F16.2°C 77% 8.0 mph SW12.9 kmh SW 16.0 mph25.7 kmh 29.89 in1012.2 mb 0.00 in0.0 mm 0.00 in/hr0.0 mm/hr 0.06 in1.5 mm
01:29 PM 68.7°F20.4°C 61.5°F16.4°C 78% 8.0 mph SW12.9 kmh SW 16.0 mph25.7 kmh 29.89 in1012.2 mb 0.00 in0.0 mm 0.00 in/hr0.0 mm/hr 0.06 in1.5 mm
01:28 PM 68.5°F20.3°C 61.3°F16.3°C 78% 8.0 mph SW12.9 kmh SW 16.0 mph25.7 kmh 29.89 in1012.2 mb 0.00 in0.0 mm 0.00 in/hr0.0 mm/hr 0.06 in1.5 mm
01:27 PM 68.4°F20.2°C 61.3°F16.3°C 78% 9.0 mph SW14.5 kmh SW 16.0 mph25.7 kmh 29.89 in1012.2 mb 0.00 in0.0 mm 0.00 in/hr0.0 mm/hr 0.06 in1.5 mm
01:26 PM 68.4°F20.2°C 61.5°F16.4°C 79% 8.0 mph SW12.9 kmh SW 16.0 mph25.7 kmh 29.89 in1012.2 mb 0.00 in0.0 mm 0.00 in/hr0.0 mm/hr 0.06 in1.5 mm
01:25 PM 68.2°F20.1°C 61.5°F16.4°C 79% 8.0 mph SW12.9 kmh SW 15.0 mph24.1 kmh 29.89 in1012.2 mb 0.00 in0.0 mm 0.00 in/hr0.0 mm/hr 0.06 in1.5 mm
01:24 PM 68.0°F20.0°C 61.5°F16.4°C 80% 8.0 mph SW12.9 kmh SW 15.0 mph24.1 kmh 29.89 in1012.2 mb 0.00 in0.0 mm 0.00 in/hr0.0 mm/hr 0.06 in1.5 mm
01:23 PM 67.8°F19.9°C 61.5°F16.4°C 80% 8.0 mph SW12.9 kmh SW 15.0 mph24.1 kmh 29.89 in1012.2 mb 0.00 in0.0 mm 0.00 in/hr0.0 mm/hr 0.06 in1.5 mm
01:22 PM 67.8°F19.9°C 61.0°F16.1°C 79% 8.0 mph SW12.9 kmh SW 15.0 mph24.1 kmh 29.89 in1012.2 mb 0.00 in0.0 mm 0.00 in/hr0.0 mm/hr 0.06 in1.5 mm
01:21 PM 67.6°F19.8°C 61.0°F16.1°C 79% 8.0 mph SW12.9 kmh SW 15.0 mph24.1 kmh 29.89 in1012.2 mb 0.00 in0.0 mm 0.00 in/hr0.0 mm/hr 0.06 in1.5 mm
01:20 PM 67.6°F19.8°C 60.4°F15.8°C 78% 8.0 mph SW12.9 kmh SW 15.0 mph24.1 kmh 29.89 in1012.2 mb 0.00 in0.0 mm 0.00 in/hr0.0 mm/hr 0.06 in1.5 mm
01:19 PM 67.6°F19.8°C 60.6°F15.9°C 78% 8.0 mph SW12.9 kmh SW 15.0 mph24.1 kmh 29.89 in1012.2 mb 0.00 in0.0 mm 0.00 in/hr0.0 mm/hr 0.06 in1.5 mm
01:18 PM 67.8°F19.9°C 60.6°F15.9°C 78% 8.0 mph SW12.9 kmh SW 17.0 mph27.4 kmh 29.89 in1012.2 mb 0.00 in0.0 mm 0.00 in/hr0.0 mm/hr 0.06 in1.5 mm
01:17 PM 67.8°F19.9°C 60.8°F16.0°C 78% 8.0 mph SW12.9 kmh SW 17.0 mph27.4 kmh 29.89 in1012.2 mb 0.00 in0.0 mm 0.00 in/hr0.0 mm/hr 0.06 in1.5 mm
01:16 PM 68.0°F20.0°C 60.8°F16.0°C 78% 8.0 mph SW12.9 kmh SW 17.0 mph27.4 kmh 29.89 in1012.2 mb 0.00 in0.0 mm 0.00 in/hr0.0 mm/hr 0.06 in1.5 mm
01:15 PM 68.2°F20.1°C 61.0°F16.1°C 78% 7.0 mph SW11.3 kmh SW 17.0 mph27.4 kmh 29.89 in1012.2 mb 0.00 in0.0 mm 0.00 in/hr0.0 mm/hr 0.06 in1.5 mm
01:14 PM 68.2°F20.1°C 61.2°F16.2°C 78% 7.0 mph SW11.3 kmh SW 17.0 mph27.4 kmh 29.89 in1012.2 mb 0.00 in0.0 mm 0.00 in/hr0.0 mm/hr 0.06 in1.5 mm
01:13 PM 68.4°F20.2°C 61.3°F16.3°C 78% 7.0 mph SW11.3 kmh SW 17.0 mph27.4 kmh 29.89 in1012.2 mb 0.00 in0.0 mm 0.00 in/hr0.0 mm/hr 0.06 in1.5 mm
01:12 PM 68.5°F20.3°C 61.3°F16.3°C 78% 7.0 mph SW11.3 kmh SW 17.0 mph27.4 kmh 29.89 in1012.2 mb 0.00 in0.0 mm 0.00 in/hr0.0 mm/hr 0.06 in1.5 mm
01:11 PM 68.5°F20.3°C 61.5°F16.4°C 78% 7.0 mph SW11.3 kmh SW 17.0 mph27.4 kmh 29.89 in1012.2 mb 0.00 in0.0 mm 0.00 in/hr0.0 mm/hr 0.06 in1.5 mm
01:10 PM 68.7°F20.4°C 61.5°F16.4°C 78% 7.0 mph SW11.3 kmh SW 17.0 mph27.4 kmh 29.89 in1012.2 mb 0.00 in0.0 mm 0.00 in/hr0.0 mm/hr 0.06 in1.5 mm
01:09 PM 68.7°F20.4°C 62.1°F16.7°C 79% 7.0 mph SW11.3 kmh SW 17.0 mph27.4 kmh 29.89 in1012.2 mb 0.00 in0.0 mm 0.00 in/hr0.0 mm/hr 0.06 in1.5 mm
01:08 PM 68.7°F20.4°C 61.9°F16.6°C 79% 7.0 mph SW11.3 kmh SW 14.0 mph22.5 kmh 29.88 in1011.9 mb 0.00 in0.0 mm 0.00 in/hr0.0 mm/hr 0.06 in1.5 mm
01:07 PM 68.5°F20.3°C 62.2°F16.8°C 80% 7.0 mph SW11.3 kmh SW 14.0 mph22.5 kmh 29.89 in1012.2 mb 0.00 in0.0 mm 0.00 in/hr0.0 mm/hr 0.06 in1.5 mm
01:06 PM 68.5°F20.3°C 62.1°F16.7°C 80% 7.0 mph SW11.3 kmh SW 14.0 mph22.5 kmh 29.89 in1012.2 mb 0.00 in0.0 mm 0.00 in/hr0.0 mm/hr 0.06 in1.5 mm
01:05 PM 68.4°F20.2°C 61.9°F16.6°C 80% 7.0 mph SW11.3 kmh SW 15.0 mph24.1 kmh 29.89 in1012.2 mb 0.00 in0.0 mm 0.00 in/hr0.0 mm/hr 0.06 in1.5 mm
01:04 PM 68.2°F20.1°C 61.7°F16.5°C 80% 8.0 mph SW12.9 kmh SW 15.0 mph24.1 kmh 29.89 in1012.2 mb 0.00 in0.0 mm 0.00 in/hr0.0 mm/hr 0.06 in1.5 mm
01:03 PM 68.2°F20.1°C 61.9°F16.6°C 80% 8.0 mph SW12.9 kmh SW 15.0 mph24.1 kmh 29.89 in1012.2 mb 0.00 in0.0 mm 0.00 in/hr0.0 mm/hr 0.06 in1.5 mm
01:02 PM 68.4°F20.2°C 61.9°F16.6°C 80% 8.0 mph SW12.9 kmh SW 15.0 mph24.1 kmh 29.89 in1012.2 mb 0.00 in0.0 mm 0.00 in/hr0.0 mm/hr 0.06 in1.5 mm
01:01 PM 68.2°F20.1°C 61.9°F16.6°C 80% 7.0 mph SW11.3 kmh SW 15.0 mph24.1 kmh 29.89 in1012.2 mb 0.00 in0.0 mm 0.00 in/hr0.0 mm/hr 0.06 in1.5 mm
01:00 PM 68.2°F20.1°C 61.9°F16.6°C 80% 8.0 mph SW12.9 kmh SW 15.0 mph24.1 kmh 29.89 in1012.2 mb 0.00 in0.0 mm 0.00 in/hr0.0 mm/hr 0.06 in1.5 mm
12:59 PM 68.2°F20.1°C 62.1°F16.7°C 81% 8.0 mph SW12.9 kmh SW 15.0 mph24.1 kmh 29.89 in1012.2 mb 0.00 in0.0 mm 0.00 in/hr0.0 mm/hr 0.06 in1.5 mm
12:58 PM 68.0°F20.0°C 61.9°F16.6°C 81% 8.0 mph SW12.9 kmh SW 17.0 mph27.4 kmh 29.89 in1012.2 mb 0.00 in0.0 mm 0.00 in/hr0.0 mm/hr 0.06 in1.5 mm
12:57 PM 67.8°F19.9°C 61.9°F16.6°C 81% 8.0 mph SW12.9 kmh SW 17.0 mph27.4 kmh 29.89 in1012.2 mb 0.00 in0.0 mm 0.00 in/hr0.0 mm/hr 0.06 in1.5 mm
12:56 PM 67.8°F19.9°C 61.7°F16.5°C 81% 8.0 mph SW12.9 kmh SW 17.0 mph27.4 kmh 29.89 in1012.2 mb 0.00 in0.0 mm 0.00 in/hr0.0 mm/hr 0.06 in1.5 mm
12:55 PM 67.6°F19.8°C 61.7°F16.5°C 81% 8.0 mph SW12.9 kmh SW 17.0 mph27.4 kmh 29.89 in1012.2 mb 0.00 in0.0 mm 0.00 in/hr0.0 mm/hr 0.06 in1.5 mm
12:54 PM 67.6°F19.8°C 62.1°F16.7°C 82% 8.0 mph SW12.9 kmh SW 17.0 mph27.4 kmh 29.89 in1012.2 mb 0.00 in0.0 mm 0.00 in/hr0.0 mm/hr 0.06 in1.5 mm
12:53 PM 67.6°F19.8°C 62.1°F16.7°C 82% 8.0 mph SW12.9 kmh SW 17.0 mph27.4 kmh 29.89 in1012.2 mb 0.00 in0.0 mm 0.00 in/hr0.0 mm/hr 0.06 in1.5 mm
12:52 PM 67.6°F19.8°C 61.5°F16.4°C 81% 8.0 mph SW12.9 kmh SW 17.0 mph27.4 kmh 29.89 in1012.2 mb 0.00 in0.0 mm 0.00 in/hr0.0 mm/hr 0.06 in1.5 mm
12:51 PM 67.5°F19.7°C 61.5°F16.4°C 81% 8.0 mph SW12.9 kmh SW 17.0 mph27.4 kmh 29.89 in1012.2 mb 0.00 in0.0 mm 0.00 in/hr0.0 mm/hr 0.06 in1.5 mm
12:50 PM 67.3°F19.6°C 61.3°F16.3°C 81% 8.0 mph SW12.9 kmh SW 17.0 mph27.4 kmh 29.89 in1012.2 mb 0.00 in0.0 mm 0.00 in/hr0.0 mm/hr 0.06 in1.5 mm
12:49 PM 67.3°F19.6°C 61.2°F16.2°C 81% 8.0 mph SW12.9 kmh SW 17.0 mph27.4 kmh 29.89 in1012.2 mb 0.00 in0.0 mm 0.00 in/hr0.0 mm/hr 0.06 in1.5 mm
12:48 PM 67.3°F19.6°C 61.2°F16.2°C 81% 8.0 mph SW12.9 kmh SW 15.0 mph24.1 kmh 29.89 in1012.2 mb 0.00 in0.0 mm 0.00 in/hr0.0 mm/hr 0.06 in1.5 mm
12:47 PM 67.3°F19.6°C 61.7°F16.5°C 82% 8.0 mph SW12.9 kmh SW 15.0 mph24.1 kmh 29.89 in1012.2 mb 0.00 in0.0 mm 0.00 in/hr0.0 mm/hr 0.06 in1.5 mm
12:46 PM 67.3°F19.6°C 61.7°F16.5°C 82% 7.0 mph SW11.3 kmh SW 15.0 mph24.1 kmh 29.89 in1012.2 mb 0.00 in0.0 mm 0.00 in/hr0.0 mm/hr 0.06 in1.5 mm
12:45 PM 67.3°F19.6°C 61.5°F16.4°C 82% 8.0 mph SW12.9 kmh SW 15.0 mph24.1 kmh 29.89 in1012.2 mb 0.00 in0.0 mm 0.00 in/hr0.0 mm/hr 0.06 in1.5 mm
12:44 PM 67.1°F19.5°C 61.3°F16.3°C 82% 7.0 mph SW11.3 kmh SW 15.0 mph24.1 kmh 29.89 in1012.2 mb 0.00 in0.0 mm 0.00 in/hr0.0 mm/hr 0.06 in1.5 mm
12:43 PM 67.1°F19.5°C 61.3°F16.3°C 82% 7.0 mph SW11.3 kmh SW 15.0 mph24.1 kmh 29.89 in1012.2 mb 0.00 in0.0 mm 0.00 in/hr0.0 mm/hr 0.06 in1.5 mm
12:42 PM 67.1°F19.5°C 61.3°F16.3°C 82% 7.0 mph WSW11.3 kmh WSW 15.0 mph24.1 kmh 29.89 in1012.2 mb 0.00 in0.0 mm 0.00 in/hr0.0 mm/hr 0.06 in1.5 mm
12:41 PM 67.1°F19.5°C 61.3°F16.3°C 82% 7.0 mph WSW11.3 kmh WSW 14.0 mph22.5 kmh 29.88 in1011.9 mb 0.00 in0.0 mm 0.00 in/hr0.0 mm/hr 0.06 in1.5 mm
12:40 PM 66.9°F19.4°C 61.3°F16.3°C 82% 7.0 mph WSW11.3 kmh WSW 14.0 mph22.5 kmh 29.89 in1012.2 mb 0.00 in0.0 mm 0.00 in/hr0.0 mm/hr 0.06 in1.5 mm
12:39 PM 66.9°F19.4°C 61.3°F16.3°C 82% 7.0 mph WSW11.3 kmh WSW 16.0 mph25.7 kmh 29.89 in1012.2 mb 0.00 in0.0 mm 0.00 in/hr0.0 mm/hr 0.06 in1.5 mm
12:38 PM 66.9°F19.4°C 61.7°F16.5°C 83% 7.0 mph WSW11.3 kmh WSW 16.0 mph25.7 kmh 29.89 in1012.2 mb 0.00 in0.0 mm 0.00 in/hr0.0 mm/hr 0.06 in1.5 mm
12:37 PM 66.9°F19.4°C 61.5°F16.4°C 83% 7.0 mph WSW11.3 kmh WSW 17.0 mph27.4 kmh 29.89 in1012.2 mb 0.00 in0.0 mm 0.00 in/hr0.0 mm/hr 0.06 in1.5 mm
12:36 PM 66.7°F19.3°C 61.3°F16.3°C 83% 8.0 mph WSW12.9 kmh WSW 17.0 mph27.4 kmh 29.89 in1012.2 mb 0.00 in0.0 mm 0.00 in/hr0.0 mm/hr 0.06 in1.5 mm
12:35 PM 66.6°F19.2°C 61.3°F16.3°C 83% 8.0 mph WSW12.9 kmh WSW 17.0 mph27.4 kmh 29.89 in1012.2 mb 0.00 in0.0 mm 0.00 in/hr0.0 mm/hr 0.06 in1.5 mm
12:34 PM 66.6°F19.2°C 60.8°F16.0°C 82% 8.0 mph WSW12.9 kmh WSW 17.0 mph27.4 kmh 29.89 in1012.2 mb 0.00 in0.0 mm 0.00 in/hr0.0 mm/hr 0.06 in1.5 mm
12:33 PM 66.6°F19.2°C 60.8°F16.0°C 82% 8.0 mph WSW12.9 kmh WSW 17.0 mph27.4 kmh 29.89 in1012.2 mb 0.00 in0.0 mm 0.00 in/hr0.0 mm/hr 0.06 in1.5 mm
12:32 PM 66.6°F19.2°C 60.4°F15.8°C 81% 8.0 mph SW12.9 kmh SW 17.0 mph27.4 kmh 29.89 in1012.2 mb 0.00 in0.0 mm 0.00 in/hr0.0 mm/hr 0.06 in1.5 mm
12:31 PM 66.6°F19.2°C 60.4°F15.8°C 81% 8.0 mph WSW12.9 kmh WSW 17.0 mph27.4 kmh 29.89 in1012.2 mb 0.00 in0.0 mm 0.00 in/hr0.0 mm/hr 0.06 in1.5 mm
12:30 PM 66.6°F19.2°C 60.8°F16.0°C 82% 8.0 mph WSW12.9 kmh WSW 17.0 mph27.4 kmh 29.89 in1012.2 mb 0.00 in0.0 mm 0.00 in/hr0.0 mm/hr 0.06 in1.5 mm
12:29 PM 66.6°F19.2°C 60.8°F16.0°C 82% 8.0 mph SW12.9 kmh SW 17.0 mph27.4 kmh 29.89 in1012.2 mb 0.00 in0.0 mm 0.00 in/hr0.0 mm/hr 0.06 in1.5 mm
12:28 PM 66.6°F19.2°C 60.8°F16.0°C 82% 7.0 mph SW11.3 kmh SW 17.0 mph27.4 kmh 29.89 in1012.2 mb 0.00 in0.0 mm 0.00 in/hr0.0 mm/hr 0.06 in1.5 mm
12:27 PM 66.4°F19.1°C 60.8°F16.0°C 82% 7.0 mph SW11.3 kmh SW 15.0 mph24.1 kmh 29.89 in1012.2 mb 0.00 in0.0 mm 0.00 in/hr0.0 mm/hr 0.06 in1.5 mm
12:26 PM 66.4°F19.1°C 60.8°F16.0°C 82% 7.0 mph SW11.3 kmh SW 15.0 mph24.1 kmh 29.89 in1012.2 mb 0.00 in0.0 mm 0.00 in/hr0.0 mm/hr 0.06 in1.5 mm
12:25 PM 66.4°F19.1°C 60.6°F15.9°C 82% 7.0 mph SW11.3 kmh SW 15.0 mph24.1 kmh 29.89 in1012.2 mb 0.00 in0.0 mm 0.00 in/hr0.0 mm/hr 0.06 in1.5 mm
12:24 PM 66.4°F19.1°C 60.8°F16.0°C 82% 8.0 mph SW12.9 kmh SW 15.0 mph24.1 kmh 29.89 in1012.2 mb 0.00 in0.0 mm 0.00 in/hr0.0 mm/hr 0.06 in1.5 mm
12:23 PM 66.4°F19.1°C 60.8°F16.0°C 82% 8.0 mph SW12.9 kmh SW 16.0 mph25.7 kmh 29.89 in1012.2 mb 0.00 in0.0 mm 0.00 in/hr0.0 mm/hr 0.06 in1.5 mm
12:22 PM 66.4°F19.1°C 60.8°F16.0°C 82% 8.0 mph SW12.9 kmh SW 16.0 mph25.7 kmh 29.89 in1012.2 mb 0.00 in0.0 mm 0.00 in/hr0.0 mm/hr 0.06 in1.5 mm
12:21 PM 66.4°F19.1°C 60.8°F16.0°C 82% 8.0 mph SW12.9 kmh SW 16.0 mph25.7 kmh 29.89 in1012.2 mb 0.00 in0.0 mm 0.00 in/hr0.0 mm/hr 0.06 in1.5 mm
12:20 PM 66.6°F19.2°C 61.2°F16.2°C 83% 7.0 mph SW11.3 kmh SW 16.0 mph25.7 kmh 29.89 in1012.2 mb 0.00 in0.0 mm 0.00 in/hr0.0 mm/hr 0.06 in1.5 mm
12:19 PM 66.6°F19.2°C 61.3°F16.3°C 83% 7.0 mph SW11.3 kmh SW 16.0 mph25.7 kmh 29.89 in1012.2 mb 0.00 in0.0 mm 0.00 in/hr0.0 mm/hr 0.06 in1.5 mm
12:18 PM 66.6°F19.2°C 61.3°F16.3°C 83% 7.0 mph SW11.3 kmh SW 16.0 mph25.7 kmh 29.89 in1012.2 mb 0.00 in0.0 mm 0.00 in/hr0.0 mm/hr 0.06 in1.5 mm
12:17 PM 66.6°F19.2°C 61.2°F16.2°C 83% 7.0 mph SW11.3 kmh SW 16.0 mph25.7 kmh 29.89 in1012.2 mb 0.00 in0.0 mm 0.00 in/hr0.0 mm/hr 0.06 in1.5 mm
12:16 PM 66.4°F19.1°C 60.8°F16.0°C 82% 7.0 mph SW11.3 kmh SW 16.0 mph25.7 kmh 29.89 in1012.2 mb 0.00 in0.0 mm 0.00 in/hr0.0 mm/hr 0.06 in1.5 mm
12:15 PM 66.6°F19.2°C 60.8°F16.0°C 82% 7.0 mph SW11.3 kmh SW 16.0 mph25.7 kmh 29.89 in1012.2 mb 0.00 in0.0 mm 0.00 in/hr0.0 mm/hr 0.06 in1.5 mm
12:14 PM 66.4°F19.1°C 60.8°F16.0°C 82% 7.0 mph SW11.3 kmh SW 16.0 mph25.7 kmh 29.89 in1012.2 mb 0.00 in0.0 mm 0.00 in/hr0.0 mm/hr 0.06 in1.5 mm
12:13 PM 66.4°F19.1°C 60.8°F16.0°C 82% 6.0 mph SW9.7 kmh SW 13.0 mph20.9 kmh 29.89 in1012.2 mb 0.00 in0.0 mm 0.00 in/hr0.0 mm/hr 0.06 in1.5 mm
12:12 PM 66.4°F19.1°C 61.2°F16.2°C 83% 6.0 mph SW9.7 kmh SW 13.0 mph20.9 kmh 29.89 in1012.2 mb 0.00 in0.0 mm 0.00 in/hr0.0 mm/hr 0.06 in1.5 mm
12:11 PM 66.4°F19.1°C 61.2°F16.2°C 83% 7.0 mph SW11.3 kmh SW 13.0 mph20.9 kmh 29.89 in1012.2 mb 0.00 in0.0 mm 0.00 in/hr0.0 mm/hr 0.06 in1.5 mm
12:10 PM 66.4°F19.1°C 60.6°F15.9°C 82% 7.0 mph SW11.3 kmh SW 13.0 mph20.9 kmh 29.89 in1012.2 mb 0.00 in0.0 mm 0.00 in/hr0.0 mm/hr 0.06 in1.5 mm
12:09 PM 66.2°F19.0°C 60.6°F15.9°C 82% 7.0 mph WSW11.3 kmh WSW 14.0 mph22.5 kmh 29.89 in1012.2 mb 0.00 in0.0 mm 0.00 in/hr0.0 mm/hr 0.06 in1.5 mm
12:08 PM 66.2°F19.0°C 60.6°F15.9°C 82% 7.0 mph SW11.3 kmh SW 14.0 mph22.5 kmh 29.89 in1012.2 mb 0.00 in0.0 mm 0.00 in/hr0.0 mm/hr 0.06 in1.5 mm
12:07 PM 66.0°F18.9°C 60.4°F15.8°C 82% 7.0 mph SW11.3 kmh SW 14.0 mph22.5 kmh 29.89 in1012.2 mb 0.00 in0.0 mm 0.00 in/hr0.0 mm/hr 0.06 in1.5 mm
12:06 PM 66.0°F18.9°C 60.4°F15.8°C 82% 7.0 mph SW11.3 kmh SW 15.0 mph24.1 kmh 29.90 in1012.5 mb 0.00 in0.0 mm 0.00 in/hr0.0 mm/hr 0.06 in1.5 mm
12:05 PM 66.0°F18.9°C 60.8°F16.0°C 83% 7.0 mph SW11.3 kmh SW 15.0 mph24.1 kmh 29.89 in1012.2 mb 0.00 in0.0 mm 0.00 in/hr0.0 mm/hr 0.06 in1.5 mm
12:04 PM 66.0°F18.9°C 60.6°F15.9°C 83% 8.0 mph SW12.9 kmh SW 17.0 mph27.4 kmh 29.90 in1012.5 mb 0.00 in0.0 mm 0.00 in/hr0.0 mm/hr 0.06 in1.5 mm
12:03 PM 65.8°F18.8°C 60.6°F15.9°C 83% 8.0 mph SW12.9 kmh SW 19.0 mph30.6 kmh 29.90 in1012.5 mb 0.00 in0.0 mm 0.00 in/hr0.0 mm/hr 0.06 in1.5 mm
12:02 PM 65.7°F18.7°C 60.4°F15.8°C 83% 8.0 mph SW12.9 kmh SW 19.0 mph30.6 kmh 29.89 in1012.2 mb 0.00 in0.0 mm 0.00 in/hr0.0 mm/hr 0.06 in1.5 mm
12:01 PM 65.7°F18.7°C 59.9°F15.5°C 82% 8.0 mph SW12.9 kmh SW 19.0 mph30.6 kmh 29.90 in1012.5 mb 0.00 in0.0 mm 0.00 in/hr0.0 mm/hr 0.06 in1.5 mm
12:00 PM 65.7°F18.7°C 60.3°F15.7°C 83% 8.0 mph SW12.9 kmh SW 19.0 mph30.6 kmh 29.90 in1012.5 mb 0.00 in0.0 mm 0.00 in/hr0.0 mm/hr 0.06 in1.5 mm
11:59 AM 65.5°F18.6°C 60.3°F15.7°C 83% 7.0 mph SW11.3 kmh SW 19.0 mph30.6 kmh 29.89 in1012.2 mb 0.00 in0.0 mm 0.00 in/hr0.0 mm/hr 0.06 in1.5 mm
11:58 AM 65.5°F18.6°C 60.1°F15.6°C 83% 8.0 mph SW12.9 kmh SW 19.0 mph30.6 kmh 29.90 in1012.5 mb 0.00 in0.0 mm 0.00 in/hr0.0 mm/hr 0.06 in1.5 mm
11:57 AM 65.5°F18.6°C 60.1°F15.6°C 83% 8.0 mph SW12.9 kmh SW 19.0 mph30.6 kmh 29.90 in1012.5 mb 0.00 in0.0 mm 0.00 in/hr0.0 mm/hr 0.06 in1.5 mm
11:56 AM 65.5°F18.6°C 60.3°F15.7°C 83% 8.0 mph SW12.9 kmh SW 19.0 mph30.6 kmh 29.90 in1012.5 mb 0.00 in0.0 mm 0.00 in/hr0.0 mm/hr 0.06 in1.5 mm
11:55 AM 65.5°F18.6°C 60.6°F15.9°C 84% 8.0 mph WSW12.9 kmh WSW 19.0 mph30.6 kmh 29.89 in1012.2 mb 0.00 in0.0 mm 0.00 in/hr0.0 mm/hr 0.06 in1.5 mm
11:54 AM 65.7°F18.7°C 61.0°F16.1°C 85% 7.0 mph WSW11.3 kmh WSW 19.0 mph30.6 kmh 29.90 in1012.5 mb 0.00 in0.0 mm 0.00 in/hr0.0 mm/hr 0.06 in1.5 mm
11:53 AM 65.5°F18.6°C 60.8°F16.0°C 85% 7.0 mph WSW11.3 kmh WSW 16.0 mph25.7 kmh 29.89 in1012.2 mb 0.00 in0.0 mm 0.00 in/hr0.0 mm/hr 0.06 in1.5 mm
11:52 AM 65.5°F18.6°C 60.8°F16.0°C 85% 7.0 mph SW11.3 kmh SW 16.0 mph25.7 kmh 29.89 in1012.2 mb 0.00 in0.0 mm 0.00 in/hr0.0 mm/hr 0.06 in1.5 mm
11:51 AM 65.5°F18.6°C 60.8°F16.0°C 85% 7.0 mph SW11.3 kmh SW 16.0 mph25.7 kmh 29.89 in1012.2 mb 0.00 in0.0 mm 0.00 in/hr0.0 mm/hr 0.06 in1.5 mm
11:50 AM 65.5°F18.6°C 60.8°F16.0°C 85% 7.0 mph SW11.3 kmh SW 16.0 mph25.7 kmh 29.90 in1012.5 mb 0.00 in0.0 mm 0.00 in/hr0.0 mm/hr 0.06 in1.5 mm
11:49 AM 65.5°F18.6°C 60.8°F16.0°C 85% 7.0 mph SW11.3 kmh SW 16.0 mph25.7 kmh 29.90 in1012.5 mb 0.00 in0.0 mm 0.00 in/hr0.0 mm/hr 0.06 in1.5 mm
11:48 AM 65.3°F18.5°C 60.6°F15.9°C 85% 7.0 mph WSW11.3 kmh WSW 16.0 mph25.7 kmh 29.90 in1012.5 mb 0.00 in0.0 mm 0.00 in/hr0.0 mm/hr 0.06 in1.5 mm
11:47 AM 65.5°F18.6°C 61.2°F16.2°C 86% 6.0 mph WSW9.7 kmh WSW 16.0 mph25.7 kmh 29.90 in1012.5 mb 0.00 in0.0 mm 0.00 in/hr0.0 mm/hr 0.06 in1.5 mm
11:46 AM 65.5°F18.6°C 61.2°F16.2°C 86% 6.0 mph SW9.7 kmh SW 12.0 mph19.3 kmh 29.90 in1012.5 mb 0.00 in0.0 mm 0.00 in/hr0.0 mm/hr 0.06 in1.5 mm
11:45 AM 65.5°F18.6°C 61.2°F16.2°C 86% 6.0 mph SW9.7 kmh SW 12.0 mph19.3 kmh 29.90 in1012.5 mb 0.00 in0.0 mm 0.00 in/hr0.0 mm/hr 0.06 in1.5 mm
11:44 AM 65.7°F18.7°C 61.7°F16.5°C 87% 6.0 mph SW9.7 kmh SW 12.0 mph19.3 kmh 29.90 in1012.5 mb 0.00 in0.0 mm 0.00 in/hr0.0 mm/hr 0.06 in1.5 mm
11:43 AM 65.7°F18.7°C 61.7°F16.5°C 87% 6.0 mph SW9.7 kmh SW 12.0 mph19.3 kmh 29.90 in1012.5 mb 0.01 in0.3 mm 0.00 in/hr0.0 mm/hr 0.06 in1.5 mm
11:42 AM 65.7°F18.7°C 61.7°F16.5°C 87% 6.0 mph WSW9.7 kmh WSW 12.0 mph19.3 kmh 29.90 in1012.5 mb 0.01 in0.3 mm 0.00 in/hr0.0 mm/hr 0.06 in1.5 mm
11:41 AM 65.7°F18.7°C 62.1°F16.7°C 88% 5.0 mph WSW8.0 kmh WSW 12.0 mph19.3 kmh 29.90 in1012.5 mb 0.01 in0.3 mm 0.00 in/hr0.0 mm/hr 0.06 in1.5 mm
11:40 AM 65.7°F18.7°C 62.2°F16.8°C 89% 5.0 mph WSW8.0 kmh WSW 11.0 mph17.7 kmh 29.90 in1012.5 mb 0.01 in0.3 mm 0.00 in/hr0.0 mm/hr 0.06 in1.5 mm
11:39 AM 65.1°F18.4°C 61.9°F16.6°C 89% 5.0 mph WSW8.0 kmh WSW 11.0 mph17.7 kmh 29.90 in1012.5 mb 0.01 in0.3 mm 0.00 in/hr0.0 mm/hr 0.06 in1.5 mm
11:38 AM 65.1°F18.4°C 61.7°F16.5°C 89% 5.0 mph SW8.0 kmh SW 11.0 mph17.7 kmh 29.90 in1012.5 mb 0.01 in0.3 mm 0.00 in/hr0.0 mm/hr 0.06 in1.5 mm
11:37 AM 64.8°F18.2°C 61.3°F16.3°C 89% 5.0 mph SW8.0 kmh SW 11.0 mph17.7 kmh 29.90 in1012.5 mb 0.01 in0.3 mm 0.00 in/hr0.0 mm/hr 0.06 in1.5 mm
11:36 AM 64.4°F18.0°C 60.8°F16.0°C 88% 5.0 mph SW8.0 kmh SW 11.0 mph17.7 kmh 29.90 in1012.5 mb 0.01 in0.3 mm 0.00 in/hr0.0 mm/hr 0.06 in1.5 mm
11:35 AM 64.2°F17.9°C 60.6°F15.9°C 88% 5.0 mph SW8.0 kmh SW 11.0 mph17.7 kmh 29.90 in1012.5 mb 0.01 in0.3 mm 0.00 in/hr0.0 mm/hr 0.06 in1.5 mm
11:34 AM 64.0°F17.8°C 60.4°F15.8°C 88% 5.0 mph SW8.0 kmh SW 10.0 mph16.1 kmh 29.90 in1012.5 mb 0.01 in0.3 mm 0.00 in/hr0.0 mm/hr 0.06 in1.5 mm
11:33 AM 64.0°F17.8°C 60.4°F15.8°C 88% 5.0 mph SW8.0 kmh SW 10.0 mph16.1 kmh 29.90 in1012.5 mb 0.01 in0.3 mm 0.00 in/hr0.0 mm/hr 0.06 in1.5 mm
11:32 AM 63.9°F17.7°C 60.3°F15.7°C 88% 5.0 mph SW8.0 kmh SW 9.0 mph14.5 kmh 29.90 in1012.5 mb 0.01 in0.3 mm 0.00 in/hr0.0 mm/hr 0.06 in1.5 mm
11:31 AM 63.9°F17.7°C 60.3°F15.7°C 88% 5.0 mph SW8.0 kmh SW 9.0 mph14.5 kmh 29.90 in1012.5 mb 0.01 in0.3 mm 0.00 in/hr0.0 mm/hr 0.06 in1.5 mm
11:30 AM 63.9°F17.7°C 60.3°F15.7°C 88% 5.0 mph SW8.0 kmh SW 9.0 mph14.5 kmh 29.90 in1012.5 mb 0.01 in0.3 mm 0.00 in/hr0.0 mm/hr 0.06 in1.5 mm
11:29 AM 63.9°F17.7°C 60.3°F15.7°C 88% 5.0 mph SW8.0 kmh SW 9.0 mph14.5 kmh 29.90 in1012.5 mb 0.01 in0.3 mm 0.00 in/hr0.0 mm/hr 0.06 in1.5 mm
11:28 AM 63.7°F17.6°C 59.7°F15.4°C 87% 4.0 mph SW6.4 kmh SW 9.0 mph14.5 kmh 29.90 in1012.5 mb 0.01 in0.3 mm 0.00 in/hr0.0 mm/hr 0.06 in1.5 mm
11:27 AM 63.7°F17.6°C 59.7°F15.4°C 87% 5.0 mph SW8.0 kmh SW 9.0 mph14.5 kmh 29.90 in1012.5 mb 0.01 in0.3 mm 0.00 in/hr0.0 mm/hr 0.06 in1.5 mm
11:26 AM 63.7°F17.6°C 59.7°F15.4°C 87% 5.0 mph SW8.0 kmh SW 9.0 mph14.5 kmh 29.90 in1012.5 mb 0.01 in0.3 mm 0.00 in/hr0.0 mm/hr 0.06 in1.5 mm
11:25 AM 63.7°F17.6°C 59.7°F15.4°C 87% 5.0 mph SW8.0 kmh SW 9.0 mph14.5 kmh 29.90 in1012.5 mb 0.01 in0.3 mm 0.00 in/hr0.0 mm/hr 0.06 in1.5 mm
11:24 AM 63.7°F17.6°C 59.7°F15.4°C 87% 5.0 mph SW8.0 kmh SW 9.0 mph14.5 kmh 29.90 in1012.5 mb 0.01 in0.3 mm 0.00 in/hr0.0 mm/hr 0.06 in1.5 mm
11:23 AM 63.5°F17.5°C 59.5°F15.3°C 87% 5.0 mph SW8.0 kmh SW 9.0 mph14.5 kmh 29.90 in1012.5 mb 0.01 in0.3 mm 0.00 in/hr0.0 mm/hr 0.06 in1.5 mm
11:22 AM 63.5°F17.5°C 59.5°F15.3°C 87% 5.0 mph SW8.0 kmh SW 9.0 mph14.5 kmh 29.90 in1012.5 mb 0.01 in0.3 mm 0.00 in/hr0.0 mm/hr 0.06 in1.5 mm
11:21 AM 63.3°F17.4°C 59.5°F15.3°C 87% 5.0 mph SW8.0 kmh SW 10.0 mph16.1 kmh 29.90 in1012.5 mb 0.01 in0.3 mm 0.00 in/hr0.0 mm/hr 0.06 in1.5 mm
11:20 AM 63.3°F17.4°C 59.5°F15.3°C 87% 5.0 mph SW8.0 kmh SW 10.0 mph16.1 kmh 29.90 in1012.5 mb 0.01 in0.3 mm 0.00 in/hr0.0 mm/hr 0.06 in1.5 mm
11:19 AM 63.3°F17.4°C 59.4°F15.2°C 87% 6.0 mph SW9.7 kmh SW 10.0 mph16.1 kmh 29.90 in1012.5 mb 0.01 in0.3 mm 0.00 in/hr0.0 mm/hr 0.06 in1.5 mm
11:18 AM 63.3°F17.4°C 59.4°F15.2°C 87% 6.0 mph SW9.7 kmh SW 10.0 mph16.1 kmh 29.90 in1012.5 mb 0.02 in0.5 mm 0.00 in/hr0.0 mm/hr 0.06 in1.5 mm
11:17 AM 63.1°F17.3°C 59.2°F15.1°C 87% 6.0 mph SW9.7 kmh SW 10.0 mph16.1 kmh 29.90 in1012.5 mb 0.02 in0.5 mm 0.00 in/hr0.0 mm/hr 0.06 in1.5 mm
11:16 AM 63.1°F17.3°C 59.2°F15.1°C 87% 6.0 mph SW9.7 kmh SW 10.0 mph16.1 kmh 29.89 in1012.2 mb 0.02 in0.5 mm 0.00 in/hr0.0 mm/hr 0.06 in1.5 mm
11:15 AM 63.1°F17.3°C 59.5°F15.3°C 88% 6.0 mph SW9.7 kmh SW 10.0 mph16.1 kmh 29.90 in1012.5 mb 0.02 in0.5 mm 0.00 in/hr0.0 mm/hr 0.06 in1.5 mm
11:14 AM 63.0°F17.2°C 59.4°F15.2°C 88% 5.0 mph SW8.0 kmh SW 10.0 mph16.1 kmh 29.89 in1012.2 mb 0.02 in0.5 mm 0.00 in/hr0.0 mm/hr 0.06 in1.5 mm
11:13 AM 63.0°F17.2°C 59.4°F15.2°C 88% 5.0 mph SW8.0 kmh SW 10.0 mph16.1 kmh 29.89 in1012.2 mb 0.02 in0.5 mm 0.00 in/hr0.0 mm/hr 0.06 in1.5 mm
11:12 AM 63.0°F17.2°C 59.4°F15.2°C 88% 5.0 mph SW8.0 kmh SW 10.0 mph16.1 kmh 29.89 in1012.2 mb 0.02 in0.5 mm 0.00 in/hr0.0 mm/hr 0.06 in1.5 mm
11:11 AM 62.8°F17.1°C 59.2°F15.1°C 88% 5.0 mph SW8.0 kmh SW 10.0 mph16.1 kmh 29.89 in1012.2 mb 0.02 in0.5 mm 0.00 in/hr0.0 mm/hr 0.06 in1.5 mm
11:10 AM 62.8°F17.1°C 59.2°F15.1°C 88% 5.0 mph SW8.0 kmh SW 10.0 mph16.1 kmh 29.89 in1012.2 mb 0.02 in0.5 mm 0.00 in/hr0.0 mm/hr 0.06 in1.5 mm
11:09 AM 62.6°F17.0°C 59.0°F15.0°C 88% 4.0 mph SW6.4 kmh SW 9.0 mph14.5 kmh 29.89 in1012.2 mb 0.02 in0.5 mm 0.00 in/hr0.0 mm/hr 0.06 in1.5 mm
11:08 AM 62.6°F17.0°C 59.0°F15.0°C 88% 4.0 mph SW6.4 kmh SW 9.0 mph14.5 kmh 29.89 in1012.2 mb 0.02 in0.5 mm 0.00 in/hr0.0 mm/hr 0.06 in1.5 mm
11:07 AM 62.8°F17.1°C 59.4°F15.2°C 89% 4.0 mph SW6.4 kmh SW 8.0 mph12.9 kmh 29.89 in1012.2 mb 0.02 in0.5 mm 0.00 in/hr0.0 mm/hr 0.06 in1.5 mm
11:06 AM 62.8°F17.1°C 59.4°F15.2°C 89% 4.0 mph SW6.4 kmh SW 8.0 mph12.9 kmh 29.89 in1012.2 mb 0.02 in0.5 mm 0.00 in/hr0.0 mm/hr 0.06 in1.5 mm
11:05 AM 62.8°F17.1°C 59.5°F15.3°C 89% 4.0 mph SW6.4 kmh SW 8.0 mph12.9 kmh 29.89 in1012.2 mb 0.02 in0.5 mm 0.00 in/hr0.0 mm/hr 0.06 in1.5 mm
11:04 AM 62.8°F17.1°C 59.4°F15.2°C 89% 4.0 mph SW6.4 kmh SW 8.0 mph12.9 kmh 29.89 in1012.2 mb 0.02 in0.5 mm 0.00 in/hr0.0 mm/hr 0.06 in1.5 mm
11:03 AM 62.6°F17.0°C 59.4°F15.2°C 89% 5.0 mph SW8.0 kmh SW 8.0 mph12.9 kmh 29.89 in1012.2 mb 0.02 in0.5 mm 0.00 in/hr0.0 mm/hr 0.06 in1.5 mm
11:02 AM 62.8°F17.1°C 59.4°F15.2°C 89% 5.0 mph SW8.0 kmh SW 11.0 mph17.7 kmh 29.89 in1012.2 mb 0.02 in0.5 mm 0.00 in/hr0.0 mm/hr 0.06 in1.5 mm
11:01 AM 62.8°F17.1°C 59.5°F15.3°C 89% 4.0 mph SW6.4 kmh SW 11.0 mph17.7 kmh 29.89 in1012.2 mb 0.02 in0.5 mm 0.00 in/hr0.0 mm/hr 0.06 in1.5 mm
11:00 AM 62.8°F17.1°C 59.5°F15.3°C 89% 5.0 mph SW8.0 kmh SW 11.0 mph17.7 kmh 29.89 in1012.2 mb 0.02 in0.5 mm 0.00 in/hr0.0 mm/hr 0.06 in1.5 mm
10:59 AM 63.0°F17.2°C 59.5°F15.3°C 89% 5.0 mph SW8.0 kmh SW 11.0 mph17.7 kmh 29.89 in1012.2 mb 0.02 in0.5 mm 0.00 in/hr0.0 mm/hr 0.06 in1.5 mm
10:58 AM 63.0°F17.2°C 59.5°F15.3°C 89% 5.0 mph SW8.0 kmh SW 11.0 mph17.7 kmh 29.89 in1012.2 mb 0.02 in0.5 mm 0.00 in/hr0.0 mm/hr 0.06 in1.5 mm
10:57 AM 63.0°F17.2°C 59.7°F15.4°C 89% 5.0 mph SW8.0 kmh SW 11.0 mph17.7 kmh 29.89 in1012.2 mb 0.02 in0.5 mm 0.00 in/hr0.0 mm/hr 0.06 in1.5 mm
10:56 AM 63.1°F17.3°C 59.7°F15.4°C 89% 5.0 mph SW8.0 kmh SW 11.0 mph17.7 kmh 29.89 in1012.2 mb 0.02 in0.5 mm 0.00 in/hr0.0 mm/hr 0.06 in1.5 mm
10:55 AM 63.1°F17.3°C 59.9°F15.5°C 89% 5.0 mph SW8.0 kmh SW 11.0 mph17.7 kmh 29.89 in1012.2 mb 0.02 in0.5 mm 0.00 in/hr0.0 mm/hr 0.06 in1.5 mm
10:54 AM 63.3°F17.4°C 60.1°F15.6°C 89% 5.0 mph SW8.0 kmh SW 11.0 mph17.7 kmh 29.89 in1012.2 mb 0.02 in0.5 mm 0.00 in/hr0.0 mm/hr 0.06 in1.5 mm
10:53 AM 63.3°F17.4°C 60.1°F15.6°C 89% 5.0 mph SW8.0 kmh SW 11.0 mph17.7 kmh 29.90 in1012.5 mb 0.02 in0.5 mm 0.00 in/hr0.0 mm/hr 0.06 in1.5 mm
10:52 AM 63.5°F17.5°C 60.3°F15.7°C 89% 5.0 mph SW8.0 kmh SW 11.0 mph17.7 kmh 29.90 in1012.5 mb 0.02 in0.5 mm 0.00 in/hr0.0 mm/hr 0.06 in1.5 mm
10:51 AM 63.7°F17.6°C 60.3°F15.7°C 89% 5.0 mph SW8.0 kmh SW 11.0 mph17.7 kmh 29.90 in1012.5 mb 0.02 in0.5 mm 0.00 in/hr0.0 mm/hr 0.06 in1.5 mm
10:50 AM 63.7°F17.6°C 60.3°F15.7°C 89% 5.0 mph SW8.0 kmh SW 11.0 mph17.7 kmh 29.90 in1012.5 mb 0.02 in0.5 mm 0.00 in/hr0.0 mm/hr 0.06 in1.5 mm
10:49 AM 63.7°F17.6°C 60.4°F15.8°C 89% 5.0 mph SW8.0 kmh SW 10.0 mph16.1 kmh 29.90 in1012.5 mb 0.02 in0.5 mm 0.00 in/hr0.0 mm/hr 0.06 in1.5 mm
10:48 AM 63.9°F17.7°C 60.4°F15.8°C 89% 5.0 mph SW8.0 kmh SW 10.0 mph16.1 kmh 29.90 in1012.5 mb 0.02 in0.5 mm 0.00 in/hr0.0 mm/hr 0.06 in1.5 mm
10:47 AM 63.9°F17.7°C 60.6°F15.9°C 89% 5.0 mph SW8.0 kmh SW 9.0 mph14.5 kmh 29.90 in1012.5 mb 0.02 in0.5 mm 0.00 in/hr0.0 mm/hr 0.06 in1.5 mm
10:46 AM 63.9°F17.7°C 60.3°F15.7°C 88% 5.0 mph SW8.0 kmh SW 9.0 mph14.5 kmh 29.90 in1012.5 mb 0.02 in0.5 mm 0.00 in/hr0.0 mm/hr 0.06 in1.5 mm
10:45 AM 63.9°F17.7°C 60.3°F15.7°C 88% 5.0 mph SW8.0 kmh SW 9.0 mph14.5 kmh 29.90 in1012.5 mb 0.02 in0.5 mm 0.00 in/hr0.0 mm/hr 0.06 in1.5 mm
10:44 AM 63.9°F17.7°C 60.3°F15.7°C 88% 6.0 mph SW9.7 kmh SW 12.0 mph19.3 kmh 29.90 in1012.5 mb 0.02 in0.5 mm 0.60 in/hr15.2 mm/hr 0.06 in1.5 mm
10:43 AM 63.9°F17.7°C 60.3°F15.7°C 88% 6.0 mph SW9.7 kmh SW 12.0 mph19.3 kmh 29.90 in1012.5 mb 0.01 in0.3 mm 0.00 in/hr0.0 mm/hr 0.05 in1.3 mm
10:42 AM 64.0°F17.8°C 60.1°F15.6°C 87% 6.0 mph SW9.7 kmh SW 12.0 mph19.3 kmh 29.90 in1012.5 mb 0.01 in0.3 mm 0.00 in/hr0.0 mm/hr 0.05 in1.3 mm
10:41 AM 64.0°F17.8°C 60.1°F15.6°C 87% 6.0 mph SW9.7 kmh SW 12.0 mph19.3 kmh 29.90 in1012.5 mb 0.01 in0.3 mm 0.00 in/hr0.0 mm/hr 0.05 in1.3 mm
10:40 AM 64.0°F17.8°C 60.1°F15.6°C 87% 6.0 mph SW9.7 kmh SW 12.0 mph19.3 kmh 29.90 in1012.5 mb 0.01 in0.3 mm 0.00 in/hr0.0 mm/hr 0.05 in1.3 mm
10:39 AM 64.0°F17.8°C 59.9°F15.5°C 86% 7.0 mph SW11.3 kmh SW 12.0 mph19.3 kmh 29.90 in1012.5 mb 0.01 in0.3 mm 0.00 in/hr0.0 mm/hr 0.05 in1.3 mm
10:38 AM 64.2°F17.9°C 59.9°F15.5°C 86% 7.0 mph SW11.3 kmh SW 17.0 mph27.4 kmh 29.90 in1012.5 mb 0.01 in0.3 mm 0.00 in/hr0.0 mm/hr 0.05 in1.3 mm
10:37 AM 64.2°F17.9°C 59.7°F15.4°C 85% 7.0 mph SW11.3 kmh SW 17.0 mph27.4 kmh 29.90 in1012.5 mb 0.01 in0.3 mm 0.00 in/hr0.0 mm/hr 0.05 in1.3 mm
10:36 AM 64.4°F18.0°C 59.7°F15.4°C 85% 8.0 mph SW12.9 kmh SW 17.0 mph27.4 kmh 29.89 in1012.2 mb 0.01 in0.3 mm 0.00 in/hr0.0 mm/hr 0.05 in1.3 mm
10:35 AM 64.6°F18.1°C 59.5°F15.3°C 84% 8.0 mph SW12.9 kmh SW 17.0 mph27.4 kmh 29.90 in1012.5 mb 0.01 in0.3 mm 0.00 in/hr0.0 mm/hr 0.05 in1.3 mm
10:34 AM 64.6°F18.1°C 59.7°F15.4°C 84% 7.0 mph SW11.3 kmh SW 17.0 mph27.4 kmh 29.90 in1012.5 mb 0.01 in0.3 mm 0.00 in/hr0.0 mm/hr 0.05 in1.3 mm
10:33 AM 64.8°F18.2°C 59.4°F15.2°C 83% 7.0 mph SW11.3 kmh SW 17.0 mph27.4 kmh 29.90 in1012.5 mb 0.01 in0.3 mm 0.00 in/hr0.0 mm/hr 0.05 in1.3 mm
10:32 AM 64.8°F18.2°C 59.5°F15.3°C 83% 7.0 mph SW11.3 kmh SW 17.0 mph27.4 kmh 29.90 in1012.5 mb 0.01 in0.3 mm 0.00 in/hr0.0 mm/hr 0.05 in1.3 mm
10:31 AM 64.9°F18.3°C 59.5°F15.3°C 83% 7.0 mph SW11.3 kmh SW 17.0 mph27.4 kmh 29.89 in1012.2 mb 0.01 in0.3 mm 0.00 in/hr0.0 mm/hr 0.05 in1.3 mm
10:30 AM 64.9°F18.3°C 59.0°F15.0°C 81% 7.0 mph SW11.3 kmh SW 17.0 mph27.4 kmh 29.89 in1012.2 mb 0.01 in0.3 mm 0.00 in/hr0.0 mm/hr 0.05 in1.3 mm
10:29 AM 65.1°F18.4°C 59.2°F15.1°C 81% 6.0 mph SW9.7 kmh SW 17.0 mph27.4 kmh 29.89 in1012.2 mb 0.01 in0.3 mm 0.00 in/hr0.0 mm/hr 0.05 in1.3 mm
10:28 AM 65.3°F18.5°C 59.0°F15.0°C 80% 6.0 mph SW9.7 kmh SW 17.0 mph27.4 kmh 29.89 in1012.2 mb 0.01 in0.3 mm 0.00 in/hr0.0 mm/hr 0.05 in1.3 mm
10:27 AM 65.5°F18.6°C 59.0°F15.0°C 80% 6.0 mph SW9.7 kmh SW 17.0 mph27.4 kmh 29.89 in1012.2 mb 0.01 in0.3 mm 0.00 in/hr0.0 mm/hr 0.05 in1.3 mm
10:26 AM 65.7°F18.7°C 58.8°F14.9°C 79% 6.0 mph SW9.7 kmh SW 17.0 mph27.4 kmh 29.89 in1012.2 mb 0.01 in0.3 mm 0.00 in/hr0.0 mm/hr 0.05 in1.3 mm
10:25 AM 65.7°F18.7°C 58.6°F14.8°C 78% 6.0 mph SW9.7 kmh SW 17.0 mph27.4 kmh 29.89 in1012.2 mb 0.01 in0.3 mm 0.00 in/hr0.0 mm/hr 0.05 in1.3 mm
10:24 AM 65.8°F18.8°C 58.8°F14.9°C 78% 6.0 mph WSW9.7 kmh WSW 17.0 mph27.4 kmh 29.89 in1012.2 mb 0.01 in0.3 mm 0.00 in/hr0.0 mm/hr 0.05 in1.3 mm
10:23 AM 65.8°F18.8°C 58.5°F14.7°C 77% 6.0 mph WSW9.7 kmh WSW 17.0 mph27.4 kmh 29.89 in1012.2 mb 0.01 in0.3 mm 0.00 in/hr0.0 mm/hr 0.05 in1.3 mm
10:22 AM 66.0°F18.9°C 58.6°F14.8°C 77% 7.0 mph WSW11.3 kmh WSW 17.0 mph27.4 kmh 29.89 in1012.2 mb 0.01 in0.3 mm 0.00 in/hr0.0 mm/hr 0.05 in1.3 mm
10:21 AM 66.0°F18.9°C 58.3°F14.6°C 76% 7.0 mph WSW11.3 kmh WSW 17.0 mph27.4 kmh 29.89 in1012.2 mb 0.01 in0.3 mm 0.00 in/hr0.0 mm/hr 0.05 in1.3 mm
10:20 AM 66.2°F19.0°C 58.1°F14.5°C 75% 7.0 mph WSW11.3 kmh WSW 17.0 mph27.4 kmh 29.89 in1012.2 mb 0.01 in0.3 mm 0.00 in/hr0.0 mm/hr 0.05 in1.3 mm
10:19 AM 66.4°F19.1°C 57.7°F14.3°C 74% 7.0 mph WSW11.3 kmh WSW 17.0 mph27.4 kmh 29.89 in1012.2 mb 0.01 in0.3 mm 0.60 in/hr15.2 mm/hr 0.05 in1.3 mm
10:18 AM 66.4°F19.1°C 57.7°F14.3°C 74% 7.0 mph WSW11.3 kmh WSW 15.0 mph24.1 kmh 29.89 in1012.2 mb 0.00 in0.0 mm 0.00 in/hr0.0 mm/hr 0.04 in1.0 mm
10:17 AM 66.4°F19.1°C 57.6°F14.2°C 73% 7.0 mph WSW11.3 kmh WSW 15.0 mph24.1 kmh 29.89 in1012.2 mb 0.00 in0.0 mm 0.00 in/hr0.0 mm/hr 0.04 in1.0 mm
10:16 AM 66.6°F19.2°C 57.6°F14.2°C 73% 7.0 mph WSW11.3 kmh WSW 15.0 mph24.1 kmh 29.89 in1012.2 mb 0.00 in0.0 mm 0.00 in/hr0.0 mm/hr 0.04 in1.0 mm
10:15 AM 66.6°F19.2°C 58.1°F14.5°C 74% 7.0 mph WSW11.3 kmh WSW 15.0 mph24.1 kmh 29.89 in1012.2 mb 0.00 in0.0 mm 0.00 in/hr0.0 mm/hr 0.04 in1.0 mm
10:14 AM 66.7°F19.3°C 57.7°F14.3°C 73% 7.0 mph WSW11.3 kmh WSW 13.0 mph20.9 kmh 29.89 in1012.2 mb 0.00 in0.0 mm 0.00 in/hr0.0 mm/hr 0.04 in1.0 mm
10:13 AM 66.7°F19.3°C 58.3°F14.6°C 74% 7.0 mph WSW11.3 kmh WSW 16.0 mph25.7 kmh 29.89 in1012.2 mb 0.00 in0.0 mm 0.00 in/hr0.0 mm/hr 0.04 in1.0 mm
10:12 AM 66.9°F19.4°C 58.6°F14.8°C 75% 7.0 mph WSW11.3 kmh WSW 16.0 mph25.7 kmh 29.89 in1012.2 mb 0.00 in0.0 mm 0.00 in/hr0.0 mm/hr 0.04 in1.0 mm
10:11 AM 66.9°F19.4°C 58.8°F14.9°C 75% 7.0 mph WSW11.3 kmh WSW 16.0 mph25.7 kmh 29.89 in1012.2 mb 0.00 in0.0 mm 0.00 in/hr0.0 mm/hr 0.04 in1.0 mm
10:10 AM 66.9°F19.4°C 58.8°F14.9°C 75% 7.0 mph WSW11.3 kmh WSW 16.0 mph25.7 kmh 29.89 in1012.2 mb 0.00 in0.0 mm 0.00 in/hr0.0 mm/hr 0.04 in1.0 mm
10:09 AM 66.9°F19.4°C 58.8°F14.9°C 75% 8.0 mph WSW12.9 kmh WSW 16.0 mph25.7 kmh 29.89 in1012.2 mb 0.00 in0.0 mm 0.00 in/hr0.0 mm/hr 0.04 in1.0 mm
10:08 AM 66.9°F19.4°C 58.5°F14.7°C 74% 8.0 mph WSW12.9 kmh WSW 16.0 mph25.7 kmh 29.89 in1012.2 mb 0.00 in0.0 mm 0.00 in/hr0.0 mm/hr 0.04 in1.0 mm
10:07 AM 66.9°F19.4°C 58.5°F14.7°C 74% 8.0 mph WSW12.9 kmh WSW 16.0 mph25.7 kmh 29.89 in1012.2 mb 0.00 in0.0 mm 0.00 in/hr0.0 mm/hr 0.04 in1.0 mm
10:06 AM 66.9°F19.4°C 58.8°F14.9°C 75% 8.0 mph WSW12.9 kmh WSW 16.0 mph25.7 kmh 29.89 in1012.2 mb 0.00 in0.0 mm 0.00 in/hr0.0 mm/hr 0.04 in1.0 mm
10:05 AM 66.9°F19.4°C 58.5°F14.7°C 74% 8.0 mph WSW12.9 kmh WSW 16.0 mph25.7 kmh 29.89 in1012.2 mb 0.00 in0.0 mm 0.00 in/hr0.0 mm/hr 0.04 in1.0 mm
10:04 AM 66.9°F19.4°C 58.8°F14.9°C 75% 8.0 mph WSW12.9 kmh WSW 16.0 mph25.7 kmh 29.89 in1012.2 mb 0.00 in0.0 mm 0.00 in/hr0.0 mm/hr 0.04 in1.0 mm
10:03 AM 66.9°F19.4°C 58.6°F14.8°C 75% 8.0 mph WSW12.9 kmh WSW 15.0 mph24.1 kmh 29.89 in1012.2 mb 0.00 in0.0 mm 0.00 in/hr0.0 mm/hr 0.04 in1.0 mm
10:02 AM 66.9°F19.4°C 59.9°F15.5°C 78% 7.0 mph WSW11.3 kmh WSW 16.0 mph25.7 kmh 29.89 in1012.2 mb 0.00 in0.0 mm 0.00 in/hr0.0 mm/hr 0.04 in1.0 mm
10:01 AM 66.7°F19.3°C 59.5°F15.3°C 78% 7.0 mph WSW11.3 kmh WSW 16.0 mph25.7 kmh 29.89 in1012.2 mb 0.00 in0.0 mm 0.00 in/hr0.0 mm/hr 0.04 in1.0 mm
10:00 AM 66.6°F19.2°C 59.5°F15.3°C 78% 7.0 mph SW11.3 kmh SW 16.0 mph25.7 kmh 29.89 in1012.2 mb 0.00 in0.0 mm 0.00 in/hr0.0 mm/hr 0.04 in1.0 mm
09:59 AM 66.6°F19.2°C 59.0°F15.0°C 77% 7.0 mph SW11.3 kmh SW 16.0 mph25.7 kmh 29.89 in1012.2 mb 0.00 in0.0 mm 0.00 in/hr0.0 mm/hr 0.04 in1.0 mm
09:58 AM 66.4°F19.1°C 59.0°F15.0°C 77% 7.0 mph SW11.3 kmh SW 16.0 mph25.7 kmh 29.89 in1012.2 mb 0.00 in0.0 mm 0.00 in/hr0.0 mm/hr 0.04 in1.0 mm
09:57 AM 66.4°F19.1°C 58.8°F14.9°C 77% 8.0 mph SW12.9 kmh SW 16.0 mph25.7 kmh 29.89 in1012.2 mb 0.00 in0.0 mm 0.00 in/hr0.0 mm/hr 0.04 in1.0 mm
09:56 AM 66.2°F19.0°C 58.8°F14.9°C 77% 7.0 mph SW11.3 kmh SW 16.0 mph25.7 kmh 29.89 in1012.2 mb 0.00 in0.0 mm 0.00 in/hr0.0 mm/hr 0.04 in1.0 mm
09:55 AM 66.2°F19.0°C 58.5°F14.7°C 76% 7.0 mph SW11.3 kmh SW 16.0 mph25.7 kmh 29.89 in1012.2 mb 0.00 in0.0 mm 0.00 in/hr0.0 mm/hr 0.04 in1.0 mm
09:54 AM 66.0°F18.9°C 58.3°F14.6°C 76% 7.0 mph SW11.3 kmh SW 16.0 mph25.7 kmh 29.89 in1012.2 mb 0.00 in0.0 mm 0.00 in/hr0.0 mm/hr 0.04 in1.0 mm
09:53 AM 66.0°F18.9°C 58.3°F14.6°C 76% 7.0 mph SW11.3 kmh SW 16.0 mph25.7 kmh 29.89 in1012.2 mb 0.00 in0.0 mm 0.00 in/hr0.0 mm/hr 0.04 in1.0 mm
09:52 AM 66.0°F18.9°C 58.3°F14.6°C 76% 7.0 mph SW11.3 kmh SW 15.0 mph24.1 kmh 29.89 in1012.2 mb 0.00 in0.0 mm 0.00 in/hr0.0 mm/hr 0.04 in1.0 mm
09:51 AM 66.2°F19.0°C 59.2°F15.1°C 78% 7.0 mph SW11.3 kmh SW 15.0 mph24.1 kmh 29.89 in1012.2 mb 0.00 in0.0 mm 0.00 in/hr0.0 mm/hr 0.04 in1.0 mm
09:50 AM 66.2°F19.0°C 59.5°F15.3°C 79% 7.0 mph SW11.3 kmh SW 15.0 mph24.1 kmh 29.89 in1012.2 mb 0.00 in0.0 mm 0.00 in/hr0.0 mm/hr 0.04 in1.0 mm
09:49 AM 66.2°F19.0°C 59.9°F15.5°C 80% 7.0 mph SW11.3 kmh SW 15.0 mph24.1 kmh 29.89 in1012.2 mb 0.00 in0.0 mm 0.00 in/hr0.0 mm/hr 0.04 in1.0 mm
09:48 AM 66.4°F19.1°C 59.9°F15.5°C 80% 7.0 mph SW11.3 kmh SW 15.0 mph24.1 kmh 29.89 in1012.2 mb 0.00 in0.0 mm 0.00 in/hr0.0 mm/hr 0.04 in1.0 mm
09:47 AM 66.4°F19.1°C 60.3°F15.7°C 81% 7.0 mph SW11.3 kmh SW 14.0 mph22.5 kmh 29.89 in1012.2 mb 0.00 in0.0 mm 0.00 in/hr0.0 mm/hr 0.04 in1.0 mm
09:46 AM 66.4°F19.1°C 60.6°F15.9°C 82% 7.0 mph SW11.3 kmh SW 14.0 mph22.5 kmh 29.89 in1012.2 mb 0.00 in0.0 mm 0.00 in/hr0.0 mm/hr 0.04 in1.0 mm
09:45 AM 66.2°F19.0°C 60.6°F15.9°C 82% 7.0 mph SW11.3 kmh SW 14.0 mph22.5 kmh 29.89 in1012.2 mb 0.00 in0.0 mm 0.00 in/hr0.0 mm/hr 0.04 in1.0 mm
09:44 AM 66.2°F19.0°C 60.6°F15.9°C 82% 8.0 mph SW12.9 kmh SW 14.0 mph22.5 kmh 29.89 in1012.2 mb 0.00 in0.0 mm 0.00 in/hr0.0 mm/hr 0.04 in1.0 mm
09:43 AM 66.2°F19.0°C 60.6°F15.9°C 82% 8.0 mph SW12.9 kmh SW 14.0 mph22.5 kmh 29.89 in1012.2 mb 0.00 in0.0 mm 0.00 in/hr0.0 mm/hr 0.04 in1.0 mm
09:42 AM 66.2°F19.0°C 60.6°F15.9°C 82% 8.0 mph SW12.9 kmh SW 14.0 mph22.5 kmh 29.89 in1012.2 mb 0.00 in0.0 mm 0.00 in/hr0.0 mm/hr 0.04 in1.0 mm
09:41 AM 66.2°F19.0°C 60.6°F15.9°C 82% 8.0 mph SW12.9 kmh SW 14.0 mph22.5 kmh 29.89 in1012.2 mb 0.00 in0.0 mm 0.00 in/hr0.0 mm/hr 0.04 in1.0 mm
09:40 AM 66.2°F19.0°C 60.6°F15.9°C 82% 8.0 mph SW12.9 kmh SW 14.0 mph22.5 kmh 29.89 in1012.2 mb 0.00 in0.0 mm 0.00 in/hr0.0 mm/hr 0.04 in1.0 mm
09:39 AM 66.4°F19.1°C 60.6°F15.9°C 82% 8.0 mph SW12.9 kmh SW 14.0 mph22.5 kmh 29.89 in1012.2 mb 0.00 in0.0 mm 0.00 in/hr0.0 mm/hr 0.04 in1.0 mm
09:38 AM 66.4°F19.1°C 60.6°F15.9°C 82% 8.0 mph SW12.9 kmh SW 14.0 mph22.5 kmh 29.89 in1012.2 mb 0.00 in0.0 mm 0.00 in/hr0.0 mm/hr 0.04 in1.0 mm
09:37 AM 66.4°F19.1°C 60.6°F15.9°C 82% 7.0 mph SW11.3 kmh SW 14.0 mph22.5 kmh 29.89 in1012.2 mb 0.00 in0.0 mm 0.00 in/hr0.0 mm/hr 0.04 in1.0 mm
09:36 AM 66.4°F19.1°C 60.8°F16.0°C 82% 7.0 mph SW11.3 kmh SW 14.0 mph22.5 kmh 29.89 in1012.2 mb 0.00 in0.0 mm 0.00 in/hr0.0 mm/hr 0.04 in1.0 mm
09:35 AM 66.6°F19.2°C 60.8°F16.0°C 82% 7.0 mph SW11.3 kmh SW 14.0 mph22.5 kmh 29.89 in1012.2 mb 0.00 in0.0 mm 0.00 in/hr0.0 mm/hr 0.04 in1.0 mm
09:34 AM 66.6°F19.2°C 60.8°F16.0°C 82% 7.0 mph SW11.3 kmh SW 14.0 mph22.5 kmh 29.89 in1012.2 mb 0.00 in0.0 mm 0.00 in/hr0.0 mm/hr 0.04 in1.0 mm
09:33 AM 66.6°F19.2°C 61.0°F16.1°C 82% 6.0 mph SW9.7 kmh SW 13.0 mph20.9 kmh 29.89 in1012.2 mb 0.00 in0.0 mm 0.00 in/hr0.0 mm/hr 0.04 in1.0 mm
09:32 AM 66.7°F19.3°C 61.7°F16.5°C 84% 6.0 mph SW9.7 kmh SW 14.0 mph22.5 kmh 29.89 in1012.2 mb 0.00 in0.0 mm 0.00 in/hr0.0 mm/hr 0.04 in1.0 mm
09:31 AM 66.7°F19.3°C 61.7°F16.5°C 84% 6.0 mph SW9.7 kmh SW 14.0 mph22.5 kmh 29.89 in1012.2 mb 0.00 in0.0 mm 0.00 in/hr0.0 mm/hr 0.04 in1.0 mm
09:30 AM 66.7°F19.3°C 61.7°F16.5°C 84% 6.0 mph SW9.7 kmh SW 14.0 mph22.5 kmh 29.89 in1012.2 mb 0.00 in0.0 mm 0.00 in/hr0.0 mm/hr 0.04 in1.0 mm
09:29 AM 66.6°F19.2°C 61.3°F16.3°C 83% 6.0 mph SW9.7 kmh SW 14.0 mph22.5 kmh 29.88 in1011.9 mb 0.00 in0.0 mm 0.00 in/hr0.0 mm/hr 0.04 in1.0 mm
09:28 AM 66.6°F19.2°C 61.3°F16.3°C 83% 6.0 mph SW9.7 kmh SW 14.0 mph22.5 kmh 29.88 in1011.9 mb 0.00 in0.0 mm 0.00 in/hr0.0 mm/hr 0.04 in1.0 mm
09:27 AM 66.6°F19.2°C 61.2°F16.2°C 83% 6.0 mph WSW9.7 kmh WSW 14.0 mph22.5 kmh 29.88 in1011.9 mb 0.00 in0.0 mm 0.00 in/hr0.0 mm/hr 0.04 in1.0 mm
09:26 AM 66.4°F19.1°C 61.2°F16.2°C 83% 6.0 mph WSW9.7 kmh WSW 14.0 mph22.5 kmh 29.88 in1011.9 mb 0.00 in0.0 mm 0.00 in/hr0.0 mm/hr 0.04 in1.0 mm
09:25 AM 66.4°F19.1°C 61.2°F16.2°C 83% 6.0 mph WSW9.7 kmh WSW 16.0 mph25.7 kmh 29.89 in1012.2 mb 0.00 in0.0 mm 0.00 in/hr0.0 mm/hr 0.04 in1.0 mm
09:24 AM 66.4°F19.1°C 61.0°F16.1°C 83% 7.0 mph WSW11.3 kmh WSW 16.0 mph25.7 kmh 29.88 in1011.9 mb 0.00 in0.0 mm 0.00 in/hr0.0 mm/hr 0.04 in1.0 mm
09:23 AM 66.4°F19.1°C 61.0°F16.1°C 83% 7.0 mph WSW11.3 kmh WSW 16.0 mph25.7 kmh 29.89 in1012.2 mb 0.00 in0.0 mm 0.00 in/hr0.0 mm/hr 0.04 in1.0 mm
09:22 AM 66.2°F19.0°C 60.8°F16.0°C 83% 7.0 mph WSW11.3 kmh WSW 16.0 mph25.7 kmh 29.89 in1012.2 mb 0.00 in0.0 mm 0.00 in/hr0.0 mm/hr 0.04 in1.0 mm
09:21 AM 66.2°F19.0°C 60.8°F16.0°C 83% 7.0 mph WSW11.3 kmh WSW 16.0 mph25.7 kmh 29.89 in1012.2 mb 0.00 in0.0 mm 0.00 in/hr0.0 mm/hr 0.04 in1.0 mm
09:20 AM 66.0°F18.9°C 60.8°F16.0°C 83% 7.0 mph WSW11.3 kmh WSW 16.0 mph25.7 kmh 29.88 in1011.9 mb 0.00 in0.0 mm 0.00 in/hr0.0 mm/hr 0.04 in1.0 mm
09:19 AM 66.0°F18.9°C 60.8°F16.0°C 83% 7.0 mph SW11.3 kmh SW 16.0 mph25.7 kmh 29.89 in1012.2 mb 0.00 in0.0 mm 0.00 in/hr0.0 mm/hr 0.04 in1.0 mm
09:18 AM 66.0°F18.9°C 60.8°F16.0°C 83% 7.0 mph SW11.3 kmh SW 16.0 mph25.7 kmh 29.89 in1012.2 mb 0.00 in0.0 mm 0.00 in/hr0.0 mm/hr 0.04 in1.0 mm
09:17 AM 66.0°F18.9°C 60.6°F15.9°C 83% 8.0 mph SW12.9 kmh SW 16.0 mph25.7 kmh 29.89 in1012.2 mb 0.00 in0.0 mm 0.00 in/hr0.0 mm/hr 0.04 in1.0 mm
09:16 AM 66.0°F18.9°C 60.6°F15.9°C 83% 8.0 mph SW12.9 kmh SW 16.0 mph25.7 kmh 29.89 in1012.2 mb 0.00 in0.0 mm 0.00 in/hr0.0 mm/hr 0.04 in1.0 mm
09:15 AM 65.8°F18.8°C 60.6°F15.9°C 83% 8.0 mph SW12.9 kmh SW 15.0 mph24.1 kmh 29.89 in1012.2 mb 0.00 in0.0 mm 0.00 in/hr0.0 mm/hr 0.04 in1.0 mm
09:14 AM 65.8°F18.8°C 60.6°F15.9°C 83% 8.0 mph SW12.9 kmh SW 15.0 mph24.1 kmh 29.89 in1012.2 mb 0.00 in0.0 mm 0.00 in/hr0.0 mm/hr 0.04 in1.0 mm
09:13 AM 65.8°F18.8°C 60.6°F15.9°C 83% 8.0 mph SW12.9 kmh SW 15.0 mph24.1 kmh 29.89 in1012.2 mb 0.00 in0.0 mm 0.00 in/hr0.0 mm/hr 0.04 in1.0 mm
09:12 AM 65.8°F18.8°C 61.0°F16.1°C 84% 8.0 mph WSW12.9 kmh WSW 16.0 mph25.7 kmh 29.89 in1012.2 mb 0.00 in0.0 mm 0.00 in/hr0.0 mm/hr 0.04 in1.0 mm
09:11 AM 65.8°F18.8°C 61.0°F16.1°C 84% 8.0 mph WSW12.9 kmh WSW 16.0 mph25.7 kmh 29.89 in1012.2 mb 0.00 in0.0 mm 0.00 in/hr0.0 mm/hr 0.04 in1.0 mm
09:10 AM 65.8°F18.8°C 60.8°F16.0°C 84% 8.0 mph WSW12.9 kmh WSW 17.0 mph27.4 kmh 29.89 in1012.2 mb 0.00 in0.0 mm 0.00 in/hr0.0 mm/hr 0.04 in1.0 mm
09:09 AM 65.8°F18.8°C 61.0°F16.1°C 84% 9.0 mph WSW14.5 kmh WSW 17.0 mph27.4 kmh 29.89 in1012.2 mb 0.00 in0.0 mm 0.00 in/hr0.0 mm/hr 0.04 in1.0 mm
09:08 AM 65.8°F18.8°C 61.0°F16.1°C 84% 8.0 mph WSW12.9 kmh WSW 17.0 mph27.4 kmh 29.89 in1012.2 mb 0.00 in0.0 mm 0.00 in/hr0.0 mm/hr 0.04 in1.0 mm
09:07 AM 65.8°F18.8°C 61.3°F16.3°C 85% 8.0 mph WSW12.9 kmh WSW 17.0 mph27.4 kmh 29.89 in1012.2 mb 0.00 in0.0 mm 0.00 in/hr0.0 mm/hr 0.04 in1.0 mm
09:06 AM 65.8°F18.8°C 61.3°F16.3°C 85% 8.0 mph WSW12.9 kmh WSW 17.0 mph27.4 kmh 29.89 in1012.2 mb 0.00 in0.0 mm 0.00 in/hr0.0 mm/hr 0.04 in1.0 mm
09:05 AM 65.8°F18.8°C 61.3°F16.3°C 85% 8.0 mph WSW12.9 kmh WSW 18.0 mph29.0 kmh 29.89 in1012.2 mb 0.00 in0.0 mm 0.00 in/hr0.0 mm/hr 0.04 in1.0 mm
09:04 AM 65.8°F18.8°C 61.3°F16.3°C 85% 8.0 mph WSW12.9 kmh WSW 18.0 mph29.0 kmh 29.89 in1012.2 mb 0.00 in0.0 mm 0.00 in/hr0.0 mm/hr 0.04 in1.0 mm
09:03 AM 65.8°F18.8°C 61.3°F16.3°C 85% 8.0 mph WSW12.9 kmh WSW 18.0 mph29.0 kmh 29.89 in1012.2 mb 0.00 in0.0 mm 0.00 in/hr0.0 mm/hr 0.04 in1.0 mm
09:02 AM 65.8°F18.8°C 61.3°F16.3°C 85% 8.0 mph WSW12.9 kmh WSW 18.0 mph29.0 kmh 29.88 in1011.9 mb 0.00 in0.0 mm 0.00 in/hr0.0 mm/hr 0.04 in1.0 mm
09:01 AM 65.8°F18.8°C 61.3°F16.3°C 85% 8.0 mph SW12.9 kmh SW 18.0 mph29.0 kmh 29.89 in1012.2 mb 0.00 in0.0 mm 0.00 in/hr0.0 mm/hr 0.04 in1.0 mm
09:00 AM 65.8°F18.8°C 61.3°F16.3°C 85% 7.0 mph SW11.3 kmh SW 18.0 mph29.0 kmh 29.88 in1011.9 mb 0.00 in0.0 mm 0.00 in/hr0.0 mm/hr 0.04 in1.0 mm
08:59 AM 65.8°F18.8°C 61.2°F16.2°C 85% 7.0 mph SW11.3 kmh SW 18.0 mph29.0 kmh 29.89 in1012.2 mb 0.00 in0.0 mm 0.00 in/hr0.0 mm/hr 0.04 in1.0 mm
08:58 AM 65.7°F18.7°C 61.0°F16.1°C 85% 7.0 mph SW11.3 kmh SW 18.0 mph29.0 kmh 29.89 in1012.2 mb 0.00 in0.0 mm 0.00 in/hr0.0 mm/hr 0.04 in1.0 mm
08:57 AM 65.7°F18.7°C 61.0°F16.1°C 85% 8.0 mph SW12.9 kmh SW 18.0 mph29.0 kmh 29.89 in1012.2 mb 0.00 in0.0 mm 0.00 in/hr0.0 mm/hr 0.04 in1.0 mm
08:56 AM 65.7°F18.7°C 61.0°F16.1°C 85% 7.0 mph SW11.3 kmh SW 18.0 mph29.0 kmh 29.89 in1012.2 mb 0.00 in0.0 mm 0.00 in/hr0.0 mm/hr 0.04 in1.0 mm
08:55 AM 65.5°F18.6°C 60.8°F16.0°C 85% 7.0 mph SW11.3 kmh SW 16.0 mph25.7 kmh 29.89 in1012.2 mb 0.00 in0.0 mm 0.00 in/hr0.0 mm/hr 0.04 in1.0 mm
08:54 AM 65.5°F18.6°C 60.8°F16.0°C 85% 8.0 mph WSW12.9 kmh WSW 16.0 mph25.7 kmh 29.89 in1012.2 mb 0.00 in0.0 mm 0.00 in/hr0.0 mm/hr 0.04 in1.0 mm
08:53 AM 65.5°F18.6°C 60.8°F16.0°C 85% 7.0 mph WSW11.3 kmh WSW 16.0 mph25.7 kmh 29.89 in1012.2 mb 0.00 in0.0 mm 0.00 in/hr0.0 mm/hr 0.04 in1.0 mm
08:52 AM 65.5°F18.6°C 60.8°F16.0°C 85% 7.0 mph WSW11.3 kmh WSW 16.0 mph25.7 kmh 29.89 in1012.2 mb 0.00 in0.0 mm 0.00 in/hr0.0 mm/hr 0.04 in1.0 mm
08:51 AM 65.3°F18.5°C 60.6°F15.9°C 85% 7.0 mph SW11.3 kmh SW 16.0 mph25.7 kmh 29.89 in1012.2 mb 0.00 in0.0 mm 0.00 in/hr0.0 mm/hr 0.04 in1.0 mm
08:50 AM 65.1°F18.4°C 60.6°F15.9°C 85% 7.0 mph SW11.3 kmh SW 16.0 mph25.7 kmh 29.89 in1012.2 mb 0.00 in0.0 mm 0.00 in/hr0.0 mm/hr 0.04 in1.0 mm
08:49 AM 65.1°F18.4°C 60.4°F15.8°C 85% 7.0 mph SW11.3 kmh SW 16.0 mph25.7 kmh 29.89 in1012.2 mb 0.00 in0.0 mm 0.00 in/hr0.0 mm/hr 0.04 in1.0 mm
08:48 AM 64.9°F18.3°C 60.4°F15.8°C 85% 7.0 mph SW11.3 kmh SW 16.0 mph25.7 kmh 29.89 in1012.2 mb 0.00 in0.0 mm 0.00 in/hr0.0 mm/hr 0.04 in1.0 mm
08:47 AM 64.9°F18.3°C 60.6°F15.9°C 86% 7.0 mph SW11.3 kmh SW 15.0 mph24.1 kmh 29.89 in1012.2 mb 0.00 in0.0 mm 0.00 in/hr0.0 mm/hr 0.04 in1.0 mm
08:46 AM 64.9°F18.3°C 60.6°F15.9°C 86% 7.0 mph SW11.3 kmh SW 14.0 mph22.5 kmh 29.89 in1012.2 mb 0.00 in0.0 mm 0.00 in/hr0.0 mm/hr 0.04 in1.0 mm
08:45 AM 64.9°F18.3°C 61.0°F16.1°C 87% 7.0 mph SW11.3 kmh SW 14.0 mph22.5 kmh 29.89 in1012.2 mb 0.00 in0.0 mm 0.00 in/hr0.0 mm/hr 0.04 in1.0 mm
08:44 AM 64.9°F18.3°C 61.0°F16.1°C 87% 7.0 mph WSW11.3 kmh WSW 14.0 mph22.5 kmh 29.89 in1012.2 mb 0.00 in0.0 mm 0.00 in/hr0.0 mm/hr 0.04 in1.0 mm
08:43 AM 64.9°F18.3°C 61.0°F16.1°C 87% 8.0 mph WSW12.9 kmh WSW 17.0 mph27.4 kmh 29.89 in1012.2 mb 0.00 in0.0 mm 0.00 in/hr0.0 mm/hr 0.04 in1.0 mm
08:42 AM 64.9°F18.3°C 61.0°F16.1°C 87% 7.0 mph WSW11.3 kmh WSW 17.0 mph27.4 kmh 29.89 in1012.2 mb 0.00 in0.0 mm 0.00 in/hr0.0 mm/hr 0.04 in1.0 mm
08:41 AM 64.9°F18.3°C 61.3°F16.3°C 88% 7.0 mph WSW11.3 kmh WSW 17.0 mph27.4 kmh 29.89 in1012.2 mb 0.00 in0.0 mm 0.00 in/hr0.0 mm/hr 0.04 in1.0 mm
08:40 AM 64.8°F18.2°C 61.2°F16.2°C 88% 8.0 mph WSW12.9 kmh WSW 17.0 mph27.4 kmh 29.89 in1012.2 mb 0.00 in0.0 mm 0.00 in/hr0.0 mm/hr 0.04 in1.0 mm
08:39 AM 64.8°F18.2°C 61.2°F16.2°C 88% 8.0 mph WSW12.9 kmh WSW 17.0 mph27.4 kmh 29.89 in1012.2 mb 0.00 in0.0 mm 0.00 in/hr0.0 mm/hr 0.04 in1.0 mm
08:38 AM 64.8°F18.2°C 61.0°F16.1°C 88% 8.0 mph WSW12.9 kmh WSW 17.0 mph27.4 kmh 29.89 in1012.2 mb 0.00 in0.0 mm 0.00 in/hr0.0 mm/hr 0.04 in1.0 mm
08:37 AM 64.8°F18.2°C 61.3°F16.3°C 89% 7.0 mph WSW11.3 kmh WSW 17.0 mph27.4 kmh 29.89 in1012.2 mb 0.00 in0.0 mm 0.00 in/hr0.0 mm/hr 0.04 in1.0 mm
08:36 AM 64.6°F18.1°C 61.3°F16.3°C 89% 7.0 mph WSW11.3 kmh WSW 17.0 mph27.4 kmh 29.89 in1012.2 mb 0.00 in0.0 mm 0.00 in/hr0.0 mm/hr 0.04 in1.0 mm
08:35 AM 64.6°F18.1°C 61.2°F16.2°C 89% 7.0 mph WSW11.3 kmh WSW 17.0 mph27.4 kmh 29.89 in1012.2 mb 0.00 in0.0 mm 0.00 in/hr0.0 mm/hr 0.04 in1.0 mm
08:34 AM 64.4°F18.0°C 61.2°F16.2°C 89% 7.0 mph WSW11.3 kmh WSW 17.0 mph27.4 kmh 29.89 in1012.2 mb 0.00 in0.0 mm 0.00 in/hr0.0 mm/hr 0.04 in1.0 mm
08:33 AM 64.2°F17.9°C 61.0°F16.1°C 89% 6.0 mph SW9.7 kmh SW 16.0 mph25.7 kmh 29.89 in1012.2 mb 0.00 in0.0 mm 0.00 in/hr0.0 mm/hr 0.04 in1.0 mm
08:32 AM 64.2°F17.9°C 60.8°F16.0°C 89% 6.0 mph SW9.7 kmh SW 16.0 mph25.7 kmh 29.89 in1012.2 mb 0.00 in0.0 mm 0.00 in/hr0.0 mm/hr 0.04 in1.0 mm
08:31 AM 64.0°F17.8°C 60.8°F16.0°C 89% 6.0 mph SW9.7 kmh SW 16.0 mph25.7 kmh 29.89 in1012.2 mb 0.00 in0.0 mm 0.00 in/hr0.0 mm/hr 0.04 in1.0 mm
08:30 AM 63.9°F17.7°C 61.0°F16.1°C 90% 6.0 mph SW9.7 kmh SW 16.0 mph25.7 kmh 29.88 in1011.9 mb 0.00 in0.0 mm 0.00 in/hr0.0 mm/hr 0.04 in1.0 mm
08:29 AM 63.7°F17.6°C 60.8°F16.0°C 90% 6.0 mph SW9.7 kmh SW 13.0 mph20.9 kmh 29.89 in1012.2 mb 0.00 in0.0 mm 0.00 in/hr0.0 mm/hr 0.04 in1.0 mm
08:28 AM 63.5°F17.5°C 60.4°F15.8°C 90% 5.0 mph SW8.0 kmh SW 13.0 mph20.9 kmh 29.89 in1012.2 mb 0.00 in0.0 mm 0.00 in/hr0.0 mm/hr 0.04 in1.0 mm
08:27 AM 63.1°F17.3°C 59.9°F15.5°C 89% 5.0 mph SW8.0 kmh SW 11.0 mph17.7 kmh 29.88 in1011.9 mb 0.00 in0.0 mm 0.00 in/hr0.0 mm/hr 0.04 in1.0 mm
08:26 AM 63.1°F17.3°C 59.7°F15.4°C 89% 5.0 mph SW8.0 kmh SW 11.0 mph17.7 kmh 29.88 in1011.9 mb 0.00 in0.0 mm 0.00 in/hr0.0 mm/hr 0.04 in1.0 mm
08:25 AM 63.0°F17.2°C 59.5°F15.3°C 89% 5.0 mph SW8.0 kmh SW 11.0 mph17.7 kmh 29.88 in1011.9 mb 0.00 in0.0 mm 0.00 in/hr0.0 mm/hr 0.04 in1.0 mm
08:24 AM 62.8°F17.1°C 59.4°F15.2°C 89% 5.0 mph SW8.0 kmh SW 11.0 mph17.7 kmh 29.88 in1011.9 mb 0.00 in0.0 mm 0.00 in/hr0.0 mm/hr 0.04 in1.0 mm
08:23 AM 62.4°F16.9°C 58.8°F14.9°C 88% 4.0 mph SW6.4 kmh SW 11.0 mph17.7 kmh 29.88 in1011.9 mb 0.00 in0.0 mm 0.00 in/hr0.0 mm/hr 0.04 in1.0 mm
08:22 AM 62.2°F16.8°C 58.6°F14.8°C 88% 4.0 mph SW6.4 kmh SW 10.0 mph16.1 kmh 29.88 in1011.9 mb 0.00 in0.0 mm 0.00 in/hr0.0 mm/hr 0.04 in1.0 mm
08:21 AM 62.2°F16.8°C 58.6°F14.8°C 88% 4.0 mph SW6.4 kmh SW 10.0 mph16.1 kmh 29.88 in1011.9 mb 0.00 in0.0 mm 0.00 in/hr0.0 mm/hr 0.04 in1.0 mm
08:20 AM 62.1°F16.7°C 58.5°F14.7°C 88% 4.0 mph SW6.4 kmh SW 10.0 mph16.1 kmh 29.88 in1011.9 mb 0.00 in0.0 mm 0.00 in/hr0.0 mm/hr 0.04 in1.0 mm
08:19 AM 62.1°F16.7°C 58.5°F14.7°C 88% 4.0 mph SW6.4 kmh SW 10.0 mph16.1 kmh 29.88 in1011.9 mb 0.00 in0.0 mm 0.00 in/hr0.0 mm/hr 0.04 in1.0 mm
08:18 AM 62.1°F16.7°C 58.5°F14.7°C 88% 4.0 mph SW6.4 kmh SW 10.0 mph16.1 kmh 29.88 in1011.9 mb 0.00 in0.0 mm 0.00 in/hr0.0 mm/hr 0.04 in1.0 mm
08:17 AM 61.9°F16.6°C 58.3°F14.6°C 88% 5.0 mph SW8.0 kmh SW 11.0 mph17.7 kmh 29.88 in1011.9 mb 0.00 in0.0 mm 0.00 in/hr0.0 mm/hr 0.04 in1.0 mm
08:16 AM 61.9°F16.6°C 58.3°F14.6°C 88% 5.0 mph SW8.0 kmh SW 11.0 mph17.7 kmh 29.88 in1011.9 mb 0.00 in0.0 mm 0.00 in/hr0.0 mm/hr 0.04 in1.0 mm
08:15 AM 61.9°F16.6°C 58.3°F14.6°C 88% 5.0 mph SW8.0 kmh SW 11.0 mph17.7 kmh 29.88 in1011.9 mb 0.00 in0.0 mm 0.00 in/hr0.0 mm/hr 0.04 in1.0 mm
08:14 AM 61.7°F16.5°C 58.1°F14.5°C 88% 5.0 mph SW8.0 kmh SW 14.0 mph22.5 kmh 29.88 in1011.9 mb 0.00 in0.0 mm 0.00 in/hr0.0 mm/hr 0.04 in1.0 mm
08:13 AM 61.7°F16.5°C 58.1°F14.5°C 88% 6.0 mph SW9.7 kmh SW 14.0 mph22.5 kmh 29.88 in1011.9 mb 0.00 in0.0 mm 0.00 in/hr0.0 mm/hr 0.04 in1.0 mm
08:12 AM 61.7°F16.5°C 58.1°F14.5°C 88% 6.0 mph SW9.7 kmh SW 14.0 mph22.5 kmh 29.88 in1011.9 mb 0.00 in0.0 mm 0.00 in/hr0.0 mm/hr 0.04 in1.0 mm
08:11 AM 61.7°F16.5°C 58.5°F14.7°C 89% 6.0 mph SW9.7 kmh SW 14.0 mph22.5 kmh 29.88 in1011.9 mb 0.00 in0.0 mm 0.00 in/hr0.0 mm/hr 0.04 in1.0 mm
08:10 AM 61.9°F16.6°C 58.5°F14.7°C 89% 6.0 mph SW9.7 kmh SW 14.0 mph22.5 kmh 29.88 in1011.9 mb 0.00 in0.0 mm 0.00 in/hr0.0 mm/hr 0.04 in1.0 mm
08:09 AM 61.9°F16.6°C 58.5°F14.7°C 89% 6.0 mph SW9.7 kmh SW 14.0 mph22.5 kmh 29.88 in1011.9 mb 0.00 in0.0 mm 0.00 in/hr0.0 mm/hr 0.04 in1.0 mm
08:08 AM 61.9°F16.6°C 58.6°F14.8°C 89% 6.0 mph SW9.7 kmh SW 14.0 mph22.5 kmh 29.88 in1011.9 mb 0.00 in0.0 mm 0.00 in/hr0.0 mm/hr 0.04 in1.0 mm
08:07 AM 61.9°F16.6°C 58.6°F14.8°C 89% 6.0 mph SW9.7 kmh SW 14.0 mph22.5 kmh 29.88 in1011.9 mb 0.00 in0.0 mm 0.00 in/hr0.0 mm/hr 0.04 in1.0 mm
08:06 AM 62.1°F16.7°C 59.0°F15.0°C 90% 6.0 mph SW9.7 kmh SW 14.0 mph22.5 kmh 29.88 in1011.9 mb 0.00 in0.0 mm 0.00 in/hr0.0 mm/hr 0.04 in1.0 mm
08:05 AM 62.1°F16.7°C 59.2°F15.1°C 90% 6.0 mph SW9.7 kmh SW 14.0 mph22.5 kmh 29.88 in1011.9 mb 0.00 in0.0 mm 0.00 in/hr0.0 mm/hr 0.04 in1.0 mm
08:04 AM 62.2°F16.8°C 59.5°F15.3°C 91% 6.0 mph SW9.7 kmh SW 14.0 mph22.5 kmh 29.88 in1011.9 mb 0.00 in0.0 mm 0.00 in/hr0.0 mm/hr 0.04 in1.0 mm
08:03 AM 62.2°F16.8°C 59.7°F15.4°C 91% 5.0 mph WSW8.0 kmh WSW 14.0 mph22.5 kmh 29.88 in1011.9 mb 0.00 in0.0 mm 0.00 in/hr0.0 mm/hr 0.04 in1.0 mm
08:02 AM 62.2°F16.8°C 59.7°F15.4°C 91% 5.0 mph SW8.0 kmh SW 14.0 mph22.5 kmh 29.88 in1011.9 mb 0.00 in0.0 mm 0.00 in/hr0.0 mm/hr 0.04 in1.0 mm
08:01 AM 62.4°F16.9°C 59.7°F15.4°C 91% 5.0 mph SW8.0 kmh SW 14.0 mph22.5 kmh 29.88 in1011.9 mb 0.00 in0.0 mm 0.00 in/hr0.0 mm/hr 0.04 in1.0 mm
08:00 AM 62.4°F16.9°C 59.9°F15.5°C 91% 5.0 mph SW8.0 kmh SW 14.0 mph22.5 kmh 29.88 in1011.9 mb 0.00 in0.0 mm 0.00 in/hr0.0 mm/hr 0.04 in1.0 mm
07:59 AM 62.4°F16.9°C 59.9°F15.5°C 91% 5.0 mph SW8.0 kmh SW 14.0 mph22.5 kmh 29.88 in1011.9 mb 0.00 in0.0 mm 0.00 in/hr0.0 mm/hr 0.04 in1.0 mm
07:58 AM 62.6°F17.0°C 59.9°F15.5°C 91% 5.0 mph SW8.0 kmh SW 14.0 mph22.5 kmh 29.88 in1011.9 mb 0.00 in0.0 mm 0.00 in/hr0.0 mm/hr 0.04 in1.0 mm
07:57 AM 62.8°F17.1°C 60.1°F15.6°C 91% 5.0 mph SW8.0 kmh SW 14.0 mph22.5 kmh 29.88 in1011.9 mb 0.00 in0.0 mm 0.00 in/hr0.0 mm/hr 0.04 in1.0 mm
07:56 AM 62.8°F17.1°C 60.1°F15.6°C 91% 5.0 mph SW8.0 kmh SW 14.0 mph22.5 kmh 29.88 in1011.9 mb 0.00 in0.0 mm 0.00 in/hr0.0 mm/hr 0.04 in1.0 mm
07:55 AM 62.8°F17.1°C 60.4°F15.8°C 92% 5.0 mph SW8.0 kmh SW 14.0 mph22.5 kmh 29.88 in1011.9 mb 0.00 in0.0 mm 0.00 in/hr0.0 mm/hr 0.04 in1.0 mm
07:54 AM 63.0°F17.2°C 60.6°F15.9°C 92% 5.0 mph SW8.0 kmh SW 13.0 mph20.9 kmh 29.88 in1011.9 mb 0.00 in0.0 mm 0.00 in/hr0.0 mm/hr 0.04 in1.0 mm
07:53 AM 63.0°F17.2°C 60.6°F15.9°C 92% 5.0 mph SW8.0 kmh SW 13.0 mph20.9 kmh 29.88 in1011.9 mb 0.00 in0.0 mm 0.00 in/hr0.0 mm/hr 0.04 in1.0 mm
07:52 AM 63.0°F17.2°C 60.6°F15.9°C 92% 5.0 mph SW8.0 kmh SW 13.0 mph20.9 kmh 29.88 in1011.9 mb 0.00 in0.0 mm 0.00 in/hr0.0 mm/hr 0.04 in1.0 mm
07:51 AM 63.0°F17.2°C 60.6°F15.9°C 92% 5.0 mph SW8.0 kmh SW 13.0 mph20.9 kmh 29.88 in1011.9 mb 0.00 in0.0 mm 0.00 in/hr0.0 mm/hr 0.04 in1.0 mm
07:50 AM 63.0°F17.2°C 60.6°F15.9°C 92% 5.0 mph SW8.0 kmh SW 13.0 mph20.9 kmh 29.88 in1011.9 mb 0.00 in0.0 mm 0.00 in/hr0.0 mm/hr 0.04 in1.0 mm
07:49 AM 63.1°F17.3°C 60.8°F16.0°C 92% 5.0 mph SW8.0 kmh SW 13.0 mph20.9 kmh 29.88 in1011.9 mb 0.00 in0.0 mm 0.00 in/hr0.0 mm/hr 0.04 in1.0 mm
07:48 AM 63.1°F17.3°C 60.8°F16.0°C 92% 6.0 mph SW9.7 kmh SW 14.0 mph22.5 kmh 29.88 in1011.9 mb 0.00 in0.0 mm 0.00 in/hr0.0 mm/hr 0.04 in1.0 mm
07:47 AM 63.1°F17.3°C 60.8°F16.0°C 92% 5.0 mph SW8.0 kmh SW 14.0 mph22.5 kmh 29.88 in1011.9 mb 0.00 in0.0 mm 0.00 in/hr0.0 mm/hr 0.04 in1.0 mm
07:46 AM 63.1°F17.3°C 60.8°F16.0°C 92% 5.0 mph SW8.0 kmh SW 14.0 mph22.5 kmh 29.88 in1011.9 mb 0.00 in0.0 mm 0.00 in/hr0.0 mm/hr 0.04 in1.0 mm
07:45 AM 63.1°F17.3°C 60.8°F16.0°C 92% 5.0 mph SW8.0 kmh SW 14.0 mph22.5 kmh 29.88 in1011.9 mb 0.00 in0.0 mm 0.00 in/hr0.0 mm/hr 0.04 in1.0 mm
07:44 AM 63.1°F17.3°C 60.8°F16.0°C 92% 6.0 mph SW9.7 kmh SW 14.0 mph22.5 kmh 29.88 in1011.9 mb 0.00 in0.0 mm 0.00 in/hr0.0 mm/hr 0.04 in1.0 mm
07:43 AM 63.1°F17.3°C 60.8°F16.0°C 92% 6.0 mph SW9.7 kmh SW 14.0 mph22.5 kmh 29.88 in1011.9 mb 0.00 in0.0 mm 0.00 in/hr0.0 mm/hr 0.04 in1.0 mm
07:42 AM 63.0°F17.2°C 60.6°F15.9°C 92% 6.0 mph SW9.7 kmh SW 14.0 mph22.5 kmh 29.88 in1011.9 mb 0.00 in0.0 mm 0.00 in/hr0.0 mm/hr 0.04 in1.0 mm
07:41 AM 63.0°F17.2°C 60.6°F15.9°C 92% 6.0 mph SW9.7 kmh SW 14.0 mph22.5 kmh 29.88 in1011.9 mb 0.00 in0.0 mm 0.00 in/hr0.0 mm/hr 0.04 in1.0 mm
07:40 AM 63.0°F17.2°C 60.6°F15.9°C 92% 6.0 mph SW9.7 kmh SW 14.0 mph22.5 kmh 29.88 in1011.9 mb 0.00 in0.0 mm 0.00 in/hr0.0 mm/hr 0.04 in1.0 mm
07:39 AM 63.0°F17.2°C 60.6°F15.9°C 92% 6.0 mph SW9.7 kmh SW 14.0 mph22.5 kmh 29.88 in1011.9 mb 0.00 in0.0 mm 0.00 in/hr0.0 mm/hr 0.04 in1.0 mm
07:38 AM 63.0°F17.2°C 60.6°F15.9°C 92% 6.0 mph SW9.7 kmh SW 13.0 mph20.9 kmh 29.88 in1011.9 mb 0.00 in0.0 mm 0.00 in/hr0.0 mm/hr 0.04 in1.0 mm
07:37 AM 63.0°F17.2°C 60.6°F15.9°C 92% 6.0 mph SW9.7 kmh SW 13.0 mph20.9 kmh 29.88 in1011.9 mb 0.00 in0.0 mm 0.00 in/hr0.0 mm/hr 0.04 in1.0 mm
07:36 AM 63.0°F17.2°C 60.6°F15.9°C 92% 6.0 mph SW9.7 kmh SW 13.0 mph20.9 kmh 29.88 in1011.9 mb 0.00 in0.0 mm 0.00 in/hr0.0 mm/hr 0.04 in1.0 mm
07:35 AM 63.0°F17.2°C 60.6°F15.9°C 92% 6.0 mph SW9.7 kmh SW 13.0 mph20.9 kmh 29.88 in1011.9 mb 0.00 in0.0 mm 0.00 in/hr0.0 mm/hr 0.04 in1.0 mm
07:34 AM 62.8°F17.1°C 60.4°F15.8°C 92% 6.0 mph SW9.7 kmh SW 13.0 mph20.9 kmh 29.88 in1011.9 mb 0.00 in0.0 mm 0.00 in/hr0.0 mm/hr 0.04 in1.0 mm
07:33 AM 62.8°F17.1°C 60.4°F15.8°C 92% 6.0 mph SW9.7 kmh SW 12.0 mph19.3 kmh 29.88 in1011.9 mb 0.00 in0.0 mm 0.00 in/hr0.0 mm/hr 0.04 in1.0 mm
07:32 AM 62.8°F17.1°C 60.4°F15.8°C 92% 6.0 mph SW9.7 kmh SW 12.0 mph19.3 kmh 29.88 in1011.9 mb 0.00 in0.0 mm 0.00 in/hr0.0 mm/hr 0.04 in1.0 mm
07:31 AM 62.8°F17.1°C 60.4°F15.8°C 92% 6.0 mph SW9.7 kmh SW 12.0 mph19.3 kmh 29.88 in1011.9 mb 0.00 in0.0 mm 0.00 in/hr0.0 mm/hr 0.04 in1.0 mm
07:30 AM 62.8°F17.1°C 60.4°F15.8°C 92% 5.0 mph SW8.0 kmh SW 12.0 mph19.3 kmh 29.88 in1011.9 mb 0.00 in0.0 mm 0.00 in/hr0.0 mm/hr 0.04 in1.0 mm
07:29 AM 62.8°F17.1°C 60.4°F15.8°C 92% 5.0 mph SW8.0 kmh SW 11.0 mph17.7 kmh 29.88 in1011.9 mb 0.00 in0.0 mm 0.00 in/hr0.0 mm/hr 0.04 in1.0 mm
07:28 AM 62.8°F17.1°C 60.4°F15.8°C 92% 5.0 mph SW8.0 kmh SW 11.0 mph17.7 kmh 29.88 in1011.9 mb 0.00 in0.0 mm 0.00 in/hr0.0 mm/hr 0.04 in1.0 mm
07:27 AM 62.8°F17.1°C 60.4°F15.8°C 92% 6.0 mph SW9.7 kmh SW 11.0 mph17.7 kmh 29.88 in1011.9 mb 0.00 in0.0 mm 0.00 in/hr0.0 mm/hr 0.04 in1.0 mm
07:26 AM 62.8°F17.1°C 60.4°F15.8°C 92% 6.0 mph SW9.7 kmh SW 13.0 mph20.9 kmh 29.88 in1011.9 mb 0.00 in0.0 mm 0.00 in/hr0.0 mm/hr 0.04 in1.0 mm
07:25 AM 63.0°F17.2°C 60.6°F15.9°C 92% 6.0 mph SW9.7 kmh SW 13.0 mph20.9 kmh 29.88 in1011.9 mb 0.00 in0.0 mm 0.00 in/hr0.0 mm/hr 0.04 in1.0 mm
07:24 AM 63.0°F17.2°C 60.6°F15.9°C 92% 7.0 mph SW11.3 kmh SW 13.0 mph20.9 kmh 29.88 in1011.9 mb 0.00 in0.0 mm 0.00 in/hr0.0 mm/hr 0.04 in1.0 mm
07:23 AM 63.0°F17.2°C 60.6°F15.9°C 92% 7.0 mph SW11.3 kmh SW 19.0 mph30.6 kmh 29.88 in1011.9 mb 0.00 in0.0 mm 0.00 in/hr0.0 mm/hr 0.04 in1.0 mm
07:22 AM 63.0°F17.2°C 60.6°F15.9°C 92% 7.0 mph SW11.3 kmh SW 19.0 mph30.6 kmh 29.88 in1011.9 mb 0.00 in0.0 mm 0.00 in/hr0.0 mm/hr 0.04 in1.0 mm
07:21 AM 63.0°F17.2°C 60.6°F15.9°C 92% 7.0 mph SW11.3 kmh SW 19.0 mph30.6 kmh 29.88 in1011.9 mb 0.00 in0.0 mm 0.00 in/hr0.0 mm/hr 0.04 in1.0 mm
07:20 AM 63.0°F17.2°C 60.6°F15.9°C 92% 7.0 mph SW11.3 kmh SW 19.0 mph30.6 kmh 29.88 in1011.9 mb 0.00 in0.0 mm 0.00 in/hr0.0 mm/hr 0.04 in1.0 mm
07:19 AM 63.0°F17.2°C 60.6°F15.9°C 92% 7.0 mph SW11.3 kmh SW 19.0 mph30.6 kmh 29.88 in1011.9 mb 0.00 in0.0 mm 0.00 in/hr0.0 mm/hr 0.04 in1.0 mm
07:18 AM 63.0°F17.2°C 60.6°F15.9°C 92% 7.0 mph SW11.3 kmh SW 19.0 mph30.6 kmh 29.87 in1011.5 mb 0.00 in0.0 mm 0.00 in/hr0.0 mm/hr 0.04 in1.0 mm
07:17 AM 63.0°F17.2°C 60.6°F15.9°C 92% 7.0 mph SW11.3 kmh SW 19.0 mph30.6 kmh 29.88 in1011.9 mb 0.00 in0.0 mm 0.00 in/hr0.0 mm/hr 0.04 in1.0 mm
07:16 AM 63.1°F17.3°C 60.8°F16.0°C 92% 7.0 mph SW11.3 kmh SW 19.0 mph30.6 kmh 29.88 in1011.9 mb 0.00 in0.0 mm 0.00 in/hr0.0 mm/hr 0.04 in1.0 mm
07:15 AM 63.1°F17.3°C 60.8°F16.0°C 92% 7.0 mph SW11.3 kmh SW 19.0 mph30.6 kmh 29.88 in1011.9 mb 0.00 in0.0 mm 0.00 in/hr0.0 mm/hr 0.04 in1.0 mm
07:14 AM 63.1°F17.3°C 60.8°F16.0°C 92% 7.0 mph SW11.3 kmh SW 19.0 mph30.6 kmh 29.88 in1011.9 mb 0.00 in0.0 mm 0.00 in/hr0.0 mm/hr 0.04 in1.0 mm
07:13 AM 63.1°F17.3°C 60.8°F16.0°C 92% 7.0 mph SW11.3 kmh SW 18.0 mph29.0 kmh 29.87 in1011.5 mb 0.00 in0.0 mm 0.00 in/hr0.0 mm/hr 0.04 in1.0 mm
07:12 AM 63.1°F17.3°C 60.8°F16.0°C 92% 7.0 mph SW11.3 kmh SW 18.0 mph29.0 kmh 29.87 in1011.5 mb 0.00 in0.0 mm 0.00 in/hr0.0 mm/hr 0.04 in1.0 mm
07:11 AM 63.1°F17.3°C 60.8°F16.0°C 92% 7.0 mph SW11.3 kmh SW 17.0 mph27.4 kmh 29.88 in1011.9 mb 0.00 in0.0 mm 0.00 in/hr0.0 mm/hr 0.04 in1.0 mm
07:10 AM 63.1°F17.3°C 60.8°F16.0°C 92% 8.0 mph SW12.9 kmh SW 17.0 mph27.4 kmh 29.87 in1011.5 mb 0.00 in0.0 mm 0.00 in/hr0.0 mm/hr 0.04 in1.0 mm
07:09 AM 63.1°F17.3°C 60.8°F16.0°C 92% 8.0 mph SW12.9 kmh SW 20.0 mph32.2 kmh 29.88 in1011.9 mb 0.00 in0.0 mm 0.00 in/hr0.0 mm/hr 0.04 in1.0 mm
07:08 AM 63.1°F17.3°C 60.8°F16.0°C 92% 8.0 mph SW12.9 kmh SW 20.0 mph32.2 kmh 29.88 in1011.9 mb 0.00 in0.0 mm 0.00 in/hr0.0 mm/hr 0.04 in1.0 mm
07:07 AM 63.1°F17.3°C 60.8°F16.0°C 92% 8.0 mph SW12.9 kmh SW 20.0 mph32.2 kmh 29.88 in1011.9 mb 0.00 in0.0 mm 0.00 in/hr0.0 mm/hr 0.04 in1.0 mm
07:06 AM 63.1°F17.3°C 60.8°F16.0°C 92% 8.0 mph SW12.9 kmh SW 20.0 mph32.2 kmh 29.88 in1011.9 mb 0.00 in0.0 mm 0.00 in/hr0.0 mm/hr 0.04 in1.0 mm
07:05 AM 63.1°F17.3°C 60.8°F16.0°C 92% 8.0 mph SW12.9 kmh SW 20.0 mph32.2 kmh 29.88 in1011.9 mb 0.00 in0.0 mm 0.00 in/hr0.0 mm/hr 0.04 in1.0 mm
07:04 AM 63.1°F17.3°C 60.8°F16.0°C 92% 8.0 mph SW12.9 kmh SW 20.0 mph32.2 kmh 29.88 in1011.9 mb 0.00 in0.0 mm 0.00 in/hr0.0 mm/hr 0.04 in1.0 mm
07:03 AM 63.1°F17.3°C 60.8°F16.0°C 92% 8.0 mph SW12.9 kmh SW 20.0 mph32.2 kmh 29.88 in1011.9 mb 0.00 in0.0 mm 0.00 in/hr0.0 mm/hr 0.04 in1.0 mm
07:02 AM 63.1°F17.3°C 60.8°F16.0°C 92% 7.0 mph SW11.3 kmh SW 20.0 mph32.2 kmh 29.88 in1011.9 mb 0.00 in0.0 mm 0.00 in/hr0.0 mm/hr 0.04 in1.0 mm
07:01 AM 63.1°F17.3°C 60.8°F16.0°C 92% 7.0 mph SW11.3 kmh SW 20.0 mph32.2 kmh 29.87 in1011.5 mb 0.00 in0.0 mm 0.00 in/hr0.0 mm/hr 0.04 in1.0 mm
07:00 AM 63.1°F17.3°C 60.8°F16.0°C 92% 7.0 mph SW11.3 kmh SW 20.0 mph32.2 kmh 29.87 in1011.5 mb 0.00 in0.0 mm 0.00 in/hr0.0 mm/hr 0.04 in1.0 mm
06:59 AM 63.1°F17.3°C 60.8°F16.0°C 92% 7.0 mph SW11.3 kmh SW 17.0 mph27.4 kmh 29.87 in1011.5 mb 0.00 in0.0 mm 0.00 in/hr0.0 mm/hr 0.04 in1.0 mm
06:58 AM 63.1°F17.3°C 60.8°F16.0°C 92% 7.0 mph SW11.3 kmh SW 17.0 mph27.4 kmh 29.87 in1011.5 mb 0.00 in0.0 mm 0.00 in/hr0.0 mm/hr 0.04 in1.0 mm
06:57 AM 63.0°F17.2°C 60.6°F15.9°C 92% 7.0 mph SW11.3 kmh SW 17.0 mph27.4 kmh 29.87 in1011.5 mb 0.00 in0.0 mm 0.00 in/hr0.0 mm/hr 0.04 in1.0 mm
06:56 AM 63.0°F17.2°C 60.6°F15.9°C 92% 6.0 mph SW9.7 kmh SW 17.0 mph27.4 kmh 29.87 in1011.5 mb 0.00 in0.0 mm 0.00 in/hr0.0 mm/hr 0.04 in1.0 mm
06:55 AM 63.0°F17.2°C 60.6°F15.9°C 92% 7.0 mph SW11.3 kmh SW 17.0 mph27.4 kmh 29.87 in1011.5 mb 0.00 in0.0 mm 0.00 in/hr0.0 mm/hr 0.04 in1.0 mm
06:54 AM 63.0°F17.2°C 60.6°F15.9°C 92% 7.0 mph SW11.3 kmh SW 17.0 mph27.4 kmh 29.87 in1011.5 mb 0.00 in0.0 mm 0.00 in/hr0.0 mm/hr 0.04 in1.0 mm
06:53 AM 63.0°F17.2°C 60.6°F15.9°C 92% 7.0 mph SW11.3 kmh SW 17.0 mph27.4 kmh 29.87 in1011.5 mb 0.00 in0.0 mm 0.00 in/hr0.0 mm/hr 0.04 in1.0 mm
06:52 AM 63.0°F17.2°C 60.6°F15.9°C 92% 7.0 mph SW11.3 kmh SW 17.0 mph27.4 kmh 29.87 in1011.5 mb 0.00 in0.0 mm 0.00 in/hr0.0 mm/hr 0.04 in1.0 mm
06:51 AM 63.0°F17.2°C 60.6°F15.9°C 92% 7.0 mph SW11.3 kmh SW 17.0 mph27.4 kmh 29.87 in1011.5 mb 0.00 in0.0 mm 0.00 in/hr0.0 mm/hr 0.04 in1.0 mm
06:50 AM 63.0°F17.2°C 60.6°F15.9°C 92% 7.0 mph SW11.3 kmh SW 17.0 mph27.4 kmh 29.87 in1011.5 mb 0.00 in0.0 mm 0.00 in/hr0.0 mm/hr 0.04 in1.0 mm
06:49 AM 63.0°F17.2°C 60.6°F15.9°C 92% 7.0 mph SW11.3 kmh SW 17.0 mph27.4 kmh 29.87 in1011.5 mb 0.00 in0.0 mm 0.00 in/hr0.0 mm/hr 0.04 in1.0 mm
06:48 AM 63.0°F17.2°C 60.6°F15.9°C 92% 7.0 mph SW11.3 kmh SW 17.0 mph27.4 kmh 29.87 in1011.5 mb 0.00 in0.0 mm 0.00 in/hr0.0 mm/hr 0.04 in1.0 mm
06:47 AM 63.0°F17.2°C 60.6°F15.9°C 92% 7.0 mph SW11.3 kmh SW 17.0 mph27.4 kmh 29.87 in1011.5 mb 0.00 in0.0 mm 0.00 in/hr0.0 mm/hr 0.04 in1.0 mm
06:46 AM 62.8°F17.1°C 60.4°F15.8°C 92% 7.0 mph SW11.3 kmh SW 15.0 mph24.1 kmh 29.87 in1011.5 mb 0.00 in0.0 mm 0.00 in/hr0.0 mm/hr 0.04 in1.0 mm
06:45 AM 63.0°F17.2°C 60.6°F15.9°C 92% 7.0 mph SW11.3 kmh SW 15.0 mph24.1 kmh 29.87 in1011.5 mb 0.00 in0.0 mm 0.00 in/hr0.0 mm/hr 0.04 in1.0 mm
06:44 AM 62.8°F17.1°C 60.4°F15.8°C 92% 7.0 mph SW11.3 kmh SW 15.0 mph24.1 kmh 29.87 in1011.5 mb 0.00 in0.0 mm 0.00 in/hr0.0 mm/hr 0.04 in1.0 mm
06:43 AM 62.8°F17.1°C 60.4°F15.8°C 92% 7.0 mph SW11.3 kmh SW 15.0 mph24.1 kmh 29.87 in1011.5 mb 0.00 in0.0 mm 0.00 in/hr0.0 mm/hr 0.04 in1.0 mm
06:42 AM 62.8°F17.1°C 60.4°F15.8°C 92% 6.0 mph SW9.7 kmh SW 15.0 mph24.1 kmh 29.87 in1011.5 mb 0.00 in0.0 mm 0.00 in/hr0.0 mm/hr 0.04 in1.0 mm
06:41 AM 62.8°F17.1°C 60.4°F15.8°C 92% 6.0 mph SW9.7 kmh SW 15.0 mph24.1 kmh 29.87 in1011.5 mb 0.00 in0.0 mm 0.00 in/hr0.0 mm/hr 0.04 in1.0 mm
06:40 AM 63.0°F17.2°C 60.6°F15.9°C 92% 6.0 mph SW9.7 kmh SW 12.0 mph19.3 kmh 29.87 in1011.5 mb 0.00 in0.0 mm 0.00 in/hr0.0 mm/hr 0.04 in1.0 mm
06:39 AM 63.0°F17.2°C 60.6°F15.9°C 92% 6.0 mph SW9.7 kmh SW 12.0 mph19.3 kmh 29.87 in1011.5 mb 0.00 in0.0 mm 0.00 in/hr0.0 mm/hr 0.04 in1.0 mm
06:38 AM 63.0°F17.2°C 60.6°F15.9°C 92% 6.0 mph SW9.7 kmh SW 12.0 mph19.3 kmh 29.87 in1011.5 mb 0.00 in0.0 mm 0.00 in/hr0.0 mm/hr 0.04 in1.0 mm
06:37 AM 63.0°F17.2°C 60.6°F15.9°C 92% 6.0 mph SW9.7 kmh SW 12.0 mph19.3 kmh 29.87 in1011.5 mb 0.00 in0.0 mm 0.00 in/hr0.0 mm/hr 0.04 in1.0 mm
06:36 AM 63.0°F17.2°C 60.6°F15.9°C 92% 6.0 mph SW9.7 kmh SW 12.0 mph19.3 kmh 29.87 in1011.5 mb 0.00 in0.0 mm 0.00 in/hr0.0 mm/hr 0.04 in1.0 mm
06:35 AM 63.0°F17.2°C 60.6°F15.9°C 92% 5.0 mph SW8.0 kmh SW 12.0 mph19.3 kmh 29.87 in1011.5 mb 0.00 in0.0 mm 0.00 in/hr0.0 mm/hr 0.04 in1.0 mm
06:34 AM 63.0°F17.2°C 60.6°F15.9°C 92% 5.0 mph SW8.0 kmh SW 12.0 mph19.3 kmh 29.87 in1011.5 mb 0.00 in0.0 mm 0.00 in/hr0.0 mm/hr 0.04 in1.0 mm
06:33 AM 63.0°F17.2°C 60.6°F15.9°C 92% 5.0 mph SW8.0 kmh SW 12.0 mph19.3 kmh 29.87 in1011.5 mb 0.00 in0.0 mm 0.00 in/hr0.0 mm/hr 0.04 in1.0 mm
06:32 AM 63.0°F17.2°C 60.6°F15.9°C 92% 5.0 mph SW8.0 kmh SW 11.0 mph17.7 kmh 29.87 in1011.5 mb 0.00 in0.0 mm 0.00 in/hr0.0 mm/hr 0.04 in1.0 mm
06:31 AM 63.0°F17.2°C 60.6°F15.9°C 92% 5.0 mph SW8.0 kmh SW 10.0 mph16.1 kmh 29.87 in1011.5 mb 0.00 in0.0 mm 0.00 in/hr0.0 mm/hr 0.04 in1.0 mm
06:30 AM 63.0°F17.2°C 60.6°F15.9°C 92% 5.0 mph SW8.0 kmh SW 10.0 mph16.1 kmh 29.87 in1011.5 mb 0.00 in0.0 mm 0.00 in/hr0.0 mm/hr 0.04 in1.0 mm
06:29 AM 62.8°F17.1°C 60.4°F15.8°C 92% 5.0 mph SW8.0 kmh SW 10.0 mph16.1 kmh 29.87 in1011.5 mb 0.00 in0.0 mm 0.00 in/hr0.0 mm/hr 0.04 in1.0 mm
06:28 AM 62.8°F17.1°C 60.4°F15.8°C 92% 5.0 mph SW8.0 kmh SW 10.0 mph16.1 kmh 29.87 in1011.5 mb 0.00 in0.0 mm 0.00 in/hr0.0 mm/hr 0.04 in1.0 mm
06:27 AM 62.8°F17.1°C 60.4°F15.8°C 92% 5.0 mph SW8.0 kmh SW 11.0 mph17.7 kmh 29.87 in1011.5 mb 0.00 in0.0 mm 0.00 in/hr0.0 mm/hr 0.04 in1.0 mm
06:26 AM 62.8°F17.1°C 60.4°F15.8°C 92% 6.0 mph SW9.7 kmh SW 11.0 mph17.7 kmh 29.87 in1011.5 mb 0.00 in0.0 mm 0.00 in/hr0.0 mm/hr 0.04 in1.0 mm
06:25 AM 62.8°F17.1°C 60.3°F15.7°C 92% 6.0 mph SW9.7 kmh SW 11.0 mph17.7 kmh 29.87 in1011.5 mb 0.00 in0.0 mm 0.00 in/hr0.0 mm/hr 0.04 in1.0 mm
06:24 AM 62.8°F17.1°C 60.3°F15.7°C 92% 6.0 mph SW9.7 kmh SW 11.0 mph17.7 kmh 29.87 in1011.5 mb 0.00 in0.0 mm 0.00 in/hr0.0 mm/hr 0.04 in1.0 mm
06:23 AM 62.8°F17.1°C 60.3°F15.7°C 92% 6.0 mph SW9.7 kmh SW 11.0 mph17.7 kmh 29.87 in1011.5 mb 0.00 in0.0 mm 0.00 in/hr0.0 mm/hr 0.04 in1.0 mm
06:22 AM 62.8°F17.1°C 60.3°F15.7°C 92% 6.0 mph SW9.7 kmh SW 11.0 mph17.7 kmh 29.87 in1011.5 mb 0.00 in0.0 mm 0.00 in/hr0.0 mm/hr 0.04 in1.0 mm
06:21 AM 62.8°F17.1°C 60.3°F15.7°C 92% 6.0 mph SW9.7 kmh SW 12.0 mph19.3 kmh 29.87 in1011.5 mb 0.00 in0.0 mm 0.00 in/hr0.0 mm/hr 0.04 in1.0 mm
06:20 AM 62.8°F17.1°C 60.3°F15.7°C 92% 6.0 mph SW9.7 kmh SW 12.0 mph19.3 kmh 29.87 in1011.5 mb 0.00 in0.0 mm 0.00 in/hr0.0 mm/hr 0.04 in1.0 mm
06:19 AM 62.6°F17.0°C 60.3°F15.7°C 92% 6.0 mph SW9.7 kmh SW 12.0 mph19.3 kmh 29.87 in1011.5 mb 0.00 in0.0 mm 0.00 in/hr0.0 mm/hr 0.04 in1.0 mm
06:18 AM 62.6°F17.0°C 60.3°F15.7°C 92% 6.0 mph SW9.7 kmh SW 12.0 mph19.3 kmh 29.87 in1011.5 mb 0.00 in0.0 mm 0.00 in/hr0.0 mm/hr 0.04 in1.0 mm
06:17 AM 62.6°F17.0°C 60.3°F15.7°C 92% 6.0 mph SW9.7 kmh SW 12.0 mph19.3 kmh 29.87 in1011.5 mb 0.00 in0.0 mm 0.00 in/hr0.0 mm/hr 0.04 in1.0 mm
06:16 AM 62.6°F17.0°C 60.3°F15.7°C 92% 6.0 mph SW9.7 kmh SW 12.0 mph19.3 kmh 29.87 in1011.5 mb 0.00 in0.0 mm 0.00 in/hr0.0 mm/hr 0.04 in1.0 mm
06:15 AM 62.6°F17.0°C 60.3°F15.7°C 92% 6.0 mph SW9.7 kmh SW 12.0 mph19.3 kmh 29.87 in1011.5 mb 0.00 in0.0 mm 0.00 in/hr0.0 mm/hr 0.04 in1.0 mm
06:14 AM 62.6°F17.0°C 60.3°F15.7°C 92% 6.0 mph SW9.7 kmh SW 12.0 mph19.3 kmh 29.87 in1011.5 mb 0.00 in0.0 mm 0.00 in/hr0.0 mm/hr 0.04 in1.0 mm
06:13 AM 62.6°F17.0°C 60.3°F15.7°C 92% 6.0 mph SW9.7 kmh SW 12.0 mph19.3 kmh 29.87 in1011.5 mb 0.00 in0.0 mm 0.00 in/hr0.0 mm/hr 0.04 in1.0 mm
06:12 AM 62.6°F17.0°C 60.3°F15.7°C 92% 6.0 mph SW9.7 kmh SW 12.0 mph19.3 kmh 29.87 in1011.5 mb 0.00 in0.0 mm 0.00 in/hr0.0 mm/hr 0.04 in1.0 mm
06:11 AM 62.4°F16.9°C 60.1°F15.6°C 92% 6.0 mph SW9.7 kmh SW 12.0 mph19.3 kmh 29.87 in1011.5 mb 0.00 in0.0 mm 0.00 in/hr0.0 mm/hr 0.04 in1.0 mm
06:10 AM 62.4°F16.9°C 60.1°F15.6°C 92% 7.0 mph SW11.3 kmh SW 16.0 mph25.7 kmh 29.87 in1011.5 mb 0.00 in0.0 mm 0.00 in/hr0.0 mm/hr 0.04 in1.0 mm
06:09 AM 62.4°F16.9°C 60.1°F15.6°C 92% 7.0 mph SW11.3 kmh SW 16.0 mph25.7 kmh 29.87 in1011.5 mb 0.00 in0.0 mm 0.00 in/hr0.0 mm/hr 0.04 in1.0 mm
06:08 AM 62.4°F16.9°C 60.1°F15.6°C 92% 7.0 mph SW11.3 kmh SW 16.0 mph25.7 kmh 29.87 in1011.5 mb 0.00 in0.0 mm 0.00 in/hr0.0 mm/hr 0.04 in1.0 mm
06:07 AM 62.4°F16.9°C 60.1°F15.6°C 92% 7.0 mph SW11.3 kmh SW 16.0 mph25.7 kmh 29.87 in1011.5 mb 0.00 in0.0 mm 0.00 in/hr0.0 mm/hr 0.04 in1.0 mm
06:06 AM 62.4°F16.9°C 60.1°F15.6°C 92% 7.0 mph SW11.3 kmh SW 16.0 mph25.7 kmh 29.87 in1011.5 mb 0.00 in0.0 mm 0.00 in/hr0.0 mm/hr 0.04 in1.0 mm
06:05 AM 62.6°F17.0°C 60.3°F15.7°C 92% 7.0 mph SW11.3 kmh SW 16.0 mph25.7 kmh 29.87 in1011.5 mb 0.00 in0.0 mm 0.00 in/hr0.0 mm/hr 0.04 in1.0 mm
06:04 AM 62.6°F17.0°C 60.3°F15.7°C 92% 7.0 mph SW11.3 kmh SW 16.0 mph25.7 kmh 29.87 in1011.5 mb 0.00 in0.0 mm 0.00 in/hr0.0 mm/hr 0.04 in1.0 mm
06:03 AM 62.6°F17.0°C 60.3°F15.7°C 92% 7.0 mph SW11.3 kmh SW 16.0 mph25.7 kmh 29.87 in1011.5 mb 0.00 in0.0 mm 0.00 in/hr0.0 mm/hr 0.04 in1.0 mm
06:02 AM 62.6°F17.0°C 60.3°F15.7°C 92% 7.0 mph SW11.3 kmh SW 16.0 mph25.7 kmh 29.87 in1011.5 mb 0.00 in0.0 mm 0.00 in/hr0.0 mm/hr 0.04 in1.0 mm
06:01 AM 62.6°F17.0°C 60.3°F15.7°C 92% 7.0 mph SW11.3 kmh SW 16.0 mph25.7 kmh 29.87 in1011.5 mb 0.00 in0.0 mm 0.00 in/hr0.0 mm/hr 0.04 in1.0 mm
06:00 AM 62.6°F17.0°C 60.6°F15.9°C 93% 7.0 mph SW11.3 kmh SW 14.0 mph22.5 kmh 29.87 in1011.5 mb 0.00 in0.0 mm 0.00 in/hr0.0 mm/hr 0.04 in1.0 mm
05:59 AM 62.6°F17.0°C 60.6°F15.9°C 93% 7.0 mph SW11.3 kmh SW 14.0 mph22.5 kmh 29.87 in1011.5 mb 0.00 in0.0 mm 0.00 in/hr0.0 mm/hr 0.04 in1.0 mm
05:58 AM 62.6°F17.0°C 60.6°F15.9°C 93% 7.0 mph SW11.3 kmh SW 14.0 mph22.5 kmh 29.87 in1011.5 mb 0.00 in0.0 mm 0.00 in/hr0.0 mm/hr 0.04 in1.0 mm
05:57 AM 62.6°F17.0°C 60.6°F15.9°C 93% 7.0 mph SW11.3 kmh SW 14.0 mph22.5 kmh 29.87 in1011.5 mb 0.00 in0.0 mm 0.00 in/hr0.0 mm/hr 0.04 in1.0 mm
05:56 AM 62.6°F17.0°C 60.6°F15.9°C 93% 7.0 mph SW11.3 kmh SW 14.0 mph22.5 kmh 29.87 in1011.5 mb 0.00 in0.0 mm 0.00 in/hr0.0 mm/hr 0.04 in1.0 mm
05:55 AM 62.6°F17.0°C 60.6°F15.9°C 93% 7.0 mph SW11.3 kmh SW 14.0 mph22.5 kmh 29.87 in1011.5 mb 0.00 in0.0 mm 0.00 in/hr0.0 mm/hr 0.04 in1.0 mm
05:54 AM 62.6°F17.0°C 60.6°F15.9°C 93% 7.0 mph SW11.3 kmh SW 14.0 mph22.5 kmh 29.87 in1011.5 mb 0.00 in0.0 mm 0.00 in/hr0.0 mm/hr 0.04 in1.0 mm
05:53 AM 62.6°F17.0°C 60.6°F15.9°C 93% 7.0 mph SW11.3 kmh SW 14.0 mph22.5 kmh 29.87 in1011.5 mb 0.00 in0.0 mm 0.00 in/hr0.0 mm/hr 0.04 in1.0 mm
05:52 AM 62.6°F17.0°C 60.6°F15.9°C 93% 7.0 mph SW11.3 kmh SW 14.0 mph22.5 kmh 29.87 in1011.5 mb 0.00 in0.0 mm 0.00 in/hr0.0 mm/hr 0.04 in1.0 mm
05:51 AM 62.6°F17.0°C 60.6°F15.9°C 93% 7.0 mph SW11.3 kmh SW 13.0 mph20.9 kmh 29.87 in1011.5 mb 0.00 in0.0 mm 0.00 in/hr0.0 mm/hr 0.04 in1.0 mm
05:50 AM 62.6°F17.0°C 60.6°F15.9°C 93% 7.0 mph SW11.3 kmh SW 13.0 mph20.9 kmh 29.87 in1011.5 mb 0.00 in0.0 mm 0.00 in/hr0.0 mm/hr 0.04 in1.0 mm
05:49 AM 62.6°F17.0°C 60.6°F15.9°C 93% 6.0 mph SW9.7 kmh SW 13.0 mph20.9 kmh 29.87 in1011.5 mb 0.00 in0.0 mm 0.00 in/hr0.0 mm/hr 0.04 in1.0 mm
05:48 AM 62.6°F17.0°C 60.6°F15.9°C 93% 6.0 mph SW9.7 kmh SW 13.0 mph20.9 kmh 29.87 in1011.5 mb 0.00 in0.0 mm 0.00 in/hr0.0 mm/hr 0.04 in1.0 mm
05:47 AM 62.6°F17.0°C 60.6°F15.9°C 93% 6.0 mph SW9.7 kmh SW 13.0 mph20.9 kmh 29.87 in1011.5 mb 0.00 in0.0 mm 0.00 in/hr0.0 mm/hr 0.04 in1.0 mm
05:46 AM 62.6°F17.0°C 60.6°F15.9°C 93% 7.0 mph SW11.3 kmh SW 13.0 mph20.9 kmh 29.87 in1011.5 mb 0.00 in0.0 mm 0.00 in/hr0.0 mm/hr 0.04 in1.0 mm
05:45 AM 62.6°F17.0°C 60.6°F15.9°C 93% 7.0 mph SW11.3 kmh SW 13.0 mph20.9 kmh 29.87 in1011.5 mb 0.00 in0.0 mm 0.00 in/hr0.0 mm/hr 0.04 in1.0 mm
05:44 AM 62.6°F17.0°C 60.6°F15.9°C 93% 7.0 mph SW11.3 kmh SW 13.0 mph20.9 kmh 29.87 in1011.5 mb 0.00 in0.0 mm 0.00 in/hr0.0 mm/hr 0.04 in1.0 mm
05:43 AM 62.6°F17.0°C 60.6°F15.9°C 93% 7.0 mph SW11.3 kmh SW 13.0 mph20.9 kmh 29.87 in1011.5 mb 0.00 in0.0 mm 0.00 in/hr0.0 mm/hr 0.04 in1.0 mm
05:42 AM 62.6°F17.0°C 60.6°F15.9°C 93% 7.0 mph SW11.3 kmh SW 13.0 mph20.9 kmh 29.87 in1011.5 mb 0.00 in0.0 mm 0.00 in/hr0.0 mm/hr 0.04 in1.0 mm
05:41 AM 62.6°F17.0°C 60.6°F15.9°C 93% 7.0 mph SW11.3 kmh SW 13.0 mph20.9 kmh 29.87 in1011.5 mb 0.00 in0.0 mm 0.00 in/hr0.0 mm/hr 0.04 in1.0 mm
05:40 AM 62.6°F17.0°C 60.6°F15.9°C 93% 7.0 mph SW11.3 kmh SW 13.0 mph20.9 kmh 29.87 in1011.5 mb 0.00 in0.0 mm 0.00 in/hr0.0 mm/hr 0.04 in1.0 mm
05:39 AM 62.6°F17.0°C 60.6°F15.9°C 93% 7.0 mph SW11.3 kmh SW 13.0 mph20.9 kmh 29.87 in1011.5 mb 0.00 in0.0 mm 0.00 in/hr0.0 mm/hr 0.04 in1.0 mm
05:38 AM 62.6°F17.0°C 60.6°F15.9°C 93% 7.0 mph SW11.3 kmh SW 13.0 mph20.9 kmh 29.87 in1011.5 mb 0.00 in0.0 mm 0.00 in/hr0.0 mm/hr 0.04 in1.0 mm
05:37 AM 62.6°F17.0°C 60.6°F15.9°C 93% 7.0 mph SW11.3 kmh SW 14.0 mph22.5 kmh 29.87 in1011.5 mb 0.00 in0.0 mm 0.00 in/hr0.0 mm/hr 0.04 in1.0 mm
05:36 AM 62.4°F16.9°C 60.4°F15.8°C 93% 7.0 mph SW11.3 kmh SW 14.0 mph22.5 kmh 29.87 in1011.5 mb 0.00 in0.0 mm 0.00 in/hr0.0 mm/hr 0.04 in1.0 mm
05:35 AM 62.6°F17.0°C 60.6°F15.9°C 93% 7.0 mph SW11.3 kmh SW 19.0 mph30.6 kmh 29.87 in1011.5 mb 0.00 in0.0 mm 0.00 in/hr0.0 mm/hr 0.04 in1.0 mm
05:34 AM 62.6°F17.0°C 60.6°F15.9°C 93% 7.0 mph SW11.3 kmh SW 19.0 mph30.6 kmh 29.87 in1011.5 mb 0.00 in0.0 mm 0.00 in/hr0.0 mm/hr 0.04 in1.0 mm
05:33 AM 62.4°F16.9°C 60.4°F15.8°C 93% 7.0 mph SW11.3 kmh SW 19.0 mph30.6 kmh 29.87 in1011.5 mb 0.00 in0.0 mm 0.00 in/hr0.0 mm/hr 0.04 in1.0 mm
05:32 AM 62.4°F16.9°C 60.4°F15.8°C 93% 7.0 mph SW11.3 kmh SW 19.0 mph30.6 kmh 29.87 in1011.5 mb 0.00 in0.0 mm 0.00 in/hr0.0 mm/hr 0.04 in1.0 mm
05:31 AM 62.4°F16.9°C 60.4°F15.8°C 93% 7.0 mph SW11.3 kmh SW 19.0 mph30.6 kmh 29.87 in1011.5 mb 0.00 in0.0 mm 0.00 in/hr0.0 mm/hr 0.04 in1.0 mm
05:30 AM 62.4°F16.9°C 60.4°F15.8°C 93% 7.0 mph SW11.3 kmh SW 19.0 mph30.6 kmh 29.87 in1011.5 mb 0.00 in0.0 mm 0.00 in/hr0.0 mm/hr 0.04 in1.0 mm
05:29 AM 62.4°F16.9°C 60.4°F15.8°C 93% 7.0 mph SW11.3 kmh SW 19.0 mph30.6 kmh 29.87 in1011.5 mb 0.00 in0.0 mm 0.00 in/hr0.0 mm/hr 0.04 in1.0 mm
05:28 AM 62.4°F16.9°C 60.4°F15.8°C 93% 7.0 mph SW11.3 kmh SW 19.0 mph30.6 kmh 29.87 in1011.5 mb 0.00 in0.0 mm 0.00 in/hr0.0 mm/hr 0.04 in1.0 mm
05:27 AM 62.4°F16.9°C 60.4°F15.8°C 93% 7.0 mph SW11.3 kmh SW 19.0 mph30.6 kmh 29.86 in1011.2 mb 0.00 in0.0 mm 0.00 in/hr0.0 mm/hr 0.04 in1.0 mm
05:26 AM 62.4°F16.9°C 60.4°F15.8°C 93% 7.0 mph SW11.3 kmh SW 19.0 mph30.6 kmh 29.87 in1011.5 mb 0.00 in0.0 mm 0.00 in/hr0.0 mm/hr 0.04 in1.0 mm
05:25 AM 62.4°F16.9°C 60.4°F15.8°C 93% 7.0 mph SW11.3 kmh SW 19.0 mph30.6 kmh 29.87 in1011.5 mb 0.00 in0.0 mm 0.00 in/hr0.0 mm/hr 0.04 in1.0 mm
05:24 AM 62.4°F16.9°C 60.4°F15.8°C 93% 7.0 mph SW11.3 kmh SW 15.0 mph24.1 kmh 29.87 in1011.5 mb 0.00 in0.0 mm 0.00 in/hr0.0 mm/hr 0.04 in1.0 mm
05:23 AM 62.4°F16.9°C 60.4°F15.8°C 93% 7.0 mph SW11.3 kmh SW 15.0 mph24.1 kmh 29.87 in1011.5 mb 0.00 in0.0 mm 0.00 in/hr0.0 mm/hr 0.04 in1.0 mm
05:22 AM 62.4°F16.9°C 60.4°F15.8°C 93% 7.0 mph SW11.3 kmh SW 17.0 mph27.4 kmh 29.87 in1011.5 mb 0.00 in0.0 mm 0.00 in/hr0.0 mm/hr 0.04 in1.0 mm
05:21 AM 62.4°F16.9°C 60.4°F15.8°C 93% 8.0 mph SW12.9 kmh SW 17.0 mph27.4 kmh 29.87 in1011.5 mb 0.00 in0.0 mm 0.00 in/hr0.0 mm/hr 0.04 in1.0 mm
05:20 AM 62.4°F16.9°C 60.4°F15.8°C 93% 8.0 mph SW12.9 kmh SW 17.0 mph27.4 kmh 29.87 in1011.5 mb 0.00 in0.0 mm 0.00 in/hr0.0 mm/hr 0.04 in1.0 mm
05:19 AM 62.4°F16.9°C 60.3°F15.7°C 93% 8.0 mph SW12.9 kmh SW 17.0 mph27.4 kmh 29.87 in1011.5 mb 0.00 in0.0 mm 0.00 in/hr0.0 mm/hr 0.04 in1.0 mm
05:18 AM 62.4°F16.9°C 60.4°F15.8°C 93% 8.0 mph SW12.9 kmh SW 19.0 mph30.6 kmh 29.87 in1011.5 mb 0.00 in0.0 mm 0.00 in/hr0.0 mm/hr 0.04 in1.0 mm
05:17 AM 62.4°F16.9°C 60.3°F15.7°C 93% 8.0 mph SW12.9 kmh SW 19.0 mph30.6 kmh 29.87 in1011.5 mb 0.00 in0.0 mm 0.00 in/hr0.0 mm/hr 0.04 in1.0 mm
05:16 AM 62.4°F16.9°C 60.3°F15.7°C 93% 8.0 mph SW12.9 kmh SW 19.0 mph30.6 kmh 29.87 in1011.5 mb 0.00 in0.0 mm 0.00 in/hr0.0 mm/hr 0.04 in1.0 mm
05:15 AM 62.4°F16.9°C 60.3°F15.7°C 93% 7.0 mph SW11.3 kmh SW 19.0 mph30.6 kmh 29.87 in1011.5 mb 0.00 in0.0 mm 0.00 in/hr0.0 mm/hr 0.04 in1.0 mm
05:14 AM 62.4°F16.9°C 60.3°F15.7°C 93% 8.0 mph SW12.9 kmh SW 19.0 mph30.6 kmh 29.87 in1011.5 mb 0.00 in0.0 mm 0.00 in/hr0.0 mm/hr 0.04 in1.0 mm
05:13 AM 62.4°F16.9°C 60.3°F15.7°C 93% 7.0 mph SW11.3 kmh SW 19.0 mph30.6 kmh 29.87 in1011.5 mb 0.00 in0.0 mm 0.00 in/hr0.0 mm/hr 0.04 in1.0 mm
05:12 AM 62.2°F16.8°C 60.3°F15.7°C 93% 8.0 mph SW12.9 kmh SW 19.0 mph30.6 kmh 29.87 in1011.5 mb 0.00 in0.0 mm 0.00 in/hr0.0 mm/hr 0.04 in1.0 mm
05:11 AM 62.4°F16.9°C 60.3°F15.7°C 93% 8.0 mph SW12.9 kmh SW 19.0 mph30.6 kmh 29.87 in1011.5 mb 0.01 in0.3 mm 0.00 in/hr0.0 mm/hr 0.04 in1.0 mm
05:10 AM 62.2°F16.8°C 60.3°F15.7°C 93% 7.0 mph SW11.3 kmh SW 19.0 mph30.6 kmh 29.87 in1011.5 mb 0.02 in0.5 mm 0.00 in/hr0.0 mm/hr 0.04 in1.0 mm
05:09 AM 62.2°F16.8°C 60.3°F15.7°C 93% 7.0 mph SW11.3 kmh SW 19.0 mph30.6 kmh 29.87 in1011.5 mb 0.02 in0.5 mm 0.00 in/hr0.0 mm/hr 0.04 in1.0 mm
05:08 AM 62.2°F16.8°C 60.3°F15.7°C 93% 8.0 mph SW12.9 kmh SW 19.0 mph30.6 kmh 29.87 in1011.5 mb 0.02 in0.5 mm 0.00 in/hr0.0 mm/hr 0.04 in1.0 mm
05:07 AM 62.2°F16.8°C 60.3°F15.7°C 93% 7.0 mph SW11.3 kmh SW 19.0 mph30.6 kmh 29.87 in1011.5 mb 0.02 in0.5 mm 0.00 in/hr0.0 mm/hr 0.04 in1.0 mm
05:06 AM 62.2°F16.8°C 60.3°F15.7°C 93% 7.0 mph SW11.3 kmh SW 19.0 mph30.6 kmh 29.87 in1011.5 mb 0.02 in0.5 mm 0.00 in/hr0.0 mm/hr 0.04 in1.0 mm
05:05 AM 62.2°F16.8°C 60.3°F15.7°C 93% 7.0 mph SW11.3 kmh SW 19.0 mph30.6 kmh 29.87 in1011.5 mb 0.02 in0.5 mm 0.00 in/hr0.0 mm/hr 0.04 in1.0 mm
05:04 AM 62.2°F16.8°C 60.6°F15.9°C 94% 7.0 mph SW11.3 kmh SW 19.0 mph30.6 kmh 29.87 in1011.5 mb 0.02 in0.5 mm 0.00 in/hr0.0 mm/hr 0.04 in1.0 mm
05:03 AM 62.2°F16.8°C 60.6°F15.9°C 94% 7.0 mph SW11.3 kmh SW 19.0 mph30.6 kmh 29.87 in1011.5 mb 0.02 in0.5 mm 0.00 in/hr0.0 mm/hr 0.04 in1.0 mm
05:02 AM 62.2°F16.8°C 60.6°F15.9°C 94% 7.0 mph SW11.3 kmh SW 19.0 mph30.6 kmh 29.87 in1011.5 mb 0.02 in0.5 mm 0.00 in/hr0.0 mm/hr 0.04 in1.0 mm
05:01 AM 62.2°F16.8°C 60.6°F15.9°C 94% 7.0 mph SW11.3 kmh SW 18.0 mph29.0 kmh 29.87 in1011.5 mb 0.02 in0.5 mm 0.00 in/hr0.0 mm/hr 0.04 in1.0 mm
05:00 AM 62.2°F16.8°C 60.6°F15.9°C 94% 7.0 mph SW11.3 kmh SW 18.0 mph29.0 kmh 29.87 in1011.5 mb 0.02 in0.5 mm 0.00 in/hr0.0 mm/hr 0.04 in1.0 mm
04:59 AM 62.2°F16.8°C 60.6°F15.9°C 94% 7.0 mph SW11.3 kmh SW 18.0 mph29.0 kmh 29.87 in1011.5 mb 0.02 in0.5 mm 0.00 in/hr0.0 mm/hr 0.04 in1.0 mm
04:58 AM 62.2°F16.8°C 60.6°F15.9°C 94% 7.0 mph SW11.3 kmh SW 18.0 mph29.0 kmh 29.87 in1011.5 mb 0.02 in0.5 mm 0.00 in/hr0.0 mm/hr 0.04 in1.0 mm
04:57 AM 62.2°F16.8°C 60.6°F15.9°C 94% 7.0 mph SW11.3 kmh SW 13.0 mph20.9 kmh 29.87 in1011.5 mb 0.02 in0.5 mm 0.00 in/hr0.0 mm/hr 0.04 in1.0 mm
04:56 AM 62.2°F16.8°C 60.4°F15.8°C 94% 7.0 mph SW11.3 kmh SW 14.0 mph22.5 kmh 29.87 in1011.5 mb 0.03 in0.8 mm 0.00 in/hr0.0 mm/hr 0.04 in1.0 mm
04:55 AM 62.2°F16.8°C 60.4°F15.8°C 94% 7.0 mph SW11.3 kmh SW 14.0 mph22.5 kmh 29.87 in1011.5 mb 0.03 in0.8 mm 0.00 in/hr0.0 mm/hr 0.04 in1.0 mm
04:54 AM 62.2°F16.8°C 60.4°F15.8°C 94% 7.0 mph SW11.3 kmh SW 14.0 mph22.5 kmh 29.87 in1011.5 mb 0.03 in0.8 mm 0.00 in/hr0.0 mm/hr 0.04 in1.0 mm
04:53 AM 62.2°F16.8°C 60.4°F15.8°C 94% 7.0 mph SW11.3 kmh SW 15.0 mph24.1 kmh 29.86 in1011.2 mb 0.03 in0.8 mm 0.00 in/hr0.0 mm/hr 0.04 in1.0 mm
04:52 AM 62.2°F16.8°C 60.4°F15.8°C 94% 7.0 mph SW11.3 kmh SW 15.0 mph24.1 kmh 29.87 in1011.5 mb 0.03 in0.8 mm 0.00 in/hr0.0 mm/hr 0.04 in1.0 mm
04:51 AM 62.2°F16.8°C 60.4°F15.8°C 94% 7.0 mph SW11.3 kmh SW 15.0 mph24.1 kmh 29.86 in1011.2 mb 0.03 in0.8 mm 0.00 in/hr0.0 mm/hr 0.04 in1.0 mm
04:50 AM 62.2°F16.8°C 60.4°F15.8°C 94% 7.0 mph SW11.3 kmh SW 15.0 mph24.1 kmh 29.87 in1011.5 mb 0.03 in0.8 mm 0.00 in/hr0.0 mm/hr 0.04 in1.0 mm
04:49 AM 62.2°F16.8°C 60.4°F15.8°C 94% 7.0 mph SW11.3 kmh SW 15.0 mph24.1 kmh 29.86 in1011.2 mb 0.03 in0.8 mm 0.00 in/hr0.0 mm/hr 0.04 in1.0 mm
04:48 AM 62.2°F16.8°C 60.4°F15.8°C 94% 7.0 mph SW11.3 kmh SW 15.0 mph24.1 kmh 29.86 in1011.2 mb 0.04 in1.0 mm 0.00 in/hr0.0 mm/hr 0.04 in1.0 mm
04:47 AM 62.2°F16.8°C 60.4°F15.8°C 94% 7.0 mph SW11.3 kmh SW 15.0 mph24.1 kmh 29.86 in1011.2 mb 0.04 in1.0 mm 0.00 in/hr0.0 mm/hr 0.04 in1.0 mm
04:46 AM 62.2°F16.8°C 60.4°F15.8°C 94% 7.0 mph SW11.3 kmh SW 15.0 mph24.1 kmh 29.87 in1011.5 mb 0.04 in1.0 mm 0.00 in/hr0.0 mm/hr 0.04 in1.0 mm
04:45 AM 62.2°F16.8°C 60.4°F15.8°C 94% 7.0 mph SW11.3 kmh SW 15.0 mph24.1 kmh 29.87 in1011.5 mb 0.04 in1.0 mm 0.00 in/hr0.0 mm/hr 0.04 in1.0 mm
04:44 AM 62.2°F16.8°C 60.4°F15.8°C 94% 7.0 mph SW11.3 kmh SW 15.0 mph24.1 kmh 29.87 in1011.5 mb 0.04 in1.0 mm 0.00 in/hr0.0 mm/hr 0.04 in1.0 mm
04:43 AM 62.2°F16.8°C 60.4°F15.8°C 94% 7.0 mph SW11.3 kmh SW 15.0 mph24.1 kmh 29.87 in1011.5 mb 0.04 in1.0 mm 0.00 in/hr0.0 mm/hr 0.04 in1.0 mm
04:42 AM 62.2°F16.8°C 60.4°F15.8°C 94% 7.0 mph SW11.3 kmh SW 15.0 mph24.1 kmh 29.87 in1011.5 mb 0.04 in1.0 mm 0.00 in/hr0.0 mm/hr 0.04 in1.0 mm
04:41 AM 62.2°F16.8°C 60.1°F15.6°C 93% 6.0 mph SW9.7 kmh SW 15.0 mph24.1 kmh 29.87 in1011.5 mb 0.04 in1.0 mm 0.00 in/hr0.0 mm/hr 0.04 in1.0 mm
04:40 AM 62.2°F16.8°C 60.1°F15.6°C 93% 6.0 mph SW9.7 kmh SW 15.0 mph24.1 kmh 29.87 in1011.5 mb 0.04 in1.0 mm 0.00 in/hr0.0 mm/hr 0.04 in1.0 mm
04:39 AM 62.2°F16.8°C 60.1°F15.6°C 93% 6.0 mph SW9.7 kmh SW 15.0 mph24.1 kmh 29.87 in1011.5 mb 0.04 in1.0 mm 0.00 in/hr0.0 mm/hr 0.04 in1.0 mm
04:38 AM 62.2°F16.8°C 60.1°F15.6°C 93% 6.0 mph SW9.7 kmh SW 15.0 mph24.1 kmh 29.87 in1011.5 mb 0.04 in1.0 mm 0.00 in/hr0.0 mm/hr 0.04 in1.0 mm
04:37 AM 62.2°F16.8°C 60.1°F15.6°C 93% 5.0 mph SW8.0 kmh SW 15.0 mph24.1 kmh 29.87 in1011.5 mb 0.04 in1.0 mm 0.00 in/hr0.0 mm/hr 0.04 in1.0 mm
04:36 AM 62.2°F16.8°C 60.1°F15.6°C 93% 5.0 mph SW8.0 kmh SW 13.0 mph20.9 kmh 29.87 in1011.5 mb 0.04 in1.0 mm 0.00 in/hr0.0 mm/hr 0.04 in1.0 mm
04:35 AM 62.2°F16.8°C 60.1°F15.6°C 93% 5.0 mph SW8.0 kmh SW 13.0 mph20.9 kmh 29.87 in1011.5 mb 0.04 in1.0 mm 0.00 in/hr0.0 mm/hr 0.04 in1.0 mm
04:34 AM 62.2°F16.8°C 60.1°F15.6°C 93% 5.0 mph SW8.0 kmh SW 13.0 mph20.9 kmh 29.87 in1011.5 mb 0.04 in1.0 mm 0.00 in/hr0.0 mm/hr 0.04 in1.0 mm
04:33 AM 62.2°F16.8°C 60.1°F15.6°C 93% 5.0 mph SW8.0 kmh SW 11.0 mph17.7 kmh 29.87 in1011.5 mb 0.04 in1.0 mm 0.00 in/hr0.0 mm/hr 0.04 in1.0 mm
04:32 AM 62.2°F16.8°C 60.1°F15.6°C 93% 5.0 mph SW8.0 kmh SW 11.0 mph17.7 kmh 29.87 in1011.5 mb 0.04 in1.0 mm 0.00 in/hr0.0 mm/hr 0.04 in1.0 mm
04:31 AM 62.2°F16.8°C 60.1°F15.6°C 93% 5.0 mph SW8.0 kmh SW 10.0 mph16.1 kmh 29.87 in1011.5 mb 0.04 in1.0 mm 0.00 in/hr0.0 mm/hr 0.04 in1.0 mm
04:30 AM 62.2°F16.8°C 60.1°F15.6°C 93% 5.0 mph SW8.0 kmh SW 10.0 mph16.1 kmh 29.87 in1011.5 mb 0.04 in1.0 mm 0.00 in/hr0.0 mm/hr 0.04 in1.0 mm
04:29 AM 62.2°F16.8°C 60.1°F15.6°C 93% 5.0 mph SW8.0 kmh SW 10.0 mph16.1 kmh 29.87 in1011.5 mb 0.04 in1.0 mm 0.00 in/hr0.0 mm/hr 0.04 in1.0 mm
04:28 AM 62.2°F16.8°C 60.1°F15.6°C 93% 6.0 mph SW9.7 kmh SW 16.0 mph25.7 kmh 29.86 in1011.2 mb 0.04 in1.0 mm 0.00 in/hr0.0 mm/hr 0.04 in1.0 mm
04:27 AM 62.2°F16.8°C 60.1°F15.6°C 93% 6.0 mph SW9.7 kmh SW 16.0 mph25.7 kmh 29.86 in1011.2 mb 0.04 in1.0 mm 0.00 in/hr0.0 mm/hr 0.04 in1.0 mm
04:26 AM 62.2°F16.8°C 60.3°F15.7°C 93% 6.0 mph SW9.7 kmh SW 16.0 mph25.7 kmh 29.86 in1011.2 mb 0.04 in1.0 mm 0.00 in/hr0.0 mm/hr 0.04 in1.0 mm
04:25 AM 62.2°F16.8°C 60.1°F15.6°C 93% 6.0 mph SW9.7 kmh SW 16.0 mph25.7 kmh 29.86 in1011.2 mb 0.04 in1.0 mm 0.00 in/hr0.0 mm/hr 0.04 in1.0 mm
04:24 AM 62.2°F16.8°C 60.1°F15.6°C 93% 7.0 mph SW11.3 kmh SW 16.0 mph25.7 kmh 29.87 in1011.5 mb 0.04 in1.0 mm 0.00 in/hr0.0 mm/hr 0.04 in1.0 mm
04:23 AM 62.2°F16.8°C 60.1°F15.6°C 93% 6.0 mph SW9.7 kmh SW 16.0 mph25.7 kmh 29.87 in1011.5 mb 0.04 in1.0 mm 0.00 in/hr0.0 mm/hr 0.04 in1.0 mm
04:22 AM 62.2°F16.8°C 60.3°F15.7°C 93% 6.0 mph SW9.7 kmh SW 16.0 mph25.7 kmh 29.87 in1011.5 mb 0.04 in1.0 mm 0.00 in/hr0.0 mm/hr 0.04 in1.0 mm
04:21 AM 62.2°F16.8°C 59.9°F15.5°C 92% 7.0 mph SW11.3 kmh SW 16.0 mph25.7 kmh 29.87 in1011.5 mb 0.04 in1.0 mm 0.00 in/hr0.0 mm/hr 0.04 in1.0 mm
04:20 AM 62.2°F16.8°C 60.3°F15.7°C 93% 7.0 mph SW11.3 kmh SW 16.0 mph25.7 kmh 29.86 in1011.2 mb 0.04 in1.0 mm 0.00 in/hr0.0 mm/hr 0.04 in1.0 mm
04:19 AM 62.4°F16.9°C 60.1°F15.6°C 92% 6.0 mph SW9.7 kmh SW 16.0 mph25.7 kmh 29.86 in1011.2 mb 0.04 in1.0 mm 0.00 in/hr0.0 mm/hr 0.04 in1.0 mm
04:18 AM 62.4°F16.9°C 60.1°F15.6°C 92% 6.0 mph SW9.7 kmh SW 13.0 mph20.9 kmh 29.87 in1011.5 mb 0.04 in1.0 mm 0.00 in/hr0.0 mm/hr 0.04 in1.0 mm
04:17 AM 62.4°F16.9°C 60.1°F15.6°C 92% 6.0 mph SW9.7 kmh SW 20.0 mph32.2 kmh 29.87 in1011.5 mb 0.04 in1.0 mm 0.00 in/hr0.0 mm/hr 0.04 in1.0 mm
04:16 AM 62.4°F16.9°C 60.1°F15.6°C 92% 7.0 mph SW11.3 kmh SW 20.0 mph32.2 kmh 29.87 in1011.5 mb 0.04 in1.0 mm 0.00 in/hr0.0 mm/hr 0.04 in1.0 mm
04:15 AM 62.4°F16.9°C 60.1°F15.6°C 92% 7.0 mph SW11.3 kmh SW 20.0 mph32.2 kmh 29.87 in1011.5 mb 0.04 in1.0 mm 0.00 in/hr0.0 mm/hr 0.04 in1.0 mm
04:14 AM 62.6°F17.0°C 60.3°F15.7°C 92% 7.0 mph SW11.3 kmh SW 20.0 mph32.2 kmh 29.87 in1011.5 mb 0.04 in1.0 mm 0.00 in/hr0.0 mm/hr 0.04 in1.0 mm
04:13 AM 62.8°F17.1°C 60.3°F15.7°C 92% 8.0 mph SW12.9 kmh SW 20.0 mph32.2 kmh 29.87 in1011.5 mb 0.04 in1.0 mm 0.00 in/hr0.0 mm/hr 0.04 in1.0 mm
04:12 AM 62.8°F17.1°C 60.3°F15.7°C 92% 8.0 mph SW12.9 kmh SW 20.0 mph32.2 kmh 29.87 in1011.5 mb 0.04 in1.0 mm 0.60 in/hr15.2 mm/hr 0.04 in1.0 mm
04:11 AM 62.8°F17.1°C 60.4°F15.8°C 92% 8.0 mph SW12.9 kmh SW 20.0 mph32.2 kmh 29.87 in1011.5 mb 0.03 in0.8 mm 0.60 in/hr15.2 mm/hr 0.03 in0.8 mm
04:10 AM 62.8°F17.1°C 60.4°F15.8°C 92% 8.0 mph SW12.9 kmh SW 20.0 mph32.2 kmh 29.87 in1011.5 mb 0.02 in0.5 mm 0.00 in/hr0.0 mm/hr 0.02 in0.5 mm
04:09 AM 63.0°F17.2°C 60.6°F15.9°C 92% 9.0 mph SW14.5 kmh SW 20.0 mph32.2 kmh 29.87 in1011.5 mb 0.02 in0.5 mm 0.00 in/hr0.0 mm/hr 0.02 in0.5 mm
04:08 AM 63.0°F17.2°C 60.3°F15.7°C 91% 9.0 mph SW14.5 kmh SW 20.0 mph32.2 kmh 29.87 in1011.5 mb 0.02 in0.5 mm 0.00 in/hr0.0 mm/hr 0.02 in0.5 mm
04:07 AM 63.0°F17.2°C 60.3°F15.7°C 91% 9.0 mph SW14.5 kmh SW 18.0 mph29.0 kmh 29.87 in1011.5 mb 0.02 in0.5 mm 0.00 in/hr0.0 mm/hr 0.02 in0.5 mm
04:06 AM 63.0°F17.2°C 60.3°F15.7°C 91% 9.0 mph SW14.5 kmh SW 18.0 mph29.0 kmh 29.87 in1011.5 mb 0.02 in0.5 mm 0.00 in/hr0.0 mm/hr 0.02 in0.5 mm
04:05 AM 63.1°F17.3°C 60.4°F15.8°C 91% 9.0 mph SW14.5 kmh SW 18.0 mph29.0 kmh 29.87 in1011.5 mb 0.02 in0.5 mm 0.00 in/hr0.0 mm/hr 0.02 in0.5 mm
04:04 AM 63.1°F17.3°C 60.4°F15.8°C 91% 8.0 mph SW12.9 kmh SW 18.0 mph29.0 kmh 29.87 in1011.5 mb 0.02 in0.5 mm 0.00 in/hr0.0 mm/hr 0.02 in0.5 mm
04:03 AM 63.1°F17.3°C 60.4°F15.8°C 91% 8.0 mph SW12.9 kmh SW 18.0 mph29.0 kmh 29.87 in1011.5 mb 0.02 in0.5 mm 0.00 in/hr0.0 mm/hr 0.02 in0.5 mm
04:02 AM 63.1°F17.3°C 60.3°F15.7°C 90% 8.0 mph SW12.9 kmh SW 18.0 mph29.0 kmh 29.87 in1011.5 mb 0.02 in0.5 mm 0.00 in/hr0.0 mm/hr 0.02 in0.5 mm
04:01 AM 63.1°F17.3°C 60.3°F15.7°C 90% 8.0 mph SW12.9 kmh SW 18.0 mph29.0 kmh 29.87 in1011.5 mb 0.02 in0.5 mm 0.00 in/hr0.0 mm/hr 0.02 in0.5 mm
04:00 AM 63.3°F17.4°C 60.3°F15.7°C 90% 7.0 mph SW11.3 kmh SW 18.0 mph29.0 kmh 29.87 in1011.5 mb 0.02 in0.5 mm 0.00 in/hr0.0 mm/hr 0.02 in0.5 mm
03:59 AM 63.3°F17.4°C 60.3°F15.7°C 90% 7.0 mph SW11.3 kmh SW 17.0 mph27.4 kmh 29.87 in1011.5 mb 0.02 in0.5 mm 0.00 in/hr0.0 mm/hr 0.02 in0.5 mm
03:58 AM 63.3°F17.4°C 60.4°F15.8°C 90% 7.0 mph SW11.3 kmh SW 17.0 mph27.4 kmh 29.87 in1011.5 mb 0.02 in0.5 mm 0.60 in/hr15.2 mm/hr 0.02 in0.5 mm
03:57 AM 63.5°F17.5°C 60.4°F15.8°C 90% 7.0 mph SW11.3 kmh SW 15.0 mph24.1 kmh 29.87 in1011.5 mb 0.01 in0.3 mm 0.00 in/hr0.0 mm/hr 0.01 in0.3 mm
03:56 AM 63.5°F17.5°C 60.3°F15.7°C 89% 7.0 mph SW11.3 kmh SW 15.0 mph24.1 kmh 29.87 in1011.5 mb 0.01 in0.3 mm 0.00 in/hr0.0 mm/hr 0.01 in0.3 mm
03:55 AM 63.7°F17.6°C 60.3°F15.7°C 89% 7.0 mph SW11.3 kmh SW 15.0 mph24.1 kmh 29.87 in1011.5 mb 0.01 in0.3 mm 0.00 in/hr0.0 mm/hr 0.01 in0.3 mm
03:54 AM 63.7°F17.6°C 60.3°F15.7°C 89% 7.0 mph SW11.3 kmh SW 15.0 mph24.1 kmh 29.87 in1011.5 mb 0.01 in0.3 mm 0.00 in/hr0.0 mm/hr 0.01 in0.3 mm
03:53 AM 63.7°F17.6°C 60.4°F15.8°C 89% 7.0 mph SW11.3 kmh SW 15.0 mph24.1 kmh 29.87 in1011.5 mb 0.01 in0.3 mm 0.00 in/hr0.0 mm/hr 0.01 in0.3 mm
03:52 AM 63.7°F17.6°C 60.4°F15.8°C 89% 7.0 mph SW11.3 kmh SW 15.0 mph24.1 kmh 29.87 in1011.5 mb 0.01 in0.3 mm 0.00 in/hr0.0 mm/hr 0.01 in0.3 mm
03:51 AM 63.9°F17.7°C 60.4°F15.8°C 89% 7.0 mph SW11.3 kmh SW 15.0 mph24.1 kmh 29.87 in1011.5 mb 0.01 in0.3 mm 0.00 in/hr0.0 mm/hr 0.01 in0.3 mm
03:50 AM 63.9°F17.7°C 60.3°F15.7°C 88% 7.0 mph SW11.3 kmh SW 15.0 mph24.1 kmh 29.87 in1011.5 mb 0.01 in0.3 mm 0.00 in/hr0.0 mm/hr 0.01 in0.3 mm
03:49 AM 63.9°F17.7°C 60.3°F15.7°C 88% 7.0 mph SW11.3 kmh SW 15.0 mph24.1 kmh 29.87 in1011.5 mb 0.01 in0.3 mm 0.60 in/hr15.2 mm/hr 0.01 in0.3 mm
03:48 AM 63.9°F17.7°C 60.3°F15.7°C 88% 7.0 mph SW11.3 kmh SW 15.0 mph24.1 kmh 29.87 in1011.5 mb 0.00 in0.0 mm 0.00 in/hr0.0 mm/hr 0.00 in0.0 mm
03:47 AM 63.9°F17.7°C 60.3°F15.7°C 88% 7.0 mph SW11.3 kmh SW 14.0 mph22.5 kmh 29.87 in1011.5 mb 0.00 in0.0 mm 0.00 in/hr0.0 mm/hr 0.00 in0.0 mm
03:46 AM 63.9°F17.7°C 60.3°F15.7°C 88% 7.0 mph SW11.3 kmh SW 16.0 mph25.7 kmh 29.87 in1011.5 mb 0.00 in0.0 mm 0.00 in/hr0.0 mm/hr 0.00 in0.0 mm
03:45 AM 63.9°F17.7°C 60.3°F15.7°C 88% 7.0 mph SW11.3 kmh SW 16.0 mph25.7 kmh 29.87 in1011.5 mb 0.00 in0.0 mm 0.00 in/hr0.0 mm/hr 0.00 in0.0 mm
03:44 AM 63.9°F17.7°C 60.3°F15.7°C 88% 7.0 mph SW11.3 kmh SW 16.0 mph25.7 kmh 29.87 in1011.5 mb 0.00 in0.0 mm 0.00 in/hr0.0 mm/hr 0.00 in0.0 mm
03:43 AM 63.9°F17.7°C 60.3°F15.7°C 88% 7.0 mph SW11.3 kmh SW 16.0 mph25.7 kmh 29.87 in1011.5 mb 0.00 in0.0 mm 0.00 in/hr0.0 mm/hr 0.00 in0.0 mm
03:42 AM 63.9°F17.7°C 60.3°F15.7°C 88% 7.0 mph SW11.3 kmh SW 16.0 mph25.7 kmh 29.87 in1011.5 mb 0.00 in0.0 mm 0.00 in/hr0.0 mm/hr 0.00 in0.0 mm
03:41 AM 63.9°F17.7°C 60.3°F15.7°C 88% 7.0 mph SW11.3 kmh SW 16.0 mph25.7 kmh 29.87 in1011.5 mb 0.00 in0.0 mm 0.00 in/hr0.0 mm/hr 0.00 in0.0 mm
03:40 AM 63.9°F17.7°C 60.3°F15.7°C 88% 7.0 mph SW11.3 kmh SW 16.0 mph25.7 kmh 29.87 in1011.5 mb 0.00 in0.0 mm 0.00 in/hr0.0 mm/hr 0.00 in0.0 mm
03:39 AM 63.9°F17.7°C 60.3°F15.7°C 88% 7.0 mph SW11.3 kmh SW 16.0 mph25.7 kmh 29.87 in1011.5 mb 0.00 in0.0 mm 0.00 in/hr0.0 mm/hr 0.00 in0.0 mm
03:38 AM 63.9°F17.7°C 60.3°F15.7°C 88% 7.0 mph SW11.3 kmh SW 16.0 mph25.7 kmh 29.87 in1011.5 mb 0.00 in0.0 mm 0.00 in/hr0.0 mm/hr 0.00 in0.0 mm
03:37 AM 63.9°F17.7°C 60.3°F15.7°C 88% 7.0 mph SW11.3 kmh SW 16.0 mph25.7 kmh 29.87 in1011.5 mb 0.00 in0.0 mm 0.00 in/hr0.0 mm/hr 0.00 in0.0 mm
03:36 AM 63.9°F17.7°C 60.3°F15.7°C 88% 7.0 mph SW11.3 kmh SW 13.0 mph20.9 kmh 29.87 in1011.5 mb 0.00 in0.0 mm 0.00 in/hr0.0 mm/hr 0.00 in0.0 mm
03:35 AM 64.0°F17.8°C 60.4°F15.8°C 88% 7.0 mph SW11.3 kmh SW 13.0 mph20.9 kmh 29.87 in1011.5 mb 0.00 in0.0 mm 0.00 in/hr0.0 mm/hr 0.00 in0.0 mm
03:34 AM 64.0°F17.8°C 60.4°F15.8°C 88% 7.0 mph SW11.3 kmh SW 16.0 mph25.7 kmh 29.87 in1011.5 mb 0.00 in0.0 mm 0.00 in/hr0.0 mm/hr 0.00 in0.0 mm
03:33 AM 64.0°F17.8°C 60.4°F15.8°C 88% 7.0 mph SW11.3 kmh SW 16.0 mph25.7 kmh 29.87 in1011.5 mb 0.00 in0.0 mm 0.00 in/hr0.0 mm/hr 0.00 in0.0 mm
03:32 AM 64.0°F17.8°C 60.4°F15.8°C 88% 7.0 mph SW11.3 kmh SW 16.0 mph25.7 kmh 29.87 in1011.5 mb 0.00 in0.0 mm 0.00 in/hr0.0 mm/hr 0.00 in0.0 mm
03:31 AM 64.0°F17.8°C 60.4°F15.8°C 88% 7.0 mph SW11.3 kmh SW 16.0 mph25.7 kmh 29.87 in1011.5 mb 0.00 in0.0 mm 0.00 in/hr0.0 mm/hr 0.00 in0.0 mm
03:30 AM 64.0°F17.8°C 60.4°F15.8°C 88% 7.0 mph SW11.3 kmh SW 16.0 mph25.7 kmh 29.87 in1011.5 mb 0.00 in0.0 mm 0.00 in/hr0.0 mm/hr 0.00 in0.0 mm
03:29 AM 64.0°F17.8°C 60.4°F15.8°C 88% 7.0 mph SW11.3 kmh SW 16.0 mph25.7 kmh 29.87 in1011.5 mb 0.00 in0.0 mm 0.00 in/hr0.0 mm/hr 0.00 in0.0 mm
03:28 AM 64.0°F17.8°C 60.4°F15.8°C 88% 7.0 mph SW11.3 kmh SW 16.0 mph25.7 kmh 29.87 in1011.5 mb 0.00 in0.0 mm 0.00 in/hr0.0 mm/hr 0.00 in0.0 mm
03:27 AM 64.0°F17.8°C 60.4°F15.8°C 88% 7.0 mph SW11.3 kmh SW 16.0 mph25.7 kmh 29.87 in1011.5 mb 0.00 in0.0 mm 0.00 in/hr0.0 mm/hr 0.00 in0.0 mm
03:26 AM 64.0°F17.8°C 60.4°F15.8°C 88% 7.0 mph SW11.3 kmh SW 16.0 mph25.7 kmh 29.87 in1011.5 mb 0.00 in0.0 mm 0.00 in/hr0.0 mm/hr 0.00 in0.0 mm
03:25 AM 64.0°F17.8°C 60.4°F15.8°C 88% 7.0 mph SW11.3 kmh SW 16.0 mph25.7 kmh 29.87 in1011.5 mb 0.00 in0.0 mm 0.00 in/hr0.0 mm/hr 0.00 in0.0 mm
03:24 AM 64.0°F17.8°C 60.4°F15.8°C 88% 7.0 mph SW11.3 kmh SW 14.0 mph22.5 kmh 29.87 in1011.5 mb 0.00 in0.0 mm 0.00 in/hr0.0 mm/hr 0.00 in0.0 mm
03:23 AM 64.0°F17.8°C 60.4°F15.8°C 88% 7.0 mph SW11.3 kmh SW 14.0 mph22.5 kmh 29.87 in1011.5 mb 0.00 in0.0 mm 0.00 in/hr0.0 mm/hr 0.00 in0.0 mm
03:22 AM 64.0°F17.8°C 60.4°F15.8°C 88% 7.0 mph SW11.3 kmh SW 14.0 mph22.5 kmh 29.87 in1011.5 mb 0.00 in0.0 mm 0.00 in/hr0.0 mm/hr 0.00 in0.0 mm
03:21 AM 64.0°F17.8°C 60.4°F15.8°C 88% 7.0 mph SW11.3 kmh SW 14.0 mph22.5 kmh 29.87 in1011.5 mb 0.00 in0.0 mm 0.00 in/hr0.0 mm/hr 0.00 in0.0 mm
03:20 AM 64.0°F17.8°C 60.4°F15.8°C 88% 7.0 mph SW11.3 kmh SW 14.0 mph22.5 kmh 29.87 in1011.5 mb 0.00 in0.0 mm 0.00 in/hr0.0 mm/hr 0.00 in0.0 mm
03:19 AM 64.0°F17.8°C 60.4°F15.8°C 88% 7.0 mph SW11.3 kmh SW 14.0 mph22.5 kmh 29.87 in1011.5 mb 0.00 in0.0 mm 0.00 in/hr0.0 mm/hr 0.00 in0.0 mm
03:18 AM 64.0°F17.8°C 60.4°F15.8°C 88% 7.0 mph SW11.3 kmh SW 14.0 mph22.5 kmh 29.87 in1011.5 mb 0.00 in0.0 mm 0.00 in/hr0.0 mm/hr 0.00 in0.0 mm
03:17 AM 64.0°F17.8°C 60.4°F15.8°C 88% 7.0 mph SW11.3 kmh SW 14.0 mph22.5 kmh 29.87 in1011.5 mb 0.00 in0.0 mm 0.00 in/hr0.0 mm/hr 0.00 in0.0 mm
03:16 AM 63.9°F17.7°C 60.3°F15.7°C 88% 8.0 mph SW12.9 kmh SW 14.0 mph22.5 kmh 29.87 in1011.5 mb 0.00 in0.0 mm 0.00 in/hr0.0 mm/hr 0.00 in0.0 mm
03:15 AM 63.9°F17.7°C 60.3°F15.7°C 88% 7.0 mph SW11.3 kmh SW 15.0 mph24.1 kmh 29.87 in1011.5 mb 0.00 in0.0 mm 0.00 in/hr0.0 mm/hr 0.00 in0.0 mm
03:14 AM 63.9°F17.7°C 60.3°F15.7°C 88% 7.0 mph SW11.3 kmh SW 15.0 mph24.1 kmh 29.87 in1011.5 mb 0.00 in0.0 mm 0.00 in/hr0.0 mm/hr 0.00 in0.0 mm
03:13 AM 63.9°F17.7°C 60.3°F15.7°C 88% 7.0 mph SW11.3 kmh SW 15.0 mph24.1 kmh 29.87 in1011.5 mb 0.00 in0.0 mm 0.00 in/hr0.0 mm/hr 0.00 in0.0 mm
03:12 AM 63.9°F17.7°C 60.3°F15.7°C 88% 8.0 mph SW12.9 kmh SW 15.0 mph24.1 kmh 29.87 in1011.5 mb 0.00 in0.0 mm 0.00 in/hr0.0 mm/hr 0.00 in0.0 mm
03:11 AM 63.9°F17.7°C 60.3°F15.7°C 88% 8.0 mph SW12.9 kmh SW 15.0 mph24.1 kmh 29.87 in1011.5 mb 0.00 in0.0 mm 0.00 in/hr0.0 mm/hr 0.00 in0.0 mm
03:10 AM 63.9°F17.7°C 60.3°F15.7°C 88% 7.0 mph SW11.3 kmh SW 15.0 mph24.1 kmh 29.87 in1011.5 mb 0.00 in0.0 mm 0.00 in/hr0.0 mm/hr 0.00 in0.0 mm
03:09 AM 63.9°F17.7°C 60.3°F15.7°C 88% 7.0 mph SW11.3 kmh SW 15.0 mph24.1 kmh 29.87 in1011.5 mb 0.00 in0.0 mm 0.00 in/hr0.0 mm/hr 0.00 in0.0 mm
03:08 AM 63.9°F17.7°C 60.3°F15.7°C 88% 8.0 mph SW12.9 kmh SW 18.0 mph29.0 kmh 29.87 in1011.5 mb 0.00 in0.0 mm 0.00 in/hr0.0 mm/hr 0.00 in0.0 mm
03:07 AM 63.9°F17.7°C 60.3°F15.7°C 88% 8.0 mph SW12.9 kmh SW 18.0 mph29.0 kmh 29.87 in1011.5 mb 0.00 in0.0 mm 0.00 in/hr0.0 mm/hr 0.00 in0.0 mm
03:06 AM 63.9°F17.7°C 60.3°F15.7°C 88% 7.0 mph SW11.3 kmh SW 18.0 mph29.0 kmh 29.87 in1011.5 mb 0.00 in0.0 mm 0.00 in/hr0.0 mm/hr 0.00 in0.0 mm
03:05 AM 63.9°F17.7°C 60.3°F15.7°C 88% 7.0 mph SW11.3 kmh SW 18.0 mph29.0 kmh 29.87 in1011.5 mb 0.00 in0.0 mm 0.00 in/hr0.0 mm/hr 0.00 in0.0 mm
03:04 AM 63.9°F17.7°C 60.3°F15.7°C 88% 7.0 mph SW11.3 kmh SW 18.0 mph29.0 kmh 29.87 in1011.5 mb 0.00 in0.0 mm 0.00 in/hr0.0 mm/hr 0.00 in0.0 mm
03:03 AM 63.9°F17.7°C 60.3°F15.7°C 88% 7.0 mph SW11.3 kmh SW 18.0 mph29.0 kmh 29.87 in1011.5 mb 0.00 in0.0 mm 0.00 in/hr0.0 mm/hr 0.00 in0.0 mm
03:02 AM 63.9°F17.7°C 60.3°F15.7°C 88% 7.0 mph SW11.3 kmh SW 18.0 mph29.0 kmh 29.87 in1011.5 mb 0.00 in0.0 mm 0.00 in/hr0.0 mm/hr 0.00 in0.0 mm
03:01 AM 63.9°F17.7°C 60.3°F15.7°C 88% 7.0 mph SW11.3 kmh SW 18.0 mph29.0 kmh 29.87 in1011.5 mb 0.00 in0.0 mm 0.00 in/hr0.0 mm/hr 0.00 in0.0 mm
03:00 AM 63.9°F17.7°C 60.3°F15.7°C 88% 7.0 mph SW11.3 kmh SW 18.0 mph29.0 kmh 29.87 in1011.5 mb 0.00 in0.0 mm 0.00 in/hr0.0 mm/hr 0.00 in0.0 mm
02:59 AM 63.9°F17.7°C 60.3°F15.7°C 88% 7.0 mph SW11.3 kmh SW 18.0 mph29.0 kmh 29.87 in1011.5 mb 0.00 in0.0 mm 0.00 in/hr0.0 mm/hr 0.00 in0.0 mm
02:58 AM 63.9°F17.7°C 60.3°F15.7°C 88% 7.0 mph SW11.3 kmh SW 13.0 mph20.9 kmh 29.87 in1011.5 mb 0.00 in0.0 mm 0.00 in/hr0.0 mm/hr 0.00 in0.0 mm
02:57 AM 64.0°F17.8°C 60.4°F15.8°C 88% 7.0 mph SW11.3 kmh SW 14.0 mph22.5 kmh 29.87 in1011.5 mb 0.00 in0.0 mm 0.00 in/hr0.0 mm/hr 0.00 in0.0 mm
02:56 AM 64.0°F17.8°C 60.4°F15.8°C 88% 7.0 mph SW11.3 kmh SW 16.0 mph25.7 kmh 29.87 in1011.5 mb 0.00 in0.0 mm 0.00 in/hr0.0 mm/hr 0.00 in0.0 mm
02:55 AM 64.0°F17.8°C 60.4°F15.8°C 88% 7.0 mph SW11.3 kmh SW 16.0 mph25.7 kmh 29.87 in1011.5 mb 0.00 in0.0 mm 0.00 in/hr0.0 mm/hr 0.00 in0.0 mm
02:54 AM 64.0°F17.8°C 60.4°F15.8°C 88% 7.0 mph SW11.3 kmh SW 16.0 mph25.7 kmh 29.87 in1011.5 mb 0.00 in0.0 mm 0.00 in/hr0.0 mm/hr 0.00 in0.0 mm
02:53 AM 64.0°F17.8°C 60.4°F15.8°C 88% 7.0 mph SW11.3 kmh SW 16.0 mph25.7 kmh 29.87 in1011.5 mb 0.00 in0.0 mm 0.00 in/hr0.0 mm/hr 0.00 in0.0 mm
02:52 AM 64.0°F17.8°C 60.4°F15.8°C 88% 7.0 mph SW11.3 kmh SW 16.0 mph25.7 kmh 29.88 in1011.9 mb 0.00 in0.0 mm 0.00 in/hr0.0 mm/hr 0.00 in0.0 mm
02:51 AM 64.0°F17.8°C 60.4°F15.8°C 88% 7.0 mph SW11.3 kmh SW 16.0 mph25.7 kmh 29.87 in1011.5 mb 0.00 in0.0 mm 0.00 in/hr0.0 mm/hr 0.00 in0.0 mm
02:50 AM 64.0°F17.8°C 60.4°F15.8°C 88% 7.0 mph SW11.3 kmh SW 16.0 mph25.7 kmh 29.88 in1011.9 mb 0.00 in0.0 mm 0.00 in/hr0.0 mm/hr 0.00 in0.0 mm
02:49 AM 64.0°F17.8°C 60.4°F15.8°C 88% 7.0 mph SW11.3 kmh SW 16.0 mph25.7 kmh 29.88 in1011.9 mb 0.00 in0.0 mm 0.00 in/hr0.0 mm/hr 0.00 in0.0 mm
02:48 AM 64.0°F17.8°C 60.4°F15.8°C 88% 7.0 mph SW11.3 kmh SW 16.0 mph25.7 kmh 29.88 in1011.9 mb 0.00 in0.0 mm 0.00 in/hr0.0 mm/hr 0.00 in0.0 mm
02:47 AM 64.0°F17.8°C 60.4°F15.8°C 88% 7.0 mph SW11.3 kmh SW 16.0 mph25.7 kmh 29.88 in1011.9 mb 0.00 in0.0 mm 0.00 in/hr0.0 mm/hr 0.00 in0.0 mm
02:46 AM 64.0°F17.8°C 60.4°F15.8°C 88% 7.0 mph SW11.3 kmh SW 15.0 mph24.1 kmh 29.88 in1011.9 mb 0.00 in0.0 mm 0.00 in/hr0.0 mm/hr 0.00 in0.0 mm
02:45 AM 64.0°F17.8°C 60.4°F15.8°C 88% 7.0 mph SW11.3 kmh SW 15.0 mph24.1 kmh 29.88 in1011.9 mb 0.00 in0.0 mm 0.00 in/hr0.0 mm/hr 0.00 in0.0 mm
02:44 AM 64.0°F17.8°C 60.4°F15.8°C 88% 7.0 mph SW11.3 kmh SW 15.0 mph24.1 kmh 29.88 in1011.9 mb 0.00 in0.0 mm 0.00 in/hr0.0 mm/hr 0.00 in0.0 mm
02:43 AM 64.0°F17.8°C 60.4°F15.8°C 88% 7.0 mph SW11.3 kmh SW 15.0 mph24.1 kmh 29.88 in1011.9 mb 0.00 in0.0 mm 0.00 in/hr0.0 mm/hr 0.00 in0.0 mm
02:42 AM 64.0°F17.8°C 60.4°F15.8°C 88% 6.0 mph SW9.7 kmh SW 15.0 mph24.1 kmh 29.88 in1011.9 mb 0.00 in0.0 mm 0.00 in/hr0.0 mm/hr 0.00 in0.0 mm
02:41 AM 64.0°F17.8°C 60.4°F15.8°C 88% 6.0 mph SW9.7 kmh SW 15.0 mph24.1 kmh 29.88 in1011.9 mb 0.00 in0.0 mm 0.00 in/hr0.0 mm/hr 0.00 in0.0 mm
02:40 AM 64.0°F17.8°C 60.4°F15.8°C 88% 7.0 mph SW11.3 kmh SW 15.0 mph24.1 kmh 29.88 in1011.9 mb 0.00 in0.0 mm 0.00 in/hr0.0 mm/hr 0.00 in0.0 mm
02:39 AM 64.0°F17.8°C 60.4°F15.8°C 88% 7.0 mph SW11.3 kmh SW 15.0 mph24.1 kmh 29.88 in1011.9 mb 0.00 in0.0 mm 0.00 in/hr0.0 mm/hr 0.00 in0.0 mm
02:38 AM 64.0°F17.8°C 60.4°F15.8°C 88% 7.0 mph SW11.3 kmh SW 15.0 mph24.1 kmh 29.88 in1011.9 mb 0.00 in0.0 mm 0.00 in/hr0.0 mm/hr 0.00 in0.0 mm
02:37 AM 64.0°F17.8°C 60.4°F15.8°C 88% 7.0 mph SW11.3 kmh SW 15.0 mph24.1 kmh 29.88 in1011.9 mb 0.00 in0.0 mm 0.00 in/hr0.0 mm/hr 0.00 in0.0 mm
02:36 AM 64.0°F17.8°C 60.4°F15.8°C 88% 7.0 mph SW11.3 kmh SW 15.0 mph24.1 kmh 29.88 in1011.9 mb 0.00 in0.0 mm 0.00 in/hr0.0 mm/hr 0.00 in0.0 mm
02:35 AM 64.0°F17.8°C 60.4°F15.8°C 88% 7.0 mph SW11.3 kmh SW 15.0 mph24.1 kmh 29.88 in1011.9 mb 0.00 in0.0 mm 0.00 in/hr0.0 mm/hr 0.00 in0.0 mm
02:34 AM 64.0°F17.8°C 60.4°F15.8°C 88% 7.0 mph SW11.3 kmh SW 13.0 mph20.9 kmh 29.88 in1011.9 mb 0.00 in0.0 mm 0.00 in/hr0.0 mm/hr 0.00 in0.0 mm
02:33 AM 64.0°F17.8°C 60.4°F15.8°C 88% 7.0 mph SW11.3 kmh SW 13.0 mph20.9 kmh 29.88 in1011.9 mb 0.00 in0.0 mm 0.00 in/hr0.0 mm/hr 0.00 in0.0 mm
02:32 AM 64.0°F17.8°C 60.4°F15.8°C 88% 7.0 mph SW11.3 kmh SW 13.0 mph20.9 kmh 29.88 in1011.9 mb 0.00 in0.0 mm 0.00 in/hr0.0 mm/hr 0.00 in0.0 mm
02:31 AM 64.0°F17.8°C 60.4°F15.8°C 88% 7.0 mph SW11.3 kmh SW 13.0 mph20.9 kmh 29.88 in1011.9 mb 0.00 in0.0 mm 0.00 in/hr0.0 mm/hr 0.00 in0.0 mm
02:30 AM 64.0°F17.8°C 60.4°F15.8°C 88% 7.0 mph SW11.3 kmh SW 13.0 mph20.9 kmh 29.88 in1011.9 mb 0.00 in0.0 mm 0.00 in/hr0.0 mm/hr 0.00 in0.0 mm
02:29 AM 64.0°F17.8°C 60.4°F15.8°C 88% 7.0 mph SW11.3 kmh SW 14.0 mph22.5 kmh 29.88 in1011.9 mb 0.00 in0.0 mm 0.00 in/hr0.0 mm/hr 0.00 in0.0 mm
02:28 AM 64.0°F17.8°C 60.4°F15.8°C 88% 7.0 mph SW11.3 kmh SW 14.0 mph22.5 kmh 29.88 in1011.9 mb 0.00 in0.0 mm 0.00 in/hr0.0 mm/hr 0.00 in0.0 mm
02:27 AM 64.0°F17.8°C 60.4°F15.8°C 88% 7.0 mph SW11.3 kmh SW 14.0 mph22.5 kmh 29.88 in1011.9 mb 0.00 in0.0 mm 0.00 in/hr0.0 mm/hr 0.00 in0.0 mm
02:26 AM 64.0°F17.8°C 60.4°F15.8°C 88% 7.0 mph SW11.3 kmh SW 14.0 mph22.5 kmh 29.88 in1011.9 mb 0.00 in0.0 mm 0.00 in/hr0.0 mm/hr 0.00 in0.0 mm
02:25 AM 64.0°F17.8°C 60.4°F15.8°C 88% 7.0 mph SW11.3 kmh SW 14.0 mph22.5 kmh 29.88 in1011.9 mb 0.00 in0.0 mm 0.00 in/hr0.0 mm/hr 0.00 in0.0 mm
02:24 AM 64.0°F17.8°C 60.4°F15.8°C 88% 7.0 mph SW11.3 kmh SW 14.0 mph22.5 kmh 29.88 in1011.9 mb 0.00 in0.0 mm 0.00 in/hr0.0 mm/hr 0.00 in0.0 mm
02:23 AM 64.0°F17.8°C 60.4°F15.8°C 88% 7.0 mph SW11.3 kmh SW 14.0 mph22.5 kmh 29.88 in1011.9 mb 0.00 in0.0 mm 0.00 in/hr0.0 mm/hr 0.00 in0.0 mm
02:22 AM 64.0°F17.8°C 60.4°F15.8°C 88% 7.0 mph SW11.3 kmh SW 14.0 mph22.5 kmh 29.88 in1011.9 mb 0.00 in0.0 mm 0.00 in/hr0.0 mm/hr 0.00 in0.0 mm
02:21 AM 64.0°F17.8°C 60.4°F15.8°C 88% 7.0 mph SW11.3 kmh SW 14.0 mph22.5 kmh 29.88 in1011.9 mb 0.00 in0.0 mm 0.00 in/hr0.0 mm/hr 0.00 in0.0 mm
02:20 AM 64.0°F17.8°C 60.4°F15.8°C 88% 7.0 mph SW11.3 kmh SW 14.0 mph22.5 kmh 29.88 in1011.9 mb 0.00 in0.0 mm 0.00 in/hr0.0 mm/hr 0.00 in0.0 mm
02:19 AM 64.0°F17.8°C 60.4°F15.8°C 88% 7.0 mph SW11.3 kmh SW 13.0 mph20.9 kmh 29.88 in1011.9 mb 0.00 in0.0 mm 0.00 in/hr0.0 mm/hr 0.00 in0.0 mm
02:18 AM 64.0°F17.8°C 60.4°F15.8°C 88% 7.0 mph SW11.3 kmh SW 15.0 mph24.1 kmh 29.88 in1011.9 mb 0.00 in0.0 mm 0.00 in/hr0.0 mm/hr 0.00 in0.0 mm
02:17 AM 64.0°F17.8°C 60.4°F15.8°C 88% 7.0 mph SW11.3 kmh SW 15.0 mph24.1 kmh 29.88 in1011.9 mb 0.00 in0.0 mm 0.00 in/hr0.0 mm/hr 0.00 in0.0 mm
02:16 AM 64.0°F17.8°C 60.4°F15.8°C 88% 7.0 mph SW11.3 kmh SW 15.0 mph24.1 kmh 29.88 in1011.9 mb 0.00 in0.0 mm 0.00 in/hr0.0 mm/hr 0.00 in0.0 mm
02:15 AM 64.0°F17.8°C 60.4°F15.8°C 88% 7.0 mph SW11.3 kmh SW 15.0 mph24.1 kmh 29.88 in1011.9 mb 0.00 in0.0 mm 0.00 in/hr0.0 mm/hr 0.00 in0.0 mm
02:14 AM 64.0°F17.8°C 60.4°F15.8°C 88% 7.0 mph SW11.3 kmh SW 15.0 mph24.1 kmh 29.88 in1011.9 mb 0.00 in0.0 mm 0.00 in/hr0.0 mm/hr 0.00 in0.0 mm
02:13 AM 64.0°F17.8°C 60.4°F15.8°C 88% 7.0 mph SW11.3 kmh SW 16.0 mph25.7 kmh 29.88 in1011.9 mb 0.00 in0.0 mm 0.00 in/hr0.0 mm/hr 0.00 in0.0 mm
02:12 AM 64.0°F17.8°C 60.4°F15.8°C 88% 7.0 mph SW11.3 kmh SW 16.0 mph25.7 kmh 29.88 in1011.9 mb 0.00 in0.0 mm 0.00 in/hr0.0 mm/hr 0.00 in0.0 mm
02:11 AM 64.0°F17.8°C 60.4°F15.8°C 88% 7.0 mph SW11.3 kmh SW 16.0 mph25.7 kmh 29.88 in1011.9 mb 0.00 in0.0 mm 0.00 in/hr0.0 mm/hr 0.00 in0.0 mm
02:10 AM 64.0°F17.8°C 60.4°F15.8°C 88% 7.0 mph SW11.3 kmh SW 16.0 mph25.7 kmh 29.88 in1011.9 mb 0.00 in0.0 mm 0.00 in/hr0.0 mm/hr 0.00 in0.0 mm
02:09 AM 64.0°F17.8°C 60.4°F15.8°C 88% 7.0 mph SW11.3 kmh SW 16.0 mph25.7 kmh 29.88 in1011.9 mb 0.00 in0.0 mm 0.00 in/hr0.0 mm/hr 0.00 in0.0 mm
02:08 AM 64.0°F17.8°C 60.4°F15.8°C 88% 7.0 mph SW11.3 kmh SW 16.0 mph25.7 kmh 29.88 in1011.9 mb 0.00 in0.0 mm 0.00 in/hr0.0 mm/hr 0.00 in0.0 mm
02:07 AM 64.0°F17.8°C 60.4°F15.8°C 88% 6.0 mph SW9.7 kmh SW 16.0 mph25.7 kmh 29.88 in1011.9 mb 0.00 in0.0 mm 0.00 in/hr0.0 mm/hr 0.00 in0.0 mm
02:06 AM 64.0°F17.8°C 60.4°F15.8°C 88% 6.0 mph SW9.7 kmh SW 16.0 mph25.7 kmh 29.88 in1011.9 mb 0.00 in0.0 mm 0.00 in/hr0.0 mm/hr 0.00 in0.0 mm
02:05 AM 64.0°F17.8°C 60.4°F15.8°C 88% 6.0 mph SW9.7 kmh SW 16.0 mph25.7 kmh 29.88 in1011.9 mb 0.00 in0.0 mm 0.00 in/hr0.0 mm/hr 0.00 in0.0 mm
02:04 AM 64.0°F17.8°C 60.4°F15.8°C 88% 6.0 mph SW9.7 kmh SW 16.0 mph25.7 kmh 29.88 in1011.9 mb 0.00 in0.0 mm 0.00 in/hr0.0 mm/hr 0.00 in0.0 mm
02:03 AM 64.0°F17.8°C 60.4°F15.8°C 88% 6.0 mph SW9.7 kmh SW 11.0 mph17.7 kmh 29.88 in1011.9 mb 0.00 in0.0 mm 0.00 in/hr0.0 mm/hr 0.00 in0.0 mm
02:02 AM 64.0°F17.8°C 60.4°F15.8°C 88% 6.0 mph SW9.7 kmh SW 11.0 mph17.7 kmh 29.88 in1011.9 mb 0.00 in0.0 mm 0.00 in/hr0.0 mm/hr 0.00 in0.0 mm
02:01 AM 64.0°F17.8°C 60.4°F15.8°C 88% 6.0 mph SW9.7 kmh SW 11.0 mph17.7 kmh 29.88 in1011.9 mb 0.00 in0.0 mm 0.00 in/hr0.0 mm/hr 0.00 in0.0 mm
02:00 AM 64.0°F17.8°C 60.4°F15.8°C 88% 6.0 mph SW9.7 kmh SW 11.0 mph17.7 kmh 29.88 in1011.9 mb 0.00 in0.0 mm 0.00 in/hr0.0 mm/hr 0.00 in0.0 mm
01:59 AM 64.0°F17.8°C 60.4°F15.8°C 88% 6.0 mph SW9.7 kmh SW 12.0 mph19.3 kmh 29.88 in1011.9 mb 0.00 in0.0 mm 0.00 in/hr0.0 mm/hr 0.00 in0.0 mm
01:58 AM 64.0°F17.8°C 60.4°F15.8°C 88% 6.0 mph SW9.7 kmh SW 12.0 mph19.3 kmh 29.89 in1012.2 mb 0.00 in0.0 mm 0.00 in/hr0.0 mm/hr 0.00 in0.0 mm
01:57 AM 64.0°F17.8°C 60.4°F15.8°C 88% 6.0 mph SW9.7 kmh SW 12.0 mph19.3 kmh 29.88 in1011.9 mb 0.00 in0.0 mm 0.00 in/hr0.0 mm/hr 0.00 in0.0 mm
01:56 AM 64.0°F17.8°C 60.4°F15.8°C 88% 6.0 mph SW9.7 kmh SW 12.0 mph19.3 kmh 29.88 in1011.9 mb 0.00 in0.0 mm 0.00 in/hr0.0 mm/hr 0.00 in0.0 mm
01:55 AM 64.0°F17.8°C 60.4°F15.8°C 88% 6.0 mph SW9.7 kmh SW 12.0 mph19.3 kmh 29.88 in1011.9 mb 0.00 in0.0 mm 0.00 in/hr0.0 mm/hr 0.00 in0.0 mm
01:54 AM 64.0°F17.8°C 60.4°F15.8°C 88% 6.0 mph SW9.7 kmh SW 12.0 mph19.3 kmh 29.88 in1011.9 mb 0.00 in0.0 mm 0.00 in/hr0.0 mm/hr 0.00 in0.0 mm
01:53 AM 64.0°F17.8°C 60.4°F15.8°C 88% 6.0 mph SW9.7 kmh SW 12.0 mph19.3 kmh 29.88 in1011.9 mb 0.00 in0.0 mm 0.00 in/hr0.0 mm/hr 0.00 in0.0 mm
01:52 AM 64.0°F17.8°C 60.4°F15.8°C 88% 6.0 mph SW9.7 kmh SW 12.0 mph19.3 kmh 29.88 in1011.9 mb 0.00 in0.0 mm 0.00 in/hr0.0 mm/hr 0.00 in0.0 mm
01:51 AM 64.0°F17.8°C 60.4°F15.8°C 88% 6.0 mph SW9.7 kmh SW 12.0 mph19.3 kmh 29.89 in1012.2 mb 0.00 in0.0 mm 0.00 in/hr0.0 mm/hr 0.00 in0.0 mm
01:50 AM 64.0°F17.8°C 60.4°F15.8°C 88% 6.0 mph SW9.7 kmh SW 12.0 mph19.3 kmh 29.89 in1012.2 mb 0.00 in0.0 mm 0.00 in/hr0.0 mm/hr 0.00 in0.0 mm
01:49 AM 64.0°F17.8°C 60.4°F15.8°C 88% 6.0 mph SW9.7 kmh SW 12.0 mph19.3 kmh 29.89 in1012.2 mb 0.00 in0.0 mm 0.00 in/hr0.0 mm/hr 0.00 in0.0 mm
01:48 AM 64.0°F17.8°C 60.4°F15.8°C 88% 6.0 mph SW9.7 kmh SW 12.0 mph19.3 kmh 29.89 in1012.2 mb 0.00 in0.0 mm 0.00 in/hr0.0 mm/hr 0.00 in0.0 mm
01:47 AM 64.0°F17.8°C 60.4°F15.8°C 88% 7.0 mph SW11.3 kmh SW 12.0 mph19.3 kmh 29.88 in1011.9 mb 0.00 in0.0 mm 0.00 in/hr0.0 mm/hr 0.00 in0.0 mm
01:46 AM 64.0°F17.8°C 60.4°F15.8°C 88% 7.0 mph SW11.3 kmh SW 14.0 mph22.5 kmh 29.89 in1012.2 mb 0.00 in0.0 mm 0.00 in/hr0.0 mm/hr 0.00 in0.0 mm
01:45 AM 64.0°F17.8°C 60.4°F15.8°C 88% 7.0 mph SW11.3 kmh SW 14.0 mph22.5 kmh 29.89 in1012.2 mb 0.00 in0.0 mm 0.00 in/hr0.0 mm/hr 0.00 in0.0 mm
01:44 AM 64.0°F17.8°C 60.4°F15.8°C 88% 7.0 mph SW11.3 kmh SW 14.0 mph22.5 kmh 29.89 in1012.2 mb 0.00 in0.0 mm 0.00 in/hr0.0 mm/hr 0.00 in0.0 mm
01:43 AM 64.0°F17.8°C 60.4°F15.8°C 88% 7.0 mph SW11.3 kmh SW 14.0 mph22.5 kmh 29.89 in1012.2 mb 0.00 in0.0 mm 0.00 in/hr0.0 mm/hr 0.00 in0.0 mm
01:42 AM 64.0°F17.8°C 60.4°F15.8°C 88% 7.0 mph SW11.3 kmh SW 14.0 mph22.5 kmh 29.89 in1012.2 mb 0.00 in0.0 mm 0.00 in/hr0.0 mm/hr 0.00 in0.0 mm
01:41 AM 64.0°F17.8°C 60.4°F15.8°C 88% 7.0 mph SW11.3 kmh SW 14.0 mph22.5 kmh 29.89 in1012.2 mb 0.00 in0.0 mm 0.00 in/hr0.0 mm/hr 0.00 in0.0 mm
01:40 AM 64.0°F17.8°C 60.4°F15.8°C 88% 7.0 mph SW11.3 kmh SW 15.0 mph24.1 kmh 29.89 in1012.2 mb 0.00 in0.0 mm 0.00 in/hr0.0 mm/hr 0.00 in0.0 mm
01:39 AM 64.0°F17.8°C 60.4°F15.8°C 88% 7.0 mph SW11.3 kmh SW 15.0 mph24.1 kmh 29.89 in1012.2 mb 0.00 in0.0 mm 0.00 in/hr0.0 mm/hr 0.00 in0.0 mm
01:38 AM 64.0°F17.8°C 60.4°F15.8°C 88% 7.0 mph SW11.3 kmh SW 15.0 mph24.1 kmh 29.89 in1012.2 mb 0.00 in0.0 mm 0.00 in/hr0.0 mm/hr 0.00 in0.0 mm
01:37 AM 64.0°F17.8°C 60.4°F15.8°C 88% 7.0 mph SW11.3 kmh SW 15.0 mph24.1 kmh 29.89 in1012.2 mb 0.00 in0.0 mm 0.00 in/hr0.0 mm/hr 0.00 in0.0 mm
01:36 AM 64.0°F17.8°C 60.4°F15.8°C 88% 7.0 mph SW11.3 kmh SW 15.0 mph24.1 kmh 29.89 in1012.2 mb 0.00 in0.0 mm 0.00 in/hr0.0 mm/hr 0.00 in0.0 mm
01:35 AM 64.0°F17.8°C 60.4°F15.8°C 88% 7.0 mph SW11.3 kmh SW 15.0 mph24.1 kmh 29.89 in1012.2 mb 0.00 in0.0 mm 0.00 in/hr0.0 mm/hr 0.00 in0.0 mm
01:34 AM 64.0°F17.8°C 60.4°F15.8°C 88% 7.0 mph SW11.3 kmh SW 15.0 mph24.1 kmh 29.89 in1012.2 mb 0.00 in0.0 mm 0.00 in/hr0.0 mm/hr 0.00 in0.0 mm
01:33 AM 64.0°F17.8°C 60.4°F15.8°C 88% 7.0 mph SW11.3 kmh SW 15.0 mph24.1 kmh 29.89 in1012.2 mb 0.00 in0.0 mm 0.00 in/hr0.0 mm/hr 0.00 in0.0 mm
01:32 AM 64.0°F17.8°C 60.4°F15.8°C 88% 7.0 mph SW11.3 kmh SW 15.0 mph24.1 kmh 29.89 in1012.2 mb 0.00 in0.0 mm 0.00 in/hr0.0 mm/hr 0.00 in0.0 mm
01:31 AM 64.0°F17.8°C 60.4°F15.8°C 88% 6.0 mph SW9.7 kmh SW 15.0 mph24.1 kmh 29.89 in1012.2 mb 0.00 in0.0 mm 0.00 in/hr0.0 mm/hr 0.00 in0.0 mm
01:30 AM 64.0°F17.8°C 60.4°F15.8°C 88% 6.0 mph SW9.7 kmh SW 13.0 mph20.9 kmh 29.89 in1012.2 mb 0.00 in0.0 mm 0.00 in/hr0.0 mm/hr 0.00 in0.0 mm
01:29 AM 64.0°F17.8°C 60.4°F15.8°C 88% 6.0 mph SW9.7 kmh SW 13.0 mph20.9 kmh 29.89 in1012.2 mb 0.00 in0.0 mm 0.00 in/hr0.0 mm/hr 0.00 in0.0 mm
01:28 AM 64.0°F17.8°C 60.4°F15.8°C 88% 6.0 mph SW9.7 kmh SW 13.0 mph20.9 kmh 29.89 in1012.2 mb 0.00 in0.0 mm 0.00 in/hr0.0 mm/hr 0.00 in0.0 mm
01:27 AM 64.0°F17.8°C 60.4°F15.8°C 88% 6.0 mph SW9.7 kmh SW 13.0 mph20.9 kmh 29.89 in1012.2 mb 0.00 in0.0 mm 0.00 in/hr0.0 mm/hr 0.00 in0.0 mm
01:26 AM 64.0°F17.8°C 60.4°F15.8°C 88% 6.0 mph SW9.7 kmh SW 13.0 mph20.9 kmh 29.89 in1012.2 mb 0.00 in0.0 mm 0.00 in/hr0.0 mm/hr 0.00 in0.0 mm
01:25 AM 64.0°F17.8°C 60.4°F15.8°C 88% 6.0 mph SW9.7 kmh SW 13.0 mph20.9 kmh 29.89 in1012.2 mb 0.00 in0.0 mm 0.00 in/hr0.0 mm/hr 0.00 in0.0 mm
01:24 AM 64.0°F17.8°C 60.4°F15.8°C 88% 7.0 mph SW11.3 kmh SW 13.0 mph20.9 kmh 29.89 in1012.2 mb 0.00 in0.0 mm 0.00 in/hr0.0 mm/hr 0.00 in0.0 mm
01:23 AM 64.0°F17.8°C 60.4°F15.8°C 88% 6.0 mph SW9.7 kmh SW 13.0 mph20.9 kmh 29.89 in1012.2 mb 0.00 in0.0 mm 0.00 in/hr0.0 mm/hr 0.00 in0.0 mm
01:22 AM 64.0°F17.8°C 60.4°F15.8°C 88% 7.0 mph SW11.3 kmh SW 13.0 mph20.9 kmh 29.89 in1012.2 mb 0.00 in0.0 mm 0.00 in/hr0.0 mm/hr 0.00 in0.0 mm
01:21 AM 64.0°F17.8°C 60.4°F15.8°C 88% 7.0 mph SW11.3 kmh SW 13.0 mph20.9 kmh 29.89 in1012.2 mb 0.00 in0.0 mm 0.00 in/hr0.0 mm/hr 0.00 in0.0 mm
01:20 AM 64.0°F17.8°C 60.4°F15.8°C 88% 7.0 mph SW11.3 kmh SW 13.0 mph20.9 kmh 29.89 in1012.2 mb 0.00 in0.0 mm 0.00 in/hr0.0 mm/hr 0.00 in0.0 mm
01:19 AM 64.0°F17.8°C 60.4°F15.8°C 88% 7.0 mph SW11.3 kmh SW 13.0 mph20.9 kmh 29.89 in1012.2 mb 0.00 in0.0 mm 0.00 in/hr0.0 mm/hr 0.00 in0.0 mm
01:18 AM 64.0°F17.8°C 60.4°F15.8°C 88% 7.0 mph SW11.3 kmh SW 17.0 mph27.4 kmh 29.89 in1012.2 mb 0.00 in0.0 mm 0.00 in/hr0.0 mm/hr 0.00 in0.0 mm
01:17 AM 64.0°F17.8°C 60.4°F15.8°C 88% 7.0 mph SW11.3 kmh SW 17.0 mph27.4 kmh 29.89 in1012.2 mb 0.00 in0.0 mm 0.00 in/hr0.0 mm/hr 0.00 in0.0 mm
01:16 AM 64.0°F17.8°C 60.4°F15.8°C 88% 7.0 mph SW11.3 kmh SW 17.0 mph27.4 kmh 29.89 in1012.2 mb 0.00 in0.0 mm 0.00 in/hr0.0 mm/hr 0.00 in0.0 mm
01:15 AM 64.0°F17.8°C 60.4°F15.8°C 88% 8.0 mph SW12.9 kmh SW 17.0 mph27.4 kmh 29.89 in1012.2 mb 0.00 in0.0 mm 0.00 in/hr0.0 mm/hr 0.00 in0.0 mm
01:14 AM 64.0°F17.8°C 60.4°F15.8°C 88% 7.0 mph SW11.3 kmh SW 17.0 mph27.4 kmh 29.89 in1012.2 mb 0.00 in0.0 mm 0.00 in/hr0.0 mm/hr 0.00 in0.0 mm
01:13 AM 64.0°F17.8°C 60.4°F15.8°C 88% 7.0 mph SW11.3 kmh SW 17.0 mph27.4 kmh 29.89 in1012.2 mb 0.00 in0.0 mm 0.00 in/hr0.0 mm/hr 0.00 in0.0 mm
01:12 AM 64.0°F17.8°C 60.4°F15.8°C 88% 7.0 mph SW11.3 kmh SW 17.0 mph27.4 kmh 29.89 in1012.2 mb 0.00 in0.0 mm 0.00 in/hr0.0 mm/hr 0.00 in0.0 mm
01:11 AM 64.0°F17.8°C 60.4°F15.8°C 88% 7.0 mph SW11.3 kmh SW 17.0 mph27.4 kmh 29.89 in1012.2 mb 0.00 in0.0 mm 0.00 in/hr0.0 mm/hr 0.00 in0.0 mm
01:10 AM 64.0°F17.8°C 60.4°F15.8°C 88% 7.0 mph SW11.3 kmh SW 17.0 mph27.4 kmh 29.89 in1012.2 mb 0.00 in0.0 mm 0.00 in/hr0.0 mm/hr 0.00 in0.0 mm
01:09 AM 64.0°F17.8°C 60.4°F15.8°C 88% 7.0 mph SW11.3 kmh SW 17.0 mph27.4 kmh 29.89 in1012.2 mb 0.00 in0.0 mm 0.00 in/hr0.0 mm/hr 0.00 in0.0 mm
01:08 AM 64.0°F17.8°C 60.4°F15.8°C 88% 6.0 mph SW9.7 kmh SW 14.0 mph22.5 kmh 29.89 in1012.2 mb 0.00 in0.0 mm 0.00 in/hr0.0 mm/hr 0.00 in0.0 mm
01:07 AM 64.0°F17.8°C 60.4°F15.8°C 88% 7.0 mph SW11.3 kmh SW 14.0 mph22.5 kmh 29.89 in1012.2 mb 0.00 in0.0 mm 0.00 in/hr0.0 mm/hr 0.00 in0.0 mm
01:06 AM 64.0°F17.8°C 60.4°F15.8°C 88% 7.0 mph SW11.3 kmh SW 14.0 mph22.5 kmh 29.89 in1012.2 mb 0.00 in0.0 mm 0.00 in/hr0.0 mm/hr 0.00 in0.0 mm
01:05 AM 64.0°F17.8°C 60.4°F15.8°C 88% 7.0 mph SW11.3 kmh SW 14.0 mph22.5 kmh 29.89 in1012.2 mb 0.00 in0.0 mm 0.00 in/hr0.0 mm/hr 0.00 in0.0 mm
01:04 AM 64.0°F17.8°C 60.4°F15.8°C 88% 6.0 mph SW9.7 kmh SW 13.0 mph20.9 kmh 29.89 in1012.2 mb 0.00 in0.0 mm 0.00 in/hr0.0 mm/hr 0.00 in0.0 mm
01:03 AM 64.0°F17.8°C 60.4°F15.8°C 88% 7.0 mph SW11.3 kmh SW 13.0 mph20.9 kmh 29.89 in1012.2 mb 0.00 in0.0 mm 0.00 in/hr0.0 mm/hr 0.00 in0.0 mm
01:02 AM 64.0°F17.8°C 60.4°F15.8°C 88% 7.0 mph SW11.3 kmh SW 13.0 mph20.9 kmh 29.89 in1012.2 mb 0.00 in0.0 mm 0.00 in/hr0.0 mm/hr 0.00 in0.0 mm
01:01 AM 64.0°F17.8°C 60.4°F15.8°C 88% 7.0 mph SW11.3 kmh SW 13.0 mph20.9 kmh 29.89 in1012.2 mb 0.00 in0.0 mm 0.00 in/hr0.0 mm/hr 0.00 in0.0 mm
01:00 AM 64.0°F17.8°C 60.4°F15.8°C 88% 7.0 mph SW11.3 kmh SW 13.0 mph20.9 kmh 29.89 in1012.2 mb 0.00 in0.0 mm 0.00 in/hr0.0 mm/hr 0.00 in0.0 mm
12:59 AM 64.0°F17.8°C 60.4°F15.8°C 88% 7.0 mph SW11.3 kmh SW 13.0 mph20.9 kmh 29.89 in1012.2 mb 0.00 in0.0 mm 0.00 in/hr0.0 mm/hr 0.00 in0.0 mm
12:58 AM 64.0°F17.8°C 60.4°F15.8°C 88% 7.0 mph SW11.3 kmh SW 13.0 mph20.9 kmh 29.89 in1012.2 mb 0.00 in0.0 mm 0.00 in/hr0.0 mm/hr 0.00 in0.0 mm
12:57 AM 64.0°F17.8°C 60.4°F15.8°C 88% 7.0 mph SW11.3 kmh SW 13.0 mph20.9 kmh 29.89 in1012.2 mb 0.00 in0.0 mm 0.00 in/hr0.0 mm/hr 0.00 in0.0 mm
12:56 AM 64.0°F17.8°C 60.4°F15.8°C 88% 7.0 mph SW11.3 kmh SW 13.0 mph20.9 kmh 29.89 in1012.2 mb 0.00 in0.0 mm 0.00 in/hr0.0 mm/hr 0.00 in0.0 mm
12:55 AM 64.0°F17.8°C 60.4°F15.8°C 88% 7.0 mph SW11.3 kmh SW 13.0 mph20.9 kmh 29.89 in1012.2 mb 0.00 in0.0 mm 0.00 in/hr0.0 mm/hr 0.00 in0.0 mm
12:54 AM 64.0°F17.8°C 60.1°F15.6°C 87% 7.0 mph SW11.3 kmh SW 13.0 mph20.9 kmh 29.89 in1012.2 mb 0.00 in0.0 mm 0.00 in/hr0.0 mm/hr 0.00 in0.0 mm
12:53 AM 64.0°F17.8°C 60.1°F15.6°C 87% 6.0 mph SW9.7 kmh SW 13.0 mph20.9 kmh 29.89 in1012.2 mb 0.00 in0.0 mm 0.00 in/hr0.0 mm/hr 0.00 in0.0 mm
12:52 AM 64.0°F17.8°C 60.1°F15.6°C 87% 6.0 mph SW9.7 kmh SW 13.0 mph20.9 kmh 29.89 in1012.2 mb 0.00 in0.0 mm 0.00 in/hr0.0 mm/hr 0.00 in0.0 mm
12:51 AM 64.0°F17.8°C 60.1°F15.6°C 87% 6.0 mph SW9.7 kmh SW 13.0 mph20.9 kmh 29.89 in1012.2 mb 0.00 in0.0 mm 0.00 in/hr0.0 mm/hr 0.00 in0.0 mm
12:50 AM 64.0°F17.8°C 60.1°F15.6°C 87% 6.0 mph SW9.7 kmh SW 13.0 mph20.9 kmh 29.89 in1012.2 mb 0.00 in0.0 mm 0.00 in/hr0.0 mm/hr 0.00 in0.0 mm
12:49 AM 64.0°F17.8°C 60.1°F15.6°C 87% 5.0 mph SW8.0 kmh SW 13.0 mph20.9 kmh 29.89 in1012.2 mb 0.00 in0.0 mm 0.00 in/hr0.0 mm/hr 0.00 in0.0 mm
12:48 AM 64.0°F17.8°C 60.1°F15.6°C 87% 6.0 mph SW9.7 kmh SW 11.0 mph17.7 kmh 29.89 in1012.2 mb 0.00 in0.0 mm 0.00 in/hr0.0 mm/hr 0.00 in0.0 mm
12:47 AM 64.0°F17.8°C 60.1°F15.6°C 87% 6.0 mph SW9.7 kmh SW 12.0 mph19.3 kmh 29.89 in1012.2 mb 0.00 in0.0 mm 0.00 in/hr0.0 mm/hr 0.00 in0.0 mm
12:46 AM 64.0°F17.8°C 60.1°F15.6°C 87% 5.0 mph SW8.0 kmh SW 12.0 mph19.3 kmh 29.89 in1012.2 mb 0.00 in0.0 mm 0.00 in/hr0.0 mm/hr 0.00 in0.0 mm
12:45 AM 64.0°F17.8°C 60.1°F15.6°C 87% 5.0 mph SW8.0 kmh SW 12.0 mph19.3 kmh 29.89 in1012.2 mb 0.00 in0.0 mm 0.00 in/hr0.0 mm/hr 0.00 in0.0 mm
12:44 AM 64.0°F17.8°C 60.1°F15.6°C 87% 6.0 mph SW9.7 kmh SW 12.0 mph19.3 kmh 29.89 in1012.2 mb 0.00 in0.0 mm 0.00 in/hr0.0 mm/hr 0.00 in0.0 mm
12:43 AM 64.0°F17.8°C 60.1°F15.6°C 87% 6.0 mph SW9.7 kmh SW 12.0 mph19.3 kmh 29.89 in1012.2 mb 0.00 in0.0 mm 0.00 in/hr0.0 mm/hr 0.00 in0.0 mm
12:42 AM 64.0°F17.8°C 60.1°F15.6°C 87% 6.0 mph SW9.7 kmh SW 12.0 mph19.3 kmh 29.89 in1012.2 mb 0.00 in0.0 mm 0.00 in/hr0.0 mm/hr 0.00 in0.0 mm
12:41 AM 64.0°F17.8°C 60.1°F15.6°C 87% 6.0 mph SW9.7 kmh SW 14.0 mph22.5 kmh 29.90 in1012.5 mb 0.00 in0.0 mm 0.00 in/hr0.0 mm/hr 0.00 in0.0 mm
12:40 AM 64.0°F17.8°C 60.1°F15.6°C 87% 6.0 mph SW9.7 kmh SW 14.0 mph22.5 kmh 29.89 in1012.2 mb 0.00 in0.0 mm 0.00 in/hr0.0 mm/hr 0.00 in0.0 mm
12:39 AM 64.0°F17.8°C 60.1°F15.6°C 87% 6.0 mph SW9.7 kmh SW 14.0 mph22.5 kmh 29.89 in1012.2 mb 0.00 in0.0 mm 0.00 in/hr0.0 mm/hr 0.00 in0.0 mm
12:38 AM 64.0°F17.8°C 60.1°F15.6°C 87% 6.0 mph SW9.7 kmh SW 14.0 mph22.5 kmh 29.89 in1012.2 mb 0.00 in0.0 mm 0.00 in/hr0.0 mm/hr 0.00 in0.0 mm
12:37 AM 64.0°F17.8°C 60.1°F15.6°C 87% 6.0 mph SW9.7 kmh SW 14.0 mph22.5 kmh 29.89 in1012.2 mb 0.00 in0.0 mm 0.00 in/hr0.0 mm/hr 0.00 in0.0 mm
12:36 AM 64.0°F17.8°C 60.1°F15.6°C 87% 7.0 mph SW11.3 kmh SW 17.0 mph27.4 kmh 29.89 in1012.2 mb 0.00 in0.0 mm 0.00 in/hr0.0 mm/hr 0.00 in0.0 mm
12:35 AM 64.0°F17.8°C 60.1°F15.6°C 87% 7.0 mph SW11.3 kmh SW 17.0 mph27.4 kmh 29.89 in1012.2 mb 0.00 in0.0 mm 0.00 in/hr0.0 mm/hr 0.00 in0.0 mm
12:34 AM 64.0°F17.8°C 60.1°F15.6°C 87% 7.0 mph SW11.3 kmh SW 17.0 mph27.4 kmh 29.89 in1012.2 mb 0.00 in0.0 mm 0.00 in/hr0.0 mm/hr 0.00 in0.0 mm
12:33 AM 64.0°F17.8°C 60.1°F15.6°C 87% 7.0 mph SW11.3 kmh SW 17.0 mph27.4 kmh 29.89 in1012.2 mb 0.00 in0.0 mm 0.00 in/hr0.0 mm/hr 0.00 in0.0 mm
12:32 AM 64.0°F17.8°C 60.1°F15.6°C 87% 7.0 mph SW11.3 kmh SW 17.0 mph27.4 kmh 29.89 in1012.2 mb 0.00 in0.0 mm 0.00 in/hr0.0 mm/hr 0.00 in0.0 mm
12:31 AM 64.0°F17.8°C 60.1°F15.6°C 87% 7.0 mph SW11.3 kmh SW 17.0 mph27.4 kmh 29.89 in1012.2 mb 0.00 in0.0 mm 0.00 in/hr0.0 mm/hr 0.00 in0.0 mm
12:30 AM 64.0°F17.8°C 60.1°F15.6°C 87% 7.0 mph SW11.3 kmh SW 17.0 mph27.4 kmh 29.89 in1012.2 mb 0.00 in0.0 mm 0.00 in/hr0.0 mm/hr 0.00 in0.0 mm
12:29 AM 64.0°F17.8°C 60.1°F15.6°C 87% 7.0 mph SW11.3 kmh SW 17.0 mph27.4 kmh 29.89 in1012.2 mb 0.00 in0.0 mm 0.00 in/hr0.0 mm/hr 0.00 in0.0 mm
12:28 AM 64.0°F17.8°C 60.1°F15.6°C 87% 8.0 mph SW12.9 kmh SW 17.0 mph27.4 kmh 29.89 in1012.2 mb 0.00 in0.0 mm 0.00 in/hr0.0 mm/hr 0.00 in0.0 mm
12:27 AM 64.0°F17.8°C 60.1°F15.6°C 87% 7.0 mph SW11.3 kmh SW 17.0 mph27.4 kmh 29.90 in1012.5 mb 0.00 in0.0 mm 0.00 in/hr0.0 mm/hr 0.00 in0.0 mm
12:26 AM 64.0°F17.8°C 60.1°F15.6°C 87% 7.0 mph SW11.3 kmh SW 16.0 mph25.7 kmh 29.90 in1012.5 mb 0.00 in0.0 mm 0.00 in/hr0.0 mm/hr 0.00 in0.0 mm
12:25 AM 64.0°F17.8°C 60.1°F15.6°C 87% 7.0 mph SW11.3 kmh SW 13.0 mph20.9 kmh 29.90 in1012.5 mb 0.00 in0.0 mm 0.00 in/hr0.0 mm/hr 0.00 in0.0 mm
12:24 AM 64.0°F17.8°C 60.1°F15.6°C 87% 7.0 mph SW11.3 kmh SW 13.0 mph20.9 kmh 29.89 in1012.2 mb 0.00 in0.0 mm 0.00 in/hr0.0 mm/hr 0.00 in0.0 mm
12:23 AM 64.0°F17.8°C 60.1°F15.6°C 87% 7.0 mph SW11.3 kmh SW 13.0 mph20.9 kmh 29.89 in1012.2 mb 0.00 in0.0 mm 0.00 in/hr0.0 mm/hr 0.00 in0.0 mm
12:22 AM 64.0°F17.8°C 60.1°F15.6°C 87% 6.0 mph SW9.7 kmh SW 13.0 mph20.9 kmh 29.89 in1012.2 mb 0.00 in0.0 mm 0.00 in/hr0.0 mm/hr 0.00 in0.0 mm
12:21 AM 64.0°F17.8°C 60.1°F15.6°C 87% 6.0 mph SW9.7 kmh SW 13.0 mph20.9 kmh 29.90 in1012.5 mb 0.00 in0.0 mm 0.00 in/hr0.0 mm/hr 0.00 in0.0 mm
12:20 AM 64.0°F17.8°C 60.1°F15.6°C 87% 6.0 mph SW9.7 kmh SW 13.0 mph20.9 kmh 29.89 in1012.2 mb 0.00 in0.0 mm 0.00 in/hr0.0 mm/hr 0.00 in0.0 mm
12:19 AM 64.0°F17.8°C 60.1°F15.6°C 87% 6.0 mph SW9.7 kmh SW 13.0 mph20.9 kmh 29.90 in1012.5 mb 0.00 in0.0 mm 0.00 in/hr0.0 mm/hr 0.00 in0.0 mm
12:18 AM 64.0°F17.8°C 60.1°F15.6°C 87% 6.0 mph SW9.7 kmh SW 12.0 mph19.3 kmh 29.90 in1012.5 mb 0.00 in0.0 mm 0.00 in/hr0.0 mm/hr 0.00 in0.0 mm
12:17 AM 64.0°F17.8°C 60.1°F15.6°C 87% 6.0 mph SW9.7 kmh SW 12.0 mph19.3 kmh 29.90 in1012.5 mb 0.00 in0.0 mm 0.00 in/hr0.0 mm/hr 0.00 in0.0 mm
12:16 AM 64.0°F17.8°C 60.1°F15.6°C 87% 6.0 mph SW9.7 kmh SW 12.0 mph19.3 kmh 29.89 in1012.2 mb 0.00 in0.0 mm 0.00 in/hr0.0 mm/hr 0.00 in0.0 mm
12:15 AM 64.0°F17.8°C 60.1°F15.6°C 87% 6.0 mph SW9.7 kmh SW 12.0 mph19.3 kmh 29.89 in1012.2 mb 0.00 in0.0 mm 0.00 in/hr0.0 mm/hr 0.00 in0.0 mm
12:14 AM 64.0°F17.8°C 60.1°F15.6°C 87% 6.0 mph SW9.7 kmh SW 12.0 mph19.3 kmh 29.90 in1012.5 mb 0.00 in0.0 mm 0.00 in/hr0.0 mm/hr 0.00 in0.0 mm
12:13 AM 64.0°F17.8°C 60.1°F15.6°C 87% 6.0 mph SW9.7 kmh SW 12.0 mph19.3 kmh 29.90 in1012.5 mb 0.00 in0.0 mm 0.00 in/hr0.0 mm/hr 0.00 in0.0 mm
12:12 AM 64.0°F17.8°C 60.1°F15.6°C 87% 6.0 mph SW9.7 kmh SW 12.0 mph19.3 kmh 29.89 in1012.2 mb 0.00 in0.0 mm 0.00 in/hr0.0 mm/hr 0.00 in0.0 mm
12:11 AM 64.0°F17.8°C 60.1°F15.6°C 87% 6.0 mph SW9.7 kmh SW 12.0 mph19.3 kmh 29.90 in1012.5 mb 0.00 in0.0 mm 0.00 in/hr0.0 mm/hr 0.00 in0.0 mm
12:10 AM 64.0°F17.8°C 60.1°F15.6°C 87% 7.0 mph SW11.3 kmh SW 12.0 mph19.3 kmh 29.89 in1012.2 mb 0.00 in0.0 mm 0.00 in/hr0.0 mm/hr 0.00 in0.0 mm
12:09 AM 64.0°F17.8°C 59.7°F15.4°C 86% 6.0 mph SW9.7 kmh SW 12.0 mph19.3 kmh 29.90 in1012.5 mb 0.00 in0.0 mm 0.00 in/hr0.0 mm/hr 0.00 in0.0 mm
12:08 AM 64.0°F17.8°C 60.1°F15.6°C 87% 6.0 mph SW9.7 kmh SW 12.0 mph19.3 kmh 29.90 in1012.5 mb 0.00 in0.0 mm 0.00 in/hr0.0 mm/hr 0.00 in0.0 mm
12:07 AM 64.0°F17.8°C 59.7°F15.4°C 86% 7.0 mph SW11.3 kmh SW 12.0 mph19.3 kmh 29.90 in1012.5 mb 0.00 in0.0 mm 0.00 in/hr0.0 mm/hr 0.00 in0.0 mm
12:06 AM 64.0°F17.8°C 59.7°F15.4°C 86% 7.0 mph SW11.3 kmh SW 13.0 mph20.9 kmh 29.90 in1012.5 mb 0.00 in0.0 mm 0.00 in/hr0.0 mm/hr 0.00 in0.0 mm
12:05 AM 64.0°F17.8°C 59.7°F15.4°C 86% 7.0 mph SW11.3 kmh SW 13.0 mph20.9 kmh 29.90 in1012.5 mb 0.00 in0.0 mm 0.00 in/hr0.0 mm/hr 0.00 in0.0 mm
12:04 AM 64.0°F17.8°C 59.7°F15.4°C 86% 7.0 mph SW11.3 kmh SW 14.0 mph22.5 kmh 29.90 in1012.5 mb 0.00 in0.0 mm 0.00 in/hr0.0 mm/hr 0.00 in0.0 mm
12:03 AM 64.0°F17.8°C 59.7°F15.4°C 86% 7.0 mph SW11.3 kmh SW 14.0 mph22.5 kmh 29.90 in1012.5 mb 0.00 in0.0 mm 0.00 in/hr0.0 mm/hr 0.00 in0.0 mm
12:02 AM 64.0°F17.8°C 59.7°F15.4°C 86% 7.0 mph SW11.3 kmh SW 14.0 mph22.5 kmh 29.90 in1012.5 mb 0.00 in0.0 mm 0.00 in/hr0.0 mm/hr 0.00 in0.0 mm
12:01 AM 64.0°F17.8°C 59.7°F15.4°C 86% 7.0 mph SW11.3 kmh SW 14.0 mph22.5 kmh 29.90 in1012.5 mb 0.00 in0.0 mm 0.00 in/hr0.0 mm/hr 0.00 in0.0 mm
12:00 AM 64.0°F17.8°C 59.7°F15.4°C 86% 7.0 mph SW11.3 kmh SW 14.0 mph22.5 kmh 29.90 in1012.5 mb 0.00 in0.0 mm 0.00 in/hr0.0 mm/hr 0.00 in0.0 mm